<?xml version="1.0" encoding="UTF-8" standalone="no" ?>
<gpx xmlns="http://www.topografix.com/GPX/1/1" xmlns:xsi="http://www.w3.org/2001/XMLSchema-instance" xsi:schemaLocation="http://www.topografix.com/GPX/1/1 http://www.topografix.com/GPX/1/1/gpx.xsd" version="1.1" creator="VisuGPX - https://www.visugpx.com">
  <metadata>
    <name>Celles sur Belle 9km</name>
  </metadata>
  <wpt lat="46.26242" lon="-0.20832">
    <ele>99.2</ele>
  </wpt>
  <wpt lat="46.26181" lon="-0.20782">
    <ele>97.7</ele>
  </wpt>
  <wpt lat="46.26263" lon="-0.174">
    <ele>138.3</ele>
  </wpt>
  <wpt lat="46.2627" lon="-0.171">
    <ele>140.4</ele>
  </wpt>
  <wpt lat="46.25779" lon="-0.18319">
    <ele>145.5</ele>
  </wpt>
  <wpt lat="46.2563" lon="-0.19107">
    <ele>141.7</ele>
  </wpt>
  <wpt lat="46.25544" lon="-0.19459">
    <ele>128.3</ele>
  </wpt>
  <wpt lat="46.26099" lon="-0.20676">
    <ele>106.9</ele>
  </wpt>
  <wpt lat="46.2615" lon="-0.20809">
    <ele>98.4</ele>
  </wpt>
  <wpt lat="46.26162" lon="-0.2084">
    <ele>99.7</ele>
  </wpt>
  <wpt lat="46.26217" lon="-0.20847">
    <ele>100.6</ele>
  </wpt>
  <trk>
    <name><![CDATA[Celles sur Belle 9km_1]]></name>
    <trkseg>
      <trkpt lat="46.26242" lon="-0.20831">
        <ele>105</ele>
        <time>2012-03-20T14:01:25Z</time>
      </trkpt>
      <trkpt lat="46.26242" lon="-0.20832">
        <ele>105</ele>
        <time>2012-03-20T14:01:30Z</time>
      </trkpt>
      <trkpt lat="46.26242" lon="-0.20832">
        <ele>105</ele>
        <time>2012-03-20T14:01:35Z</time>
      </trkpt>
      <trkpt lat="46.26242" lon="-0.20832">
        <ele>105</ele>
        <time>2012-03-20T14:01:40Z</time>
      </trkpt>
      <trkpt lat="46.26242" lon="-0.20832">
        <ele>105</ele>
        <time>2012-03-20T14:01:45Z</time>
      </trkpt>
      <trkpt lat="46.26242" lon="-0.20832">
        <ele>105</ele>
        <time>2012-03-20T14:01:50Z</time>
      </trkpt>
      <trkpt lat="46.26242" lon="-0.20832">
        <ele>105</ele>
        <time>2012-03-20T14:01:55Z</time>
      </trkpt>
      <trkpt lat="46.26242" lon="-0.20832">
        <ele>105</ele>
        <time>2012-03-20T14:02:00Z</time>
      </trkpt>
      <trkpt lat="46.26241" lon="-0.20834">
        <ele>105</ele>
        <time>2012-03-20T14:02:05Z</time>
      </trkpt>
      <trkpt lat="46.26243" lon="-0.20835">
        <ele>105</ele>
        <time>2012-03-20T14:02:10Z</time>
      </trkpt>
      <trkpt lat="46.26243" lon="-0.20835">
        <ele>105</ele>
        <time>2012-03-20T14:02:15Z</time>
      </trkpt>
      <trkpt lat="46.26243" lon="-0.20835">
        <ele>105</ele>
        <time>2012-03-20T14:02:20Z</time>
      </trkpt>
      <trkpt lat="46.26243" lon="-0.20835">
        <ele>105</ele>
        <time>2012-03-20T14:02:25Z</time>
      </trkpt>
      <trkpt lat="46.26243" lon="-0.20835">
        <ele>105</ele>
        <time>2012-03-20T14:02:30Z</time>
      </trkpt>
      <trkpt lat="46.26243" lon="-0.20835">
        <ele>105</ele>
        <time>2012-03-20T14:02:35Z</time>
      </trkpt>
      <trkpt lat="46.26243" lon="-0.20835">
        <ele>105</ele>
        <time>2012-03-20T14:02:40Z</time>
      </trkpt>
      <trkpt lat="46.26243" lon="-0.20835">
        <ele>105</ele>
        <time>2012-03-20T14:02:45Z</time>
      </trkpt>
      <trkpt lat="46.26243" lon="-0.20835">
        <ele>105</ele>
        <time>2012-03-20T14:02:50Z</time>
      </trkpt>
      <trkpt lat="46.26243" lon="-0.20835">
        <ele>105</ele>
        <time>2012-03-20T14:02:55Z</time>
      </trkpt>
      <trkpt lat="46.26243" lon="-0.20835">
        <ele>105</ele>
        <time>2012-03-20T14:03:00Z</time>
      </trkpt>
      <trkpt lat="46.26243" lon="-0.20834">
        <ele>105</ele>
        <time>2012-03-20T14:03:05Z</time>
      </trkpt>
      <trkpt lat="46.26243" lon="-0.20834">
        <ele>105</ele>
        <time>2012-03-20T14:03:10Z</time>
      </trkpt>
      <trkpt lat="46.26243" lon="-0.20834">
        <ele>105</ele>
        <time>2012-03-20T14:03:15Z</time>
      </trkpt>
      <trkpt lat="46.26242" lon="-0.20834">
        <ele>105</ele>
        <time>2012-03-20T14:03:20Z</time>
      </trkpt>
      <trkpt lat="46.26242" lon="-0.20834">
        <ele>105</ele>
        <time>2012-03-20T14:03:25Z</time>
      </trkpt>
      <trkpt lat="46.26243" lon="-0.20835">
        <ele>105</ele>
        <time>2012-03-20T14:03:30Z</time>
      </trkpt>
      <trkpt lat="46.26243" lon="-0.20834">
        <ele>105</ele>
        <time>2012-03-20T14:03:35Z</time>
      </trkpt>
      <trkpt lat="46.26239" lon="-0.20836">
        <ele>105</ele>
        <time>2012-03-20T14:06:44Z</time>
      </trkpt>
      <trkpt lat="46.26239" lon="-0.20836">
        <ele>105</ele>
        <time>2012-03-20T14:06:49Z</time>
      </trkpt>
      <trkpt lat="46.26236" lon="-0.20836">
        <ele>105</ele>
        <time>2012-03-20T14:06:54Z</time>
      </trkpt>
      <trkpt lat="46.26237" lon="-0.20835">
        <ele>105</ele>
        <time>2012-03-20T14:06:59Z</time>
      </trkpt>
      <trkpt lat="46.26237" lon="-0.20835">
        <ele>105</ele>
        <time>2012-03-20T14:07:07Z</time>
      </trkpt>
      <trkpt lat="46.26238" lon="-0.20835">
        <ele>105</ele>
        <time>2012-03-20T14:07:11Z</time>
      </trkpt>
      <trkpt lat="46.26237" lon="-0.20836">
        <ele>105</ele>
        <time>2012-03-20T14:07:18Z</time>
      </trkpt>
      <trkpt lat="46.26237" lon="-0.20836">
        <ele>105</ele>
        <time>2012-03-20T14:07:19Z</time>
      </trkpt>
      <trkpt lat="46.26237" lon="-0.20837">
        <ele>105</ele>
        <time>2012-03-20T14:07:30Z</time>
      </trkpt>
      <trkpt lat="46.26237" lon="-0.20837">
        <ele>105</ele>
        <time>2012-03-20T14:07:31Z</time>
      </trkpt>
      <trkpt lat="46.26236" lon="-0.20838">
        <ele>105</ele>
        <time>2012-03-20T14:07:37Z</time>
      </trkpt>
      <trkpt lat="46.26234" lon="-0.20839">
        <ele>105</ele>
        <time>2012-03-20T14:07:41Z</time>
      </trkpt>
      <trkpt lat="46.26232" lon="-0.2084">
        <ele>105</ele>
        <time>2012-03-20T14:07:45Z</time>
      </trkpt>
      <trkpt lat="46.26222" lon="-0.20849">
        <ele>105</ele>
        <time>2012-03-20T14:07:51Z</time>
      </trkpt>
      <trkpt lat="46.26215" lon="-0.20849">
        <ele>105</ele>
        <time>2012-03-20T14:07:56Z</time>
      </trkpt>
      <trkpt lat="46.26214" lon="-0.20848">
        <ele>105</ele>
        <time>2012-03-20T14:08:01Z</time>
      </trkpt>
      <trkpt lat="46.26211" lon="-0.20844">
        <ele>105</ele>
        <time>2012-03-20T14:08:06Z</time>
      </trkpt>
      <trkpt lat="46.2621" lon="-0.20844">
        <ele>105</ele>
        <time>2012-03-20T14:08:11Z</time>
      </trkpt>
      <trkpt lat="46.26208" lon="-0.20844">
        <ele>103</ele>
        <time>2012-03-20T14:08:17Z</time>
      </trkpt>
      <trkpt lat="46.26208" lon="-0.20841">
        <ele>103</ele>
        <time>2012-03-20T14:08:20Z</time>
      </trkpt>
      <trkpt lat="46.26202" lon="-0.20835">
        <ele>103</ele>
        <time>2012-03-20T14:08:30Z</time>
      </trkpt>
      <trkpt lat="46.26203" lon="-0.20835">
        <ele>103</ele>
        <time>2012-03-20T14:08:31Z</time>
      </trkpt>
      <trkpt lat="46.262" lon="-0.2083">
        <ele>103</ele>
        <time>2012-03-20T14:08:38Z</time>
      </trkpt>
      <trkpt lat="46.262" lon="-0.2083">
        <ele>103</ele>
        <time>2012-03-20T14:08:39Z</time>
      </trkpt>
      <trkpt lat="46.26198" lon="-0.2083">
        <ele>103</ele>
        <time>2012-03-20T14:08:51Z</time>
      </trkpt>
      <trkpt lat="46.26196" lon="-0.2082">
        <ele>103</ele>
        <time>2012-03-20T14:08:58Z</time>
      </trkpt>
      <trkpt lat="46.26193" lon="-0.20818">
        <ele>103</ele>
        <time>2012-03-20T14:08:59Z</time>
      </trkpt>
      <trkpt lat="46.26188" lon="-0.20806">
        <ele>103</ele>
        <time>2012-03-20T14:09:08Z</time>
      </trkpt>
      <trkpt lat="46.26185" lon="-0.20794">
        <ele>103</ele>
        <time>2012-03-20T14:09:22Z</time>
      </trkpt>
      <trkpt lat="46.26182" lon="-0.20787">
        <ele>112</ele>
        <time>2012-03-20T14:09:24Z</time>
      </trkpt>
      <trkpt lat="46.26181" lon="-0.20781">
        <ele>112</ele>
        <time>2012-03-20T14:09:29Z</time>
      </trkpt>
      <trkpt lat="46.26181" lon="-0.20781">
        <ele>112</ele>
        <time>2012-03-20T14:09:34Z</time>
      </trkpt>
      <trkpt lat="46.26181" lon="-0.20781">
        <ele>112</ele>
        <time>2012-03-20T14:09:39Z</time>
      </trkpt>
      <trkpt lat="46.2618" lon="-0.2078">
        <ele>112</ele>
        <time>2012-03-20T14:09:44Z</time>
      </trkpt>
      <trkpt lat="46.26178" lon="-0.20774">
        <ele>112</ele>
        <time>2012-03-20T14:09:49Z</time>
      </trkpt>
      <trkpt lat="46.26176" lon="-0.2077">
        <ele>112</ele>
        <time>2012-03-20T14:09:54Z</time>
      </trkpt>
      <trkpt lat="46.26178" lon="-0.20764">
        <ele>112</ele>
        <time>2012-03-20T14:09:59Z</time>
      </trkpt>
      <trkpt lat="46.2618" lon="-0.20757">
        <ele>112</ele>
        <time>2012-03-20T14:10:04Z</time>
      </trkpt>
      <trkpt lat="46.26177" lon="-0.20747">
        <ele>112</ele>
        <time>2012-03-20T14:10:09Z</time>
      </trkpt>
      <trkpt lat="46.26175" lon="-0.20744">
        <ele>112</ele>
        <time>2012-03-20T14:10:14Z</time>
      </trkpt>
      <trkpt lat="46.26176" lon="-0.20737">
        <ele>112</ele>
        <time>2012-03-20T14:10:19Z</time>
      </trkpt>
      <trkpt lat="46.26173" lon="-0.20727">
        <ele>112</ele>
        <time>2012-03-20T14:10:24Z</time>
      </trkpt>
      <trkpt lat="46.26173" lon="-0.20718">
        <ele>112</ele>
        <time>2012-03-20T14:10:29Z</time>
      </trkpt>
      <trkpt lat="46.26174" lon="-0.20712">
        <ele>112</ele>
        <time>2012-03-20T14:10:34Z</time>
      </trkpt>
      <trkpt lat="46.26175" lon="-0.20707">
        <ele>125</ele>
        <time>2012-03-20T14:10:39Z</time>
      </trkpt>
      <trkpt lat="46.26174" lon="-0.20694">
        <ele>125</ele>
        <time>2012-03-20T14:10:44Z</time>
      </trkpt>
      <trkpt lat="46.26173" lon="-0.20686">
        <ele>125</ele>
        <time>2012-03-20T14:10:49Z</time>
      </trkpt>
      <trkpt lat="46.26182" lon="-0.20685">
        <ele>125</ele>
        <time>2012-03-20T14:10:58Z</time>
      </trkpt>
      <trkpt lat="46.26182" lon="-0.20684">
        <ele>125</ele>
        <time>2012-03-20T14:10:59Z</time>
      </trkpt>
      <trkpt lat="46.26191" lon="-0.2068">
        <ele>125</ele>
        <time>2012-03-20T14:11:08Z</time>
      </trkpt>
      <trkpt lat="46.26195" lon="-0.20684">
        <ele>125</ele>
        <time>2012-03-20T14:11:10Z</time>
      </trkpt>
      <trkpt lat="46.26202" lon="-0.20684">
        <ele>125</ele>
        <time>2012-03-20T14:11:19Z</time>
      </trkpt>
      <trkpt lat="46.26204" lon="-0.20683">
        <ele>125</ele>
        <time>2012-03-20T14:11:20Z</time>
      </trkpt>
      <trkpt lat="46.26214" lon="-0.20681">
        <ele>125</ele>
        <time>2012-03-20T14:11:28Z</time>
      </trkpt>
      <trkpt lat="46.26215" lon="-0.2068">
        <ele>125</ele>
        <time>2012-03-20T14:11:29Z</time>
      </trkpt>
      <trkpt lat="46.26225" lon="-0.20684">
        <ele>125</ele>
        <time>2012-03-20T14:11:40Z</time>
      </trkpt>
      <trkpt lat="46.26226" lon="-0.20684">
        <ele>125</ele>
        <time>2012-03-20T14:11:40Z</time>
      </trkpt>
      <trkpt lat="46.26229" lon="-0.20683">
        <ele>125</ele>
        <time>2012-03-20T14:11:45Z</time>
      </trkpt>
      <trkpt lat="46.26232" lon="-0.20684">
        <ele>125</ele>
        <time>2012-03-20T14:11:53Z</time>
      </trkpt>
      <trkpt lat="46.26234" lon="-0.20685">
        <ele>125</ele>
        <time>2012-03-20T14:11:54Z</time>
      </trkpt>
      <trkpt lat="46.26242" lon="-0.20682">
        <ele>125</ele>
        <time>2012-03-20T14:12:05Z</time>
      </trkpt>
      <trkpt lat="46.26242" lon="-0.20681">
        <ele>125</ele>
        <time>2012-03-20T14:12:06Z</time>
      </trkpt>
      <trkpt lat="46.26248" lon="-0.2068">
        <ele>125</ele>
        <time>2012-03-20T14:12:11Z</time>
      </trkpt>
      <trkpt lat="46.2626" lon="-0.20681">
        <ele>125</ele>
        <time>2012-03-20T14:12:18Z</time>
      </trkpt>
      <trkpt lat="46.2626" lon="-0.20682">
        <ele>125</ele>
        <time>2012-03-20T14:12:19Z</time>
      </trkpt>
      <trkpt lat="46.26274" lon="-0.20691">
        <ele>125</ele>
        <time>2012-03-20T14:12:30Z</time>
      </trkpt>
      <trkpt lat="46.26274" lon="-0.20691">
        <ele>125</ele>
        <time>2012-03-20T14:12:31Z</time>
      </trkpt>
      <trkpt lat="46.26277" lon="-0.20689">
        <ele>125</ele>
        <time>2012-03-20T14:12:36Z</time>
      </trkpt>
      <trkpt lat="46.2628" lon="-0.2069">
        <ele>125</ele>
        <time>2012-03-20T14:12:41Z</time>
      </trkpt>
      <trkpt lat="46.26286" lon="-0.20687">
        <ele>125</ele>
        <time>2012-03-20T14:12:46Z</time>
      </trkpt>
      <trkpt lat="46.26292" lon="-0.20684">
        <ele>125</ele>
        <time>2012-03-20T14:12:52Z</time>
      </trkpt>
      <trkpt lat="46.26294" lon="-0.20682">
        <ele>125</ele>
        <time>2012-03-20T14:12:55Z</time>
      </trkpt>
      <trkpt lat="46.26296" lon="-0.20679">
        <ele>125</ele>
        <time>2012-03-20T14:13:04Z</time>
      </trkpt>
      <trkpt lat="46.26297" lon="-0.20678">
        <ele>125</ele>
        <time>2012-03-20T14:13:05Z</time>
      </trkpt>
      <trkpt lat="46.26301" lon="-0.20677">
        <ele>125</ele>
        <time>2012-03-20T14:13:13Z</time>
      </trkpt>
      <trkpt lat="46.26302" lon="-0.20676">
        <ele>125</ele>
        <time>2012-03-20T14:13:14Z</time>
      </trkpt>
      <trkpt lat="46.26306" lon="-0.20674">
        <ele>125</ele>
        <time>2012-03-20T14:13:25Z</time>
      </trkpt>
      <trkpt lat="46.26306" lon="-0.20674">
        <ele>125</ele>
        <time>2012-03-20T14:13:26Z</time>
      </trkpt>
      <trkpt lat="46.26316" lon="-0.20668">
        <ele>125</ele>
        <time>2012-03-20T14:13:33Z</time>
      </trkpt>
      <trkpt lat="46.26316" lon="-0.20668">
        <ele>125</ele>
        <time>2012-03-20T14:13:35Z</time>
      </trkpt>
      <trkpt lat="46.26321" lon="-0.20664">
        <ele>125</ele>
        <time>2012-03-20T14:13:42Z</time>
      </trkpt>
      <trkpt lat="46.26323" lon="-0.20661">
        <ele>125</ele>
        <time>2012-03-20T14:13:46Z</time>
      </trkpt>
      <trkpt lat="46.26326" lon="-0.20659">
        <ele>125</ele>
        <time>2012-03-20T14:13:52Z</time>
      </trkpt>
      <trkpt lat="46.26334" lon="-0.20654">
        <ele>125</ele>
        <time>2012-03-20T14:13:57Z</time>
      </trkpt>
      <trkpt lat="46.2634" lon="-0.20649">
        <ele>125</ele>
        <time>2012-03-20T14:14:00Z</time>
      </trkpt>
      <trkpt lat="46.26345" lon="-0.20643">
        <ele>125</ele>
        <time>2012-03-20T14:14:06Z</time>
      </trkpt>
      <trkpt lat="46.26348" lon="-0.20639">
        <ele>125</ele>
        <time>2012-03-20T14:14:10Z</time>
      </trkpt>
      <trkpt lat="46.26352" lon="-0.20635">
        <ele>125</ele>
        <time>2012-03-20T14:14:19Z</time>
      </trkpt>
      <trkpt lat="46.26358" lon="-0.20629">
        <ele>125</ele>
        <time>2012-03-20T14:14:30Z</time>
      </trkpt>
      <trkpt lat="46.26358" lon="-0.20629">
        <ele>125</ele>
        <time>2012-03-20T14:14:31Z</time>
      </trkpt>
      <trkpt lat="46.26359" lon="-0.20621">
        <ele>126</ele>
        <time>2012-03-20T14:14:41Z</time>
      </trkpt>
      <trkpt lat="46.2636" lon="-0.20619">
        <ele>126</ele>
        <time>2012-03-20T14:14:42Z</time>
      </trkpt>
      <trkpt lat="46.26362" lon="-0.20614">
        <ele>126</ele>
        <time>2012-03-20T14:14:44Z</time>
      </trkpt>
      <trkpt lat="46.26363" lon="-0.20604">
        <ele>126</ele>
        <time>2012-03-20T14:14:56Z</time>
      </trkpt>
      <trkpt lat="46.26362" lon="-0.206">
        <ele>126</ele>
        <time>2012-03-20T14:14:56Z</time>
      </trkpt>
      <trkpt lat="46.2636" lon="-0.20597">
        <ele>126</ele>
        <time>2012-03-20T14:15:01Z</time>
      </trkpt>
      <trkpt lat="46.26357" lon="-0.20592">
        <ele>126</ele>
        <time>2012-03-20T14:15:06Z</time>
      </trkpt>
      <trkpt lat="46.26355" lon="-0.20588">
        <ele>126</ele>
        <time>2012-03-20T14:15:09Z</time>
      </trkpt>
      <trkpt lat="46.26349" lon="-0.20572">
        <ele>126</ele>
        <time>2012-03-20T14:15:21Z</time>
      </trkpt>
      <trkpt lat="46.26348" lon="-0.2057">
        <ele>126</ele>
        <time>2012-03-20T14:15:22Z</time>
      </trkpt>
      <trkpt lat="46.26347" lon="-0.20567">
        <ele>126</ele>
        <time>2012-03-20T14:15:24Z</time>
      </trkpt>
      <trkpt lat="46.26344" lon="-0.20557">
        <ele>126</ele>
        <time>2012-03-20T14:15:34Z</time>
      </trkpt>
      <trkpt lat="46.26343" lon="-0.20556">
        <ele>126</ele>
        <time>2012-03-20T14:15:35Z</time>
      </trkpt>
      <trkpt lat="46.26338" lon="-0.20544">
        <ele>126</ele>
        <time>2012-03-20T14:15:44Z</time>
      </trkpt>
      <trkpt lat="46.26338" lon="-0.20543">
        <ele>126</ele>
        <time>2012-03-20T14:15:44Z</time>
      </trkpt>
      <trkpt lat="46.26333" lon="-0.20534">
        <ele>127</ele>
        <time>2012-03-20T14:15:54Z</time>
      </trkpt>
      <trkpt lat="46.26334" lon="-0.20534">
        <ele>127</ele>
        <time>2012-03-20T14:15:54Z</time>
      </trkpt>
      <trkpt lat="46.26333" lon="-0.20532">
        <ele>127</ele>
        <time>2012-03-20T14:16:06Z</time>
      </trkpt>
      <trkpt lat="46.26331" lon="-0.20529">
        <ele>127</ele>
        <time>2012-03-20T14:16:08Z</time>
      </trkpt>
      <trkpt lat="46.26327" lon="-0.20522">
        <ele>127</ele>
        <time>2012-03-20T14:16:10Z</time>
      </trkpt>
      <trkpt lat="46.26324" lon="-0.20516">
        <ele>127</ele>
        <time>2012-03-20T14:16:17Z</time>
      </trkpt>
      <trkpt lat="46.26323" lon="-0.20515">
        <ele>127</ele>
        <time>2012-03-20T14:16:20Z</time>
      </trkpt>
      <trkpt lat="46.26318" lon="-0.20503">
        <ele>127</ele>
        <time>2012-03-20T14:16:28Z</time>
      </trkpt>
      <trkpt lat="46.26317" lon="-0.20502">
        <ele>127</ele>
        <time>2012-03-20T14:16:29Z</time>
      </trkpt>
      <trkpt lat="46.26312" lon="-0.20488">
        <ele>127</ele>
        <time>2012-03-20T14:16:39Z</time>
      </trkpt>
      <trkpt lat="46.26311" lon="-0.20487">
        <ele>127</ele>
        <time>2012-03-20T14:16:40Z</time>
      </trkpt>
      <trkpt lat="46.2631" lon="-0.20481">
        <ele>127</ele>
        <time>2012-03-20T14:16:50Z</time>
      </trkpt>
      <trkpt lat="46.26307" lon="-0.20475">
        <ele>127</ele>
        <time>2012-03-20T14:16:51Z</time>
      </trkpt>
      <trkpt lat="46.26304" lon="-0.20469">
        <ele>127</ele>
        <time>2012-03-20T14:16:58Z</time>
      </trkpt>
      <trkpt lat="46.26303" lon="-0.20466">
        <ele>127</ele>
        <time>2012-03-20T14:16:59Z</time>
      </trkpt>
      <trkpt lat="46.26299" lon="-0.20459">
        <ele>127</ele>
        <time>2012-03-20T14:17:08Z</time>
      </trkpt>
      <trkpt lat="46.26298" lon="-0.20457">
        <ele>130</ele>
        <time>2012-03-20T14:17:09Z</time>
      </trkpt>
      <trkpt lat="46.26294" lon="-0.20449">
        <ele>130</ele>
        <time>2012-03-20T14:17:19Z</time>
      </trkpt>
      <trkpt lat="46.26286" lon="-0.20432">
        <ele>131</ele>
        <time>2012-03-20T14:17:31Z</time>
      </trkpt>
      <trkpt lat="46.26285" lon="-0.2043">
        <ele>131</ele>
        <time>2012-03-20T14:17:32Z</time>
      </trkpt>
      <trkpt lat="46.26281" lon="-0.20423">
        <ele>131</ele>
        <time>2012-03-20T14:17:38Z</time>
      </trkpt>
      <trkpt lat="46.2628" lon="-0.20419">
        <ele>131</ele>
        <time>2012-03-20T14:17:39Z</time>
      </trkpt>
      <trkpt lat="46.26276" lon="-0.20409">
        <ele>131</ele>
        <time>2012-03-20T14:17:51Z</time>
      </trkpt>
      <trkpt lat="46.26277" lon="-0.20406">
        <ele>131</ele>
        <time>2012-03-20T14:17:51Z</time>
      </trkpt>
      <trkpt lat="46.26272" lon="-0.20395">
        <ele>131</ele>
        <time>2012-03-20T14:17:57Z</time>
      </trkpt>
      <trkpt lat="46.2627" lon="-0.20389">
        <ele>131</ele>
        <time>2012-03-20T14:18:02Z</time>
      </trkpt>
      <trkpt lat="46.26266" lon="-0.20376">
        <ele>131</ele>
        <time>2012-03-20T14:18:06Z</time>
      </trkpt>
      <trkpt lat="46.26265" lon="-0.20374">
        <ele>133</ele>
        <time>2012-03-20T14:18:11Z</time>
      </trkpt>
      <trkpt lat="46.2626" lon="-0.20366">
        <ele>133</ele>
        <time>2012-03-20T14:18:18Z</time>
      </trkpt>
      <trkpt lat="46.26259" lon="-0.20366">
        <ele>133</ele>
        <time>2012-03-20T14:18:19Z</time>
      </trkpt>
      <trkpt lat="46.26255" lon="-0.20358">
        <ele>133</ele>
        <time>2012-03-20T14:18:26Z</time>
      </trkpt>
      <trkpt lat="46.26253" lon="-0.20353">
        <ele>133</ele>
        <time>2012-03-20T14:18:33Z</time>
      </trkpt>
      <trkpt lat="46.26252" lon="-0.20351">
        <ele>133</ele>
        <time>2012-03-20T14:18:34Z</time>
      </trkpt>
      <trkpt lat="46.26246" lon="-0.20341">
        <ele>133</ele>
        <time>2012-03-20T14:18:46Z</time>
      </trkpt>
      <trkpt lat="46.26243" lon="-0.20333">
        <ele>133</ele>
        <time>2012-03-20T14:18:53Z</time>
      </trkpt>
      <trkpt lat="46.26243" lon="-0.20332">
        <ele>133</ele>
        <time>2012-03-20T14:18:54Z</time>
      </trkpt>
      <trkpt lat="46.26237" lon="-0.20321">
        <ele>133</ele>
        <time>2012-03-20T14:19:06Z</time>
      </trkpt>
      <trkpt lat="46.26237" lon="-0.20319">
        <ele>133</ele>
        <time>2012-03-20T14:19:11Z</time>
      </trkpt>
      <trkpt lat="46.26235" lon="-0.20311">
        <ele>133</ele>
        <time>2012-03-20T14:19:16Z</time>
      </trkpt>
      <trkpt lat="46.26233" lon="-0.20307">
        <ele>133</ele>
        <time>2012-03-20T14:19:23Z</time>
      </trkpt>
      <trkpt lat="46.26233" lon="-0.20306">
        <ele>133</ele>
        <time>2012-03-20T14:19:24Z</time>
      </trkpt>
      <trkpt lat="46.26231" lon="-0.203">
        <ele>133</ele>
        <time>2012-03-20T14:19:36Z</time>
      </trkpt>
      <trkpt lat="46.26225" lon="-0.20285">
        <ele>134</ele>
        <time>2012-03-20T14:19:41Z</time>
      </trkpt>
      <trkpt lat="46.26221" lon="-0.20278">
        <ele>134</ele>
        <time>2012-03-20T14:19:47Z</time>
      </trkpt>
      <trkpt lat="46.26218" lon="-0.20273">
        <ele>134</ele>
        <time>2012-03-20T14:19:51Z</time>
      </trkpt>
      <trkpt lat="46.26211" lon="-0.20265">
        <ele>134</ele>
        <time>2012-03-20T14:19:59Z</time>
      </trkpt>
      <trkpt lat="46.26211" lon="-0.20265">
        <ele>134</ele>
        <time>2012-03-20T14:19:59Z</time>
      </trkpt>
      <trkpt lat="46.26205" lon="-0.20249">
        <ele>137</ele>
        <time>2012-03-20T14:20:08Z</time>
      </trkpt>
      <trkpt lat="46.26201" lon="-0.2024">
        <ele>137</ele>
        <time>2012-03-20T14:20:11Z</time>
      </trkpt>
      <trkpt lat="46.26194" lon="-0.20219">
        <ele>137</ele>
        <time>2012-03-20T14:20:18Z</time>
      </trkpt>
      <trkpt lat="46.26192" lon="-0.20218">
        <ele>137</ele>
        <time>2012-03-20T14:20:21Z</time>
      </trkpt>
      <trkpt lat="46.26187" lon="-0.20208">
        <ele>136</ele>
        <time>2012-03-20T14:20:26Z</time>
      </trkpt>
      <trkpt lat="46.26183" lon="-0.20202">
        <ele>136</ele>
        <time>2012-03-20T14:20:34Z</time>
      </trkpt>
      <trkpt lat="46.26183" lon="-0.20202">
        <ele>136</ele>
        <time>2012-03-20T14:20:34Z</time>
      </trkpt>
      <trkpt lat="46.26182" lon="-0.20191">
        <ele>136</ele>
        <time>2012-03-20T14:20:46Z</time>
      </trkpt>
      <trkpt lat="46.26181" lon="-0.20188">
        <ele>136</ele>
        <time>2012-03-20T14:20:51Z</time>
      </trkpt>
      <trkpt lat="46.26182" lon="-0.20179">
        <ele>136</ele>
        <time>2012-03-20T14:20:59Z</time>
      </trkpt>
      <trkpt lat="46.26181" lon="-0.20177">
        <ele>136</ele>
        <time>2012-03-20T14:20:59Z</time>
      </trkpt>
      <trkpt lat="46.26182" lon="-0.20163">
        <ele>136</ele>
        <time>2012-03-20T14:21:09Z</time>
      </trkpt>
      <trkpt lat="46.26183" lon="-0.2016">
        <ele>136</ele>
        <time>2012-03-20T14:21:09Z</time>
      </trkpt>
      <trkpt lat="46.26186" lon="-0.20142">
        <ele>136</ele>
        <time>2012-03-20T14:21:23Z</time>
      </trkpt>
      <trkpt lat="46.26193" lon="-0.20124">
        <ele>137</ele>
        <time>2012-03-20T14:21:36Z</time>
      </trkpt>
      <trkpt lat="46.26193" lon="-0.20123">
        <ele>137</ele>
        <time>2012-03-20T14:21:37Z</time>
      </trkpt>
      <trkpt lat="46.26196" lon="-0.20115">
        <ele>137</ele>
        <time>2012-03-20T14:21:44Z</time>
      </trkpt>
      <trkpt lat="46.26197" lon="-0.20114">
        <ele>137</ele>
        <time>2012-03-20T14:21:44Z</time>
      </trkpt>
      <trkpt lat="46.26199" lon="-0.20097">
        <ele>137</ele>
        <time>2012-03-20T14:21:56Z</time>
      </trkpt>
      <trkpt lat="46.26204" lon="-0.2009">
        <ele>137</ele>
        <time>2012-03-20T14:22:03Z</time>
      </trkpt>
      <trkpt lat="46.26205" lon="-0.20087">
        <ele>137</ele>
        <time>2012-03-20T14:22:04Z</time>
      </trkpt>
      <trkpt lat="46.26206" lon="-0.20077">
        <ele>137</ele>
        <time>2012-03-20T14:22:14Z</time>
      </trkpt>
      <trkpt lat="46.26207" lon="-0.20076">
        <ele>137</ele>
        <time>2012-03-20T14:22:15Z</time>
      </trkpt>
      <trkpt lat="46.26213" lon="-0.20068">
        <ele>136</ele>
        <time>2012-03-20T14:22:25Z</time>
      </trkpt>
      <trkpt lat="46.26213" lon="-0.20066">
        <ele>136</ele>
        <time>2012-03-20T14:22:25Z</time>
      </trkpt>
      <trkpt lat="46.26209" lon="-0.20062">
        <ele>136</ele>
        <time>2012-03-20T14:22:36Z</time>
      </trkpt>
      <trkpt lat="46.2621" lon="-0.20061">
        <ele>136</ele>
        <time>2012-03-20T14:22:36Z</time>
      </trkpt>
      <trkpt lat="46.26213" lon="-0.20059">
        <ele>136</ele>
        <time>2012-03-20T14:22:43Z</time>
      </trkpt>
      <trkpt lat="46.26214" lon="-0.20058">
        <ele>136</ele>
        <time>2012-03-20T14:22:44Z</time>
      </trkpt>
      <trkpt lat="46.2622" lon="-0.20054">
        <ele>136</ele>
        <time>2012-03-20T14:22:56Z</time>
      </trkpt>
      <trkpt lat="46.26221" lon="-0.20053">
        <ele>136</ele>
        <time>2012-03-20T14:22:56Z</time>
      </trkpt>
      <trkpt lat="46.26225" lon="-0.20047">
        <ele>136</ele>
        <time>2012-03-20T14:23:04Z</time>
      </trkpt>
      <trkpt lat="46.26225" lon="-0.20047">
        <ele>136</ele>
        <time>2012-03-20T14:23:04Z</time>
      </trkpt>
      <trkpt lat="46.26235" lon="-0.20041">
        <ele>138</ele>
        <time>2012-03-20T14:23:16Z</time>
      </trkpt>
      <trkpt lat="46.2624" lon="-0.20032">
        <ele>138</ele>
        <time>2012-03-20T14:23:24Z</time>
      </trkpt>
      <trkpt lat="46.2624" lon="-0.20032">
        <ele>138</ele>
        <time>2012-03-20T14:23:24Z</time>
      </trkpt>
      <trkpt lat="46.26245" lon="-0.20026">
        <ele>138</ele>
        <time>2012-03-20T14:23:36Z</time>
      </trkpt>
      <trkpt lat="46.26246" lon="-0.20025">
        <ele>138</ele>
        <time>2012-03-20T14:23:37Z</time>
      </trkpt>
      <trkpt lat="46.26251" lon="-0.20021">
        <ele>138</ele>
        <time>2012-03-20T14:23:44Z</time>
      </trkpt>
      <trkpt lat="46.26254" lon="-0.20021">
        <ele>138</ele>
        <time>2012-03-20T14:23:44Z</time>
      </trkpt>
      <trkpt lat="46.2627" lon="-0.20013">
        <ele>138</ele>
        <time>2012-03-20T14:23:56Z</time>
      </trkpt>
      <trkpt lat="46.26275" lon="-0.20009">
        <ele>138</ele>
        <time>2012-03-20T14:24:03Z</time>
      </trkpt>
      <trkpt lat="46.26277" lon="-0.20008">
        <ele>138</ele>
        <time>2012-03-20T14:24:04Z</time>
      </trkpt>
      <trkpt lat="46.26288" lon="-0.19997">
        <ele>138</ele>
        <time>2012-03-20T14:24:16Z</time>
      </trkpt>
      <trkpt lat="46.26286" lon="-0.19995">
        <ele>138</ele>
        <time>2012-03-20T14:24:16Z</time>
      </trkpt>
      <trkpt lat="46.26284" lon="-0.19986">
        <ele>138</ele>
        <time>2012-03-20T14:24:24Z</time>
      </trkpt>
      <trkpt lat="46.26284" lon="-0.19985">
        <ele>138</ele>
        <time>2012-03-20T14:24:24Z</time>
      </trkpt>
      <trkpt lat="46.26285" lon="-0.19973">
        <ele>138</ele>
        <time>2012-03-20T14:24:36Z</time>
      </trkpt>
      <trkpt lat="46.26285" lon="-0.1997">
        <ele>138</ele>
        <time>2012-03-20T14:24:36Z</time>
      </trkpt>
      <trkpt lat="46.26285" lon="-0.19959">
        <ele>138</ele>
        <time>2012-03-20T14:24:44Z</time>
      </trkpt>
      <trkpt lat="46.26286" lon="-0.19957">
        <ele>136</ele>
        <time>2012-03-20T14:24:44Z</time>
      </trkpt>
      <trkpt lat="46.26288" lon="-0.1994">
        <ele>136</ele>
        <time>2012-03-20T14:24:56Z</time>
      </trkpt>
      <trkpt lat="46.26287" lon="-0.19939">
        <ele>136</ele>
        <time>2012-03-20T14:24:57Z</time>
      </trkpt>
      <trkpt lat="46.2629" lon="-0.19931">
        <ele>136</ele>
        <time>2012-03-20T14:25:03Z</time>
      </trkpt>
      <trkpt lat="46.26291" lon="-0.19925">
        <ele>136</ele>
        <time>2012-03-20T14:25:06Z</time>
      </trkpt>
      <trkpt lat="46.26289" lon="-0.1992">
        <ele>136</ele>
        <time>2012-03-20T14:25:09Z</time>
      </trkpt>
      <trkpt lat="46.26288" lon="-0.19902">
        <ele>136</ele>
        <time>2012-03-20T14:25:23Z</time>
      </trkpt>
      <trkpt lat="46.2629" lon="-0.19901">
        <ele>136</ele>
        <time>2012-03-20T14:25:24Z</time>
      </trkpt>
      <trkpt lat="46.26299" lon="-0.19883">
        <ele>139</ele>
        <time>2012-03-20T14:25:37Z</time>
      </trkpt>
      <trkpt lat="46.263" lon="-0.1988">
        <ele>139</ele>
        <time>2012-03-20T14:25:38Z</time>
      </trkpt>
      <trkpt lat="46.26302" lon="-0.19876">
        <ele>139</ele>
        <time>2012-03-20T14:25:41Z</time>
      </trkpt>
      <trkpt lat="46.26301" lon="-0.19863">
        <ele>131</ele>
        <time>2012-03-20T14:25:48Z</time>
      </trkpt>
      <trkpt lat="46.263" lon="-0.19862">
        <ele>131</ele>
        <time>2012-03-20T14:25:49Z</time>
      </trkpt>
      <trkpt lat="46.26296" lon="-0.19848">
        <ele>131</ele>
        <time>2012-03-20T14:26:01Z</time>
      </trkpt>
      <trkpt lat="46.26297" lon="-0.19846">
        <ele>131</ele>
        <time>2012-03-20T14:26:02Z</time>
      </trkpt>
      <trkpt lat="46.26298" lon="-0.19841">
        <ele>131</ele>
        <time>2012-03-20T14:26:06Z</time>
      </trkpt>
      <trkpt lat="46.26302" lon="-0.19835">
        <ele>131</ele>
        <time>2012-03-20T14:26:10Z</time>
      </trkpt>
      <trkpt lat="46.26302" lon="-0.19826">
        <ele>131</ele>
        <time>2012-03-20T14:26:20Z</time>
      </trkpt>
      <trkpt lat="46.26302" lon="-0.19826">
        <ele>131</ele>
        <time>2012-03-20T14:26:29Z</time>
      </trkpt>
      <trkpt lat="46.26302" lon="-0.19826">
        <ele>131</ele>
        <time>2012-03-20T14:26:30Z</time>
      </trkpt>
      <trkpt lat="46.26302" lon="-0.19826">
        <ele>131</ele>
        <time>2012-03-20T14:26:41Z</time>
      </trkpt>
      <trkpt lat="46.26302" lon="-0.19826">
        <ele>131</ele>
        <time>2012-03-20T14:26:47Z</time>
      </trkpt>
      <trkpt lat="46.26302" lon="-0.19826">
        <ele>131</ele>
        <time>2012-03-20T14:26:51Z</time>
      </trkpt>
      <trkpt lat="46.26302" lon="-0.19826">
        <ele>131</ele>
        <time>2012-03-20T14:26:55Z</time>
      </trkpt>
      <trkpt lat="46.26302" lon="-0.19826">
        <ele>131</ele>
        <time>2012-03-20T14:27:01Z</time>
      </trkpt>
      <trkpt lat="46.26302" lon="-0.19825">
        <ele>131</ele>
        <time>2012-03-20T14:27:05Z</time>
      </trkpt>
      <trkpt lat="46.26302" lon="-0.19821">
        <ele>131</ele>
        <time>2012-03-20T14:27:12Z</time>
      </trkpt>
      <trkpt lat="46.26302" lon="-0.19817">
        <ele>131</ele>
        <time>2012-03-20T14:27:17Z</time>
      </trkpt>
      <trkpt lat="46.26304" lon="-0.1981">
        <ele>131</ele>
        <time>2012-03-20T14:27:21Z</time>
      </trkpt>
      <trkpt lat="46.26305" lon="-0.19808">
        <ele>131</ele>
        <time>2012-03-20T14:27:26Z</time>
      </trkpt>
      <trkpt lat="46.26303" lon="-0.19799">
        <ele>131</ele>
        <time>2012-03-20T14:27:34Z</time>
      </trkpt>
      <trkpt lat="46.26302" lon="-0.19793">
        <ele>131</ele>
        <time>2012-03-20T14:27:46Z</time>
      </trkpt>
      <trkpt lat="46.26302" lon="-0.19792">
        <ele>131</ele>
        <time>2012-03-20T14:27:46Z</time>
      </trkpt>
      <trkpt lat="46.26301" lon="-0.19788">
        <ele>126</ele>
        <time>2012-03-20T14:27:53Z</time>
      </trkpt>
      <trkpt lat="46.263" lon="-0.19788">
        <ele>126</ele>
        <time>2012-03-20T14:27:55Z</time>
      </trkpt>
      <trkpt lat="46.26293" lon="-0.19773">
        <ele>126</ele>
        <time>2012-03-20T14:28:04Z</time>
      </trkpt>
      <trkpt lat="46.2629" lon="-0.19772">
        <ele>125</ele>
        <time>2012-03-20T14:28:04Z</time>
      </trkpt>
      <trkpt lat="46.26287" lon="-0.19762">
        <ele>125</ele>
        <time>2012-03-20T14:28:14Z</time>
      </trkpt>
      <trkpt lat="46.26287" lon="-0.19759">
        <ele>125</ele>
        <time>2012-03-20T14:28:15Z</time>
      </trkpt>
      <trkpt lat="46.26281" lon="-0.1975">
        <ele>125</ele>
        <time>2012-03-20T14:28:26Z</time>
      </trkpt>
      <trkpt lat="46.26281" lon="-0.19749">
        <ele>125</ele>
        <time>2012-03-20T14:28:26Z</time>
      </trkpt>
      <trkpt lat="46.26277" lon="-0.19744">
        <ele>125</ele>
        <time>2012-03-20T14:28:33Z</time>
      </trkpt>
      <trkpt lat="46.26275" lon="-0.1974">
        <ele>125</ele>
        <time>2012-03-20T14:28:34Z</time>
      </trkpt>
      <trkpt lat="46.26268" lon="-0.19728">
        <ele>125</ele>
        <time>2012-03-20T14:28:45Z</time>
      </trkpt>
      <trkpt lat="46.26267" lon="-0.19726">
        <ele>125</ele>
        <time>2012-03-20T14:28:46Z</time>
      </trkpt>
      <trkpt lat="46.26261" lon="-0.19716">
        <ele>125</ele>
        <time>2012-03-20T14:28:53Z</time>
      </trkpt>
      <trkpt lat="46.26261" lon="-0.19713">
        <ele>125</ele>
        <time>2012-03-20T14:28:55Z</time>
      </trkpt>
      <trkpt lat="46.26255" lon="-0.19698">
        <ele>123</ele>
        <time>2012-03-20T14:29:04Z</time>
      </trkpt>
      <trkpt lat="46.26253" lon="-0.1969">
        <ele>123</ele>
        <time>2012-03-20T14:29:12Z</time>
      </trkpt>
      <trkpt lat="46.26252" lon="-0.19683">
        <ele>123</ele>
        <time>2012-03-20T14:29:15Z</time>
      </trkpt>
      <trkpt lat="46.26247" lon="-0.19667">
        <ele>123</ele>
        <time>2012-03-20T14:29:25Z</time>
      </trkpt>
      <trkpt lat="46.26244" lon="-0.19657">
        <ele>123</ele>
        <time>2012-03-20T14:29:33Z</time>
      </trkpt>
      <trkpt lat="46.26243" lon="-0.19656">
        <ele>123</ele>
        <time>2012-03-20T14:29:34Z</time>
      </trkpt>
      <trkpt lat="46.26236" lon="-0.19643">
        <ele>123</ele>
        <time>2012-03-20T14:29:46Z</time>
      </trkpt>
      <trkpt lat="46.26236" lon="-0.19642">
        <ele>123</ele>
        <time>2012-03-20T14:29:47Z</time>
      </trkpt>
      <trkpt lat="46.26233" lon="-0.19636">
        <ele>123</ele>
        <time>2012-03-20T14:29:53Z</time>
      </trkpt>
      <trkpt lat="46.26233" lon="-0.19635">
        <ele>123</ele>
        <time>2012-03-20T14:29:54Z</time>
      </trkpt>
      <trkpt lat="46.26227" lon="-0.19624">
        <ele>123</ele>
        <time>2012-03-20T14:30:05Z</time>
      </trkpt>
      <trkpt lat="46.26226" lon="-0.19624">
        <ele>123</ele>
        <time>2012-03-20T14:30:06Z</time>
      </trkpt>
      <trkpt lat="46.26224" lon="-0.19618">
        <ele>123</ele>
        <time>2012-03-20T14:30:11Z</time>
      </trkpt>
      <trkpt lat="46.26219" lon="-0.19608">
        <ele>123</ele>
        <time>2012-03-20T14:30:18Z</time>
      </trkpt>
      <trkpt lat="46.26219" lon="-0.19608">
        <ele>123</ele>
        <time>2012-03-20T14:30:19Z</time>
      </trkpt>
      <trkpt lat="46.26211" lon="-0.19588">
        <ele>123</ele>
        <time>2012-03-20T14:30:32Z</time>
      </trkpt>
      <trkpt lat="46.26208" lon="-0.19583">
        <ele>123</ele>
        <time>2012-03-20T14:30:36Z</time>
      </trkpt>
      <trkpt lat="46.26202" lon="-0.1957">
        <ele>123</ele>
        <time>2012-03-20T14:30:42Z</time>
      </trkpt>
      <trkpt lat="46.262" lon="-0.19563">
        <ele>123</ele>
        <time>2012-03-20T14:30:45Z</time>
      </trkpt>
      <trkpt lat="46.26197" lon="-0.19554">
        <ele>123</ele>
        <time>2012-03-20T14:30:54Z</time>
      </trkpt>
      <trkpt lat="46.26197" lon="-0.19554">
        <ele>123</ele>
        <time>2012-03-20T14:30:54Z</time>
      </trkpt>
      <trkpt lat="46.26191" lon="-0.19536">
        <ele>121</ele>
        <time>2012-03-20T14:31:06Z</time>
      </trkpt>
      <trkpt lat="46.2619" lon="-0.19536">
        <ele>121</ele>
        <time>2012-03-20T14:31:06Z</time>
      </trkpt>
      <trkpt lat="46.26186" lon="-0.1953">
        <ele>121</ele>
        <time>2012-03-20T14:31:11Z</time>
      </trkpt>
      <trkpt lat="46.26185" lon="-0.1952">
        <ele>121</ele>
        <time>2012-03-20T14:31:20Z</time>
      </trkpt>
      <trkpt lat="46.26185" lon="-0.19519">
        <ele>121</ele>
        <time>2012-03-20T14:31:20Z</time>
      </trkpt>
      <trkpt lat="46.26185" lon="-0.1951">
        <ele>121</ele>
        <time>2012-03-20T14:31:28Z</time>
      </trkpt>
      <trkpt lat="46.26184" lon="-0.19507">
        <ele>121</ele>
        <time>2012-03-20T14:31:29Z</time>
      </trkpt>
      <trkpt lat="46.26182" lon="-0.19489">
        <ele>121</ele>
        <time>2012-03-20T14:31:43Z</time>
      </trkpt>
      <trkpt lat="46.26183" lon="-0.19488">
        <ele>121</ele>
        <time>2012-03-20T14:31:44Z</time>
      </trkpt>
      <trkpt lat="46.26185" lon="-0.19487">
        <ele>121</ele>
        <time>2012-03-20T14:31:44Z</time>
      </trkpt>
      <trkpt lat="46.26183" lon="-0.19475">
        <ele>121</ele>
        <time>2012-03-20T14:31:55Z</time>
      </trkpt>
      <trkpt lat="46.26184" lon="-0.1947">
        <ele>121</ele>
        <time>2012-03-20T14:32:03Z</time>
      </trkpt>
      <trkpt lat="46.26185" lon="-0.19466">
        <ele>121</ele>
        <time>2012-03-20T14:32:05Z</time>
      </trkpt>
      <trkpt lat="46.26184" lon="-0.19453">
        <ele>123</ele>
        <time>2012-03-20T14:32:11Z</time>
      </trkpt>
      <trkpt lat="46.26187" lon="-0.19446">
        <ele>123</ele>
        <time>2012-03-20T14:32:18Z</time>
      </trkpt>
      <trkpt lat="46.26188" lon="-0.19443">
        <ele>123</ele>
        <time>2012-03-20T14:32:20Z</time>
      </trkpt>
      <trkpt lat="46.26187" lon="-0.19426">
        <ele>123</ele>
        <time>2012-03-20T14:32:31Z</time>
      </trkpt>
      <trkpt lat="46.26187" lon="-0.19422">
        <ele>123</ele>
        <time>2012-03-20T14:32:31Z</time>
      </trkpt>
      <trkpt lat="46.26188" lon="-0.19416">
        <ele>123</ele>
        <time>2012-03-20T14:32:38Z</time>
      </trkpt>
      <trkpt lat="46.26188" lon="-0.19409">
        <ele>123</ele>
        <time>2012-03-20T14:32:41Z</time>
      </trkpt>
      <trkpt lat="46.26186" lon="-0.19395">
        <ele>123</ele>
        <time>2012-03-20T14:32:48Z</time>
      </trkpt>
      <trkpt lat="46.26186" lon="-0.19392">
        <ele>123</ele>
        <time>2012-03-20T14:32:49Z</time>
      </trkpt>
      <trkpt lat="46.26189" lon="-0.19376">
        <ele>123</ele>
        <time>2012-03-20T14:33:01Z</time>
      </trkpt>
      <trkpt lat="46.26188" lon="-0.19369">
        <ele>131</ele>
        <time>2012-03-20T14:33:07Z</time>
      </trkpt>
      <trkpt lat="46.26189" lon="-0.19365">
        <ele>131</ele>
        <time>2012-03-20T14:33:10Z</time>
      </trkpt>
      <trkpt lat="46.26184" lon="-0.19351">
        <ele>131</ele>
        <time>2012-03-20T14:33:19Z</time>
      </trkpt>
      <trkpt lat="46.2618" lon="-0.19349">
        <ele>131</ele>
        <time>2012-03-20T14:33:19Z</time>
      </trkpt>
      <trkpt lat="46.26178" lon="-0.19331">
        <ele>131</ele>
        <time>2012-03-20T14:33:30Z</time>
      </trkpt>
      <trkpt lat="46.26178" lon="-0.19331">
        <ele>131</ele>
        <time>2012-03-20T14:33:30Z</time>
      </trkpt>
      <trkpt lat="46.26173" lon="-0.19311">
        <ele>131</ele>
        <time>2012-03-20T14:33:40Z</time>
      </trkpt>
      <trkpt lat="46.2617" lon="-0.193">
        <ele>131</ele>
        <time>2012-03-20T14:33:50Z</time>
      </trkpt>
      <trkpt lat="46.26171" lon="-0.19299">
        <ele>131</ele>
        <time>2012-03-20T14:33:50Z</time>
      </trkpt>
      <trkpt lat="46.26172" lon="-0.19291">
        <ele>139</ele>
        <time>2012-03-20T14:34:00Z</time>
      </trkpt>
      <trkpt lat="46.26171" lon="-0.19289">
        <ele>139</ele>
        <time>2012-03-20T14:34:00Z</time>
      </trkpt>
      <trkpt lat="46.26169" lon="-0.1928">
        <ele>139</ele>
        <time>2012-03-20T14:34:07Z</time>
      </trkpt>
      <trkpt lat="46.26166" lon="-0.19268">
        <ele>139</ele>
        <time>2012-03-20T14:34:11Z</time>
      </trkpt>
      <trkpt lat="46.26166" lon="-0.19266">
        <ele>139</ele>
        <time>2012-03-20T14:34:18Z</time>
      </trkpt>
      <trkpt lat="46.26166" lon="-0.19266">
        <ele>139</ele>
        <time>2012-03-20T14:34:21Z</time>
      </trkpt>
      <trkpt lat="46.26161" lon="-0.19252">
        <ele>139</ele>
        <time>2012-03-20T14:34:26Z</time>
      </trkpt>
      <trkpt lat="46.26162" lon="-0.19243">
        <ele>139</ele>
        <time>2012-03-20T14:34:33Z</time>
      </trkpt>
      <trkpt lat="46.26159" lon="-0.1924">
        <ele>139</ele>
        <time>2012-03-20T14:34:34Z</time>
      </trkpt>
      <trkpt lat="46.26158" lon="-0.19225">
        <ele>139</ele>
        <time>2012-03-20T14:34:45Z</time>
      </trkpt>
      <trkpt lat="46.26157" lon="-0.19224">
        <ele>139</ele>
        <time>2012-03-20T14:34:45Z</time>
      </trkpt>
      <trkpt lat="46.26154" lon="-0.19215">
        <ele>139</ele>
        <time>2012-03-20T14:34:55Z</time>
      </trkpt>
      <trkpt lat="46.26154" lon="-0.19213">
        <ele>139</ele>
        <time>2012-03-20T14:34:55Z</time>
      </trkpt>
      <trkpt lat="46.26152" lon="-0.19204">
        <ele>147</ele>
        <time>2012-03-20T14:35:05Z</time>
      </trkpt>
      <trkpt lat="46.26152" lon="-0.19201">
        <ele>147</ele>
        <time>2012-03-20T14:35:05Z</time>
      </trkpt>
      <trkpt lat="46.2615" lon="-0.19191">
        <ele>147</ele>
        <time>2012-03-20T14:35:11Z</time>
      </trkpt>
      <trkpt lat="46.26146" lon="-0.19184">
        <ele>147</ele>
        <time>2012-03-20T14:35:17Z</time>
      </trkpt>
      <trkpt lat="46.26144" lon="-0.19178">
        <ele>147</ele>
        <time>2012-03-20T14:35:23Z</time>
      </trkpt>
      <trkpt lat="46.26143" lon="-0.19173">
        <ele>147</ele>
        <time>2012-03-20T14:35:24Z</time>
      </trkpt>
      <trkpt lat="46.26142" lon="-0.19167">
        <ele>147</ele>
        <time>2012-03-20T14:35:33Z</time>
      </trkpt>
      <trkpt lat="46.26141" lon="-0.19165">
        <ele>147</ele>
        <time>2012-03-20T14:35:34Z</time>
      </trkpt>
      <trkpt lat="46.26135" lon="-0.19145">
        <ele>147</ele>
        <time>2012-03-20T14:35:47Z</time>
      </trkpt>
      <trkpt lat="46.26134" lon="-0.19144">
        <ele>147</ele>
        <time>2012-03-20T14:35:47Z</time>
      </trkpt>
      <trkpt lat="46.26133" lon="-0.19139">
        <ele>147</ele>
        <time>2012-03-20T14:35:51Z</time>
      </trkpt>
      <trkpt lat="46.26131" lon="-0.19132">
        <ele>147</ele>
        <time>2012-03-20T14:35:58Z</time>
      </trkpt>
      <trkpt lat="46.2613" lon="-0.1913">
        <ele>147</ele>
        <time>2012-03-20T14:36:01Z</time>
      </trkpt>
      <trkpt lat="46.26131" lon="-0.19123">
        <ele>150</ele>
        <time>2012-03-20T14:36:06Z</time>
      </trkpt>
      <trkpt lat="46.26131" lon="-0.19118">
        <ele>150</ele>
        <time>2012-03-20T14:36:11Z</time>
      </trkpt>
      <trkpt lat="46.26127" lon="-0.19105">
        <ele>150</ele>
        <time>2012-03-20T14:36:19Z</time>
      </trkpt>
      <trkpt lat="46.26126" lon="-0.19104">
        <ele>150</ele>
        <time>2012-03-20T14:36:19Z</time>
      </trkpt>
      <trkpt lat="46.26123" lon="-0.19086">
        <ele>137</ele>
        <time>2012-03-20T14:36:31Z</time>
      </trkpt>
      <trkpt lat="46.26123" lon="-0.19084">
        <ele>137</ele>
        <time>2012-03-20T14:36:31Z</time>
      </trkpt>
      <trkpt lat="46.26121" lon="-0.19079">
        <ele>137</ele>
        <time>2012-03-20T14:36:36Z</time>
      </trkpt>
      <trkpt lat="46.26118" lon="-0.19067">
        <ele>137</ele>
        <time>2012-03-20T14:36:43Z</time>
      </trkpt>
      <trkpt lat="46.26118" lon="-0.19065">
        <ele>137</ele>
        <time>2012-03-20T14:36:44Z</time>
      </trkpt>
      <trkpt lat="46.2611" lon="-0.19043">
        <ele>137</ele>
        <time>2012-03-20T14:36:56Z</time>
      </trkpt>
      <trkpt lat="46.26111" lon="-0.1904">
        <ele>134</ele>
        <time>2012-03-20T14:36:57Z</time>
      </trkpt>
      <trkpt lat="46.26107" lon="-0.19036">
        <ele>134</ele>
        <time>2012-03-20T14:37:03Z</time>
      </trkpt>
      <trkpt lat="46.26108" lon="-0.19034">
        <ele>134</ele>
        <time>2012-03-20T14:37:04Z</time>
      </trkpt>
      <trkpt lat="46.26104" lon="-0.19022">
        <ele>134</ele>
        <time>2012-03-20T14:37:16Z</time>
      </trkpt>
      <trkpt lat="46.26103" lon="-0.1902">
        <ele>134</ele>
        <time>2012-03-20T14:37:16Z</time>
      </trkpt>
      <trkpt lat="46.26102" lon="-0.19014">
        <ele>134</ele>
        <time>2012-03-20T14:37:23Z</time>
      </trkpt>
      <trkpt lat="46.26103" lon="-0.19012">
        <ele>134</ele>
        <time>2012-03-20T14:37:24Z</time>
      </trkpt>
      <trkpt lat="46.26095" lon="-0.18996">
        <ele>134</ele>
        <time>2012-03-20T14:37:36Z</time>
      </trkpt>
      <trkpt lat="46.26094" lon="-0.18995">
        <ele>134</ele>
        <time>2012-03-20T14:37:36Z</time>
      </trkpt>
      <trkpt lat="46.26092" lon="-0.18984">
        <ele>134</ele>
        <time>2012-03-20T14:37:44Z</time>
      </trkpt>
      <trkpt lat="46.26092" lon="-0.18979">
        <ele>134</ele>
        <time>2012-03-20T14:37:44Z</time>
      </trkpt>
      <trkpt lat="46.2609" lon="-0.18963">
        <ele>134</ele>
        <time>2012-03-20T14:37:56Z</time>
      </trkpt>
      <trkpt lat="46.2609" lon="-0.18958">
        <ele>133</ele>
        <time>2012-03-20T14:38:03Z</time>
      </trkpt>
      <trkpt lat="46.2609" lon="-0.18942">
        <ele>133</ele>
        <time>2012-03-20T14:38:14Z</time>
      </trkpt>
      <trkpt lat="46.2609" lon="-0.18922">
        <ele>133</ele>
        <time>2012-03-20T14:38:27Z</time>
      </trkpt>
      <trkpt lat="46.2609" lon="-0.18921">
        <ele>133</ele>
        <time>2012-03-20T14:38:27Z</time>
      </trkpt>
      <trkpt lat="46.2609" lon="-0.18916">
        <ele>133</ele>
        <time>2012-03-20T14:38:32Z</time>
      </trkpt>
      <trkpt lat="46.26089" lon="-0.18909">
        <ele>133</ele>
        <time>2012-03-20T14:38:36Z</time>
      </trkpt>
      <trkpt lat="46.26088" lon="-0.18902">
        <ele>133</ele>
        <time>2012-03-20T14:38:42Z</time>
      </trkpt>
      <trkpt lat="46.26089" lon="-0.18894">
        <ele>133</ele>
        <time>2012-03-20T14:38:46Z</time>
      </trkpt>
      <trkpt lat="46.26089" lon="-0.18883">
        <ele>133</ele>
        <time>2012-03-20T14:38:53Z</time>
      </trkpt>
      <trkpt lat="46.26088" lon="-0.18881">
        <ele>133</ele>
        <time>2012-03-20T14:38:55Z</time>
      </trkpt>
      <trkpt lat="46.2609" lon="-0.18865">
        <ele>139</ele>
        <time>2012-03-20T14:39:04Z</time>
      </trkpt>
      <trkpt lat="46.2609" lon="-0.18861">
        <ele>139</ele>
        <time>2012-03-20T14:39:05Z</time>
      </trkpt>
      <trkpt lat="46.26092" lon="-0.1885">
        <ele>139</ele>
        <time>2012-03-20T14:39:16Z</time>
      </trkpt>
      <trkpt lat="46.26092" lon="-0.18849">
        <ele>139</ele>
        <time>2012-03-20T14:39:17Z</time>
      </trkpt>
      <trkpt lat="46.26095" lon="-0.18842">
        <ele>139</ele>
        <time>2012-03-20T14:39:22Z</time>
      </trkpt>
      <trkpt lat="46.26097" lon="-0.18839">
        <ele>139</ele>
        <time>2012-03-20T14:39:26Z</time>
      </trkpt>
      <trkpt lat="46.26098" lon="-0.18833">
        <ele>139</ele>
        <time>2012-03-20T14:39:30Z</time>
      </trkpt>
      <trkpt lat="46.26103" lon="-0.18825">
        <ele>139</ele>
        <time>2012-03-20T14:39:39Z</time>
      </trkpt>
      <trkpt lat="46.26107" lon="-0.1881">
        <ele>139</ele>
        <time>2012-03-20T14:39:51Z</time>
      </trkpt>
      <trkpt lat="46.26108" lon="-0.18807">
        <ele>139</ele>
        <time>2012-03-20T14:39:52Z</time>
      </trkpt>
      <trkpt lat="46.26113" lon="-0.18799">
        <ele>139</ele>
        <time>2012-03-20T14:39:58Z</time>
      </trkpt>
      <trkpt lat="46.26113" lon="-0.18797">
        <ele>139</ele>
        <time>2012-03-20T14:39:59Z</time>
      </trkpt>
      <trkpt lat="46.26116" lon="-0.18786">
        <ele>145</ele>
        <time>2012-03-20T14:40:08Z</time>
      </trkpt>
      <trkpt lat="46.26116" lon="-0.18784">
        <ele>145</ele>
        <time>2012-03-20T14:40:09Z</time>
      </trkpt>
      <trkpt lat="46.26119" lon="-0.18768">
        <ele>145</ele>
        <time>2012-03-20T14:40:19Z</time>
      </trkpt>
      <trkpt lat="46.26119" lon="-0.18766">
        <ele>145</ele>
        <time>2012-03-20T14:40:20Z</time>
      </trkpt>
      <trkpt lat="46.26118" lon="-0.18755">
        <ele>145</ele>
        <time>2012-03-20T14:40:29Z</time>
      </trkpt>
      <trkpt lat="46.26118" lon="-0.18755">
        <ele>145</ele>
        <time>2012-03-20T14:40:30Z</time>
      </trkpt>
      <trkpt lat="46.26119" lon="-0.18744">
        <ele>145</ele>
        <time>2012-03-20T14:40:40Z</time>
      </trkpt>
      <trkpt lat="46.2612" lon="-0.18742">
        <ele>145</ele>
        <time>2012-03-20T14:40:41Z</time>
      </trkpt>
      <trkpt lat="46.26123" lon="-0.18738">
        <ele>145</ele>
        <time>2012-03-20T14:40:45Z</time>
      </trkpt>
      <trkpt lat="46.26123" lon="-0.18733">
        <ele>145</ele>
        <time>2012-03-20T14:40:50Z</time>
      </trkpt>
      <trkpt lat="46.26126" lon="-0.18729">
        <ele>147</ele>
        <time>2012-03-20T14:40:56Z</time>
      </trkpt>
      <trkpt lat="46.26125" lon="-0.18718">
        <ele>147</ele>
        <time>2012-03-20T14:41:02Z</time>
      </trkpt>
      <trkpt lat="46.26125" lon="-0.18714">
        <ele>145</ele>
        <time>2012-03-20T14:41:06Z</time>
      </trkpt>
      <trkpt lat="46.26125" lon="-0.1871">
        <ele>145</ele>
        <time>2012-03-20T14:41:10Z</time>
      </trkpt>
      <trkpt lat="46.26129" lon="-0.18701">
        <ele>147</ele>
        <time>2012-03-20T14:41:20Z</time>
      </trkpt>
      <trkpt lat="46.26129" lon="-0.187">
        <ele>147</ele>
        <time>2012-03-20T14:41:20Z</time>
      </trkpt>
      <trkpt lat="46.26129" lon="-0.18693">
        <ele>147</ele>
        <time>2012-03-20T14:41:29Z</time>
      </trkpt>
      <trkpt lat="46.2613" lon="-0.18681">
        <ele>147</ele>
        <time>2012-03-20T14:41:42Z</time>
      </trkpt>
      <trkpt lat="46.2613" lon="-0.18679">
        <ele>147</ele>
        <time>2012-03-20T14:41:42Z</time>
      </trkpt>
      <trkpt lat="46.26131" lon="-0.18677">
        <ele>147</ele>
        <time>2012-03-20T14:41:46Z</time>
      </trkpt>
      <trkpt lat="46.26131" lon="-0.18671">
        <ele>147</ele>
        <time>2012-03-20T14:41:51Z</time>
      </trkpt>
      <trkpt lat="46.2613" lon="-0.18668">
        <ele>147</ele>
        <time>2012-03-20T14:41:54Z</time>
      </trkpt>
      <trkpt lat="46.26133" lon="-0.18656">
        <ele>147</ele>
        <time>2012-03-20T14:42:06Z</time>
      </trkpt>
      <trkpt lat="46.26135" lon="-0.18651">
        <ele>147</ele>
        <time>2012-03-20T14:42:11Z</time>
      </trkpt>
      <trkpt lat="46.26135" lon="-0.18647">
        <ele>147</ele>
        <time>2012-03-20T14:42:14Z</time>
      </trkpt>
      <trkpt lat="46.26135" lon="-0.18645">
        <ele>147</ele>
        <time>2012-03-20T14:42:19Z</time>
      </trkpt>
      <trkpt lat="46.26136" lon="-0.18641">
        <ele>147</ele>
        <time>2012-03-20T14:42:24Z</time>
      </trkpt>
      <trkpt lat="46.26136" lon="-0.18641">
        <ele>147</ele>
        <time>2012-03-20T14:42:31Z</time>
      </trkpt>
      <trkpt lat="46.26137" lon="-0.18635">
        <ele>147</ele>
        <time>2012-03-20T14:42:36Z</time>
      </trkpt>
      <trkpt lat="46.26139" lon="-0.18632">
        <ele>147</ele>
        <time>2012-03-20T14:42:41Z</time>
      </trkpt>
      <trkpt lat="46.26139" lon="-0.1863">
        <ele>147</ele>
        <time>2012-03-20T14:42:49Z</time>
      </trkpt>
      <trkpt lat="46.2614" lon="-0.1863">
        <ele>147</ele>
        <time>2012-03-20T14:42:49Z</time>
      </trkpt>
      <trkpt lat="46.26147" lon="-0.18615">
        <ele>149</ele>
        <time>2012-03-20T14:43:00Z</time>
      </trkpt>
      <trkpt lat="46.26149" lon="-0.18605">
        <ele>149</ele>
        <time>2012-03-20T14:43:09Z</time>
      </trkpt>
      <trkpt lat="46.26149" lon="-0.18604">
        <ele>149</ele>
        <time>2012-03-20T14:43:09Z</time>
      </trkpt>
      <trkpt lat="46.26155" lon="-0.18589">
        <ele>149</ele>
        <time>2012-03-20T14:43:21Z</time>
      </trkpt>
      <trkpt lat="46.26155" lon="-0.18589">
        <ele>149</ele>
        <time>2012-03-20T14:43:22Z</time>
      </trkpt>
      <trkpt lat="46.26155" lon="-0.18587">
        <ele>149</ele>
        <time>2012-03-20T14:43:25Z</time>
      </trkpt>
      <trkpt lat="46.26161" lon="-0.18577">
        <ele>149</ele>
        <time>2012-03-20T14:43:33Z</time>
      </trkpt>
      <trkpt lat="46.26161" lon="-0.18576">
        <ele>149</ele>
        <time>2012-03-20T14:43:34Z</time>
      </trkpt>
      <trkpt lat="46.26163" lon="-0.18568">
        <ele>149</ele>
        <time>2012-03-20T14:43:40Z</time>
      </trkpt>
      <trkpt lat="46.26166" lon="-0.18557">
        <ele>149</ele>
        <time>2012-03-20T14:43:46Z</time>
      </trkpt>
      <trkpt lat="46.26167" lon="-0.18552">
        <ele>149</ele>
        <time>2012-03-20T14:43:51Z</time>
      </trkpt>
      <trkpt lat="46.26168" lon="-0.1855">
        <ele>149</ele>
        <time>2012-03-20T14:43:54Z</time>
      </trkpt>
      <trkpt lat="46.26172" lon="-0.18541">
        <ele>148</ele>
        <time>2012-03-20T14:44:04Z</time>
      </trkpt>
      <trkpt lat="46.26173" lon="-0.18541">
        <ele>148</ele>
        <time>2012-03-20T14:44:04Z</time>
      </trkpt>
      <trkpt lat="46.26181" lon="-0.18525">
        <ele>148</ele>
        <time>2012-03-20T14:44:18Z</time>
      </trkpt>
      <trkpt lat="46.26181" lon="-0.18524">
        <ele>148</ele>
        <time>2012-03-20T14:44:18Z</time>
      </trkpt>
      <trkpt lat="46.26182" lon="-0.18521">
        <ele>148</ele>
        <time>2012-03-20T14:44:19Z</time>
      </trkpt>
      <trkpt lat="46.26189" lon="-0.18513">
        <ele>148</ele>
        <time>2012-03-20T14:44:31Z</time>
      </trkpt>
      <trkpt lat="46.26189" lon="-0.18511">
        <ele>148</ele>
        <time>2012-03-20T14:44:31Z</time>
      </trkpt>
      <trkpt lat="46.26191" lon="-0.18511">
        <ele>148</ele>
        <time>2012-03-20T14:44:35Z</time>
      </trkpt>
      <trkpt lat="46.26199" lon="-0.185">
        <ele>148</ele>
        <time>2012-03-20T14:44:44Z</time>
      </trkpt>
      <trkpt lat="46.262" lon="-0.18499">
        <ele>148</ele>
        <time>2012-03-20T14:44:45Z</time>
      </trkpt>
      <trkpt lat="46.2621" lon="-0.18491">
        <ele>144</ele>
        <time>2012-03-20T14:44:55Z</time>
      </trkpt>
      <trkpt lat="46.26213" lon="-0.18487">
        <ele>144</ele>
        <time>2012-03-20T14:45:02Z</time>
      </trkpt>
      <trkpt lat="46.26215" lon="-0.18483">
        <ele>144</ele>
        <time>2012-03-20T14:45:07Z</time>
      </trkpt>
      <trkpt lat="46.26218" lon="-0.18479">
        <ele>144</ele>
        <time>2012-03-20T14:45:12Z</time>
      </trkpt>
      <trkpt lat="46.2622" lon="-0.18475">
        <ele>144</ele>
        <time>2012-03-20T14:45:17Z</time>
      </trkpt>
      <trkpt lat="46.26223" lon="-0.18471">
        <ele>144</ele>
        <time>2012-03-20T14:45:22Z</time>
      </trkpt>
      <trkpt lat="46.26225" lon="-0.18467">
        <ele>144</ele>
        <time>2012-03-20T14:45:26Z</time>
      </trkpt>
      <trkpt lat="46.26228" lon="-0.18457">
        <ele>134</ele>
        <time>2012-03-20T14:45:33Z</time>
      </trkpt>
      <trkpt lat="46.2623" lon="-0.18455">
        <ele>134</ele>
        <time>2012-03-20T14:45:35Z</time>
      </trkpt>
      <trkpt lat="46.26231" lon="-0.18448">
        <ele>134</ele>
        <time>2012-03-20T14:45:43Z</time>
      </trkpt>
      <trkpt lat="46.26232" lon="-0.18447">
        <ele>134</ele>
        <time>2012-03-20T14:45:44Z</time>
      </trkpt>
      <trkpt lat="46.26238" lon="-0.18432">
        <ele>134</ele>
        <time>2012-03-20T14:45:57Z</time>
      </trkpt>
      <trkpt lat="46.26239" lon="-0.1843">
        <ele>134</ele>
        <time>2012-03-20T14:45:58Z</time>
      </trkpt>
      <trkpt lat="46.26239" lon="-0.18429">
        <ele>134</ele>
        <time>2012-03-20T14:45:59Z</time>
      </trkpt>
      <trkpt lat="46.26241" lon="-0.1842">
        <ele>134</ele>
        <time>2012-03-20T14:46:11Z</time>
      </trkpt>
      <trkpt lat="46.26244" lon="-0.18409">
        <ele>134</ele>
        <time>2012-03-20T14:46:17Z</time>
      </trkpt>
      <trkpt lat="46.26245" lon="-0.18403">
        <ele>134</ele>
        <time>2012-03-20T14:46:21Z</time>
      </trkpt>
      <trkpt lat="46.26245" lon="-0.18392">
        <ele>134</ele>
        <time>2012-03-20T14:46:27Z</time>
      </trkpt>
      <trkpt lat="46.26246" lon="-0.18385">
        <ele>134</ele>
        <time>2012-03-20T14:46:30Z</time>
      </trkpt>
      <trkpt lat="46.2625" lon="-0.18374">
        <ele>128</ele>
        <time>2012-03-20T14:46:39Z</time>
      </trkpt>
      <trkpt lat="46.2625" lon="-0.18372">
        <ele>128</ele>
        <time>2012-03-20T14:46:40Z</time>
      </trkpt>
      <trkpt lat="46.26252" lon="-0.18363">
        <ele>128</ele>
        <time>2012-03-20T14:46:48Z</time>
      </trkpt>
      <trkpt lat="46.26252" lon="-0.18362">
        <ele>128</ele>
        <time>2012-03-20T14:46:49Z</time>
      </trkpt>
      <trkpt lat="46.26252" lon="-0.18347">
        <ele>128</ele>
        <time>2012-03-20T14:46:59Z</time>
      </trkpt>
      <trkpt lat="46.26255" lon="-0.18333">
        <ele>128</ele>
        <time>2012-03-20T14:47:10Z</time>
      </trkpt>
      <trkpt lat="46.26255" lon="-0.18331">
        <ele>128</ele>
        <time>2012-03-20T14:47:11Z</time>
      </trkpt>
      <trkpt lat="46.26257" lon="-0.1832">
        <ele>128</ele>
        <time>2012-03-20T14:47:19Z</time>
      </trkpt>
      <trkpt lat="46.26262" lon="-0.18311">
        <ele>128</ele>
        <time>2012-03-20T14:47:30Z</time>
      </trkpt>
      <trkpt lat="46.26262" lon="-0.18309">
        <ele>128</ele>
        <time>2012-03-20T14:47:31Z</time>
      </trkpt>
      <trkpt lat="46.26263" lon="-0.18303">
        <ele>128</ele>
        <time>2012-03-20T14:47:39Z</time>
      </trkpt>
      <trkpt lat="46.26263" lon="-0.18302">
        <ele>128</ele>
        <time>2012-03-20T14:47:39Z</time>
      </trkpt>
      <trkpt lat="46.26265" lon="-0.18296">
        <ele>128</ele>
        <time>2012-03-20T14:47:46Z</time>
      </trkpt>
      <trkpt lat="46.26268" lon="-0.18289">
        <ele>127</ele>
        <time>2012-03-20T14:47:53Z</time>
      </trkpt>
      <trkpt lat="46.26269" lon="-0.18286">
        <ele>127</ele>
        <time>2012-03-20T14:47:54Z</time>
      </trkpt>
      <trkpt lat="46.26271" lon="-0.18272">
        <ele>127</ele>
        <time>2012-03-20T14:48:04Z</time>
      </trkpt>
      <trkpt lat="46.26274" lon="-0.1827">
        <ele>127</ele>
        <time>2012-03-20T14:48:04Z</time>
      </trkpt>
      <trkpt lat="46.26279" lon="-0.1825">
        <ele>127</ele>
        <time>2012-03-20T14:48:16Z</time>
      </trkpt>
      <trkpt lat="46.26279" lon="-0.18249">
        <ele>127</ele>
        <time>2012-03-20T14:48:16Z</time>
      </trkpt>
      <trkpt lat="46.2628" lon="-0.18238">
        <ele>127</ele>
        <time>2012-03-20T14:48:23Z</time>
      </trkpt>
      <trkpt lat="46.26278" lon="-0.18235">
        <ele>127</ele>
        <time>2012-03-20T14:48:24Z</time>
      </trkpt>
      <trkpt lat="46.26271" lon="-0.18219">
        <ele>127</ele>
        <time>2012-03-20T14:48:37Z</time>
      </trkpt>
      <trkpt lat="46.26269" lon="-0.18217">
        <ele>127</ele>
        <time>2012-03-20T14:48:41Z</time>
      </trkpt>
      <trkpt lat="46.26263" lon="-0.18212">
        <ele>127</ele>
        <time>2012-03-20T14:48:48Z</time>
      </trkpt>
      <trkpt lat="46.26262" lon="-0.18207">
        <ele>124</ele>
        <time>2012-03-20T14:48:50Z</time>
      </trkpt>
      <trkpt lat="46.26255" lon="-0.182">
        <ele>124</ele>
        <time>2012-03-20T14:48:59Z</time>
      </trkpt>
      <trkpt lat="46.26256" lon="-0.18198">
        <ele>124</ele>
        <time>2012-03-20T14:48:59Z</time>
      </trkpt>
      <trkpt lat="46.26255" lon="-0.18183">
        <ele>124</ele>
        <time>2012-03-20T14:49:11Z</time>
      </trkpt>
      <trkpt lat="46.26255" lon="-0.18181">
        <ele>124</ele>
        <time>2012-03-20T14:49:12Z</time>
      </trkpt>
      <trkpt lat="46.26258" lon="-0.18173">
        <ele>124</ele>
        <time>2012-03-20T14:49:17Z</time>
      </trkpt>
      <trkpt lat="46.26261" lon="-0.18167">
        <ele>124</ele>
        <time>2012-03-20T14:49:21Z</time>
      </trkpt>
      <trkpt lat="46.26265" lon="-0.1816">
        <ele>124</ele>
        <time>2012-03-20T14:49:27Z</time>
      </trkpt>
      <trkpt lat="46.26267" lon="-0.18155">
        <ele>124</ele>
        <time>2012-03-20T14:49:31Z</time>
      </trkpt>
      <trkpt lat="46.2627" lon="-0.18152">
        <ele>124</ele>
        <time>2012-03-20T14:49:35Z</time>
      </trkpt>
      <trkpt lat="46.26273" lon="-0.18146">
        <ele>124</ele>
        <time>2012-03-20T14:49:42Z</time>
      </trkpt>
      <trkpt lat="46.26277" lon="-0.1814">
        <ele>124</ele>
        <time>2012-03-20T14:49:46Z</time>
      </trkpt>
      <trkpt lat="46.26275" lon="-0.18134">
        <ele>124</ele>
        <time>2012-03-20T14:49:53Z</time>
      </trkpt>
      <trkpt lat="46.26274" lon="-0.18128">
        <ele>124</ele>
        <time>2012-03-20T14:49:55Z</time>
      </trkpt>
      <trkpt lat="46.2627" lon="-0.18116">
        <ele>124</ele>
        <time>2012-03-20T14:50:02Z</time>
      </trkpt>
      <trkpt lat="46.26269" lon="-0.18111">
        <ele>124</ele>
        <time>2012-03-20T14:50:06Z</time>
      </trkpt>
      <trkpt lat="46.26264" lon="-0.18101">
        <ele>124</ele>
        <time>2012-03-20T14:50:15Z</time>
      </trkpt>
      <trkpt lat="46.26263" lon="-0.181">
        <ele>124</ele>
        <time>2012-03-20T14:50:15Z</time>
      </trkpt>
      <trkpt lat="46.26261" lon="-0.18088">
        <ele>124</ele>
        <time>2012-03-20T14:50:24Z</time>
      </trkpt>
      <trkpt lat="46.2626" lon="-0.18087">
        <ele>124</ele>
        <time>2012-03-20T14:50:24Z</time>
      </trkpt>
      <trkpt lat="46.26255" lon="-0.18075">
        <ele>124</ele>
        <time>2012-03-20T14:50:37Z</time>
      </trkpt>
      <trkpt lat="46.26254" lon="-0.18074">
        <ele>124</ele>
        <time>2012-03-20T14:50:38Z</time>
      </trkpt>
      <trkpt lat="46.26252" lon="-0.18069">
        <ele>124</ele>
        <time>2012-03-20T14:50:39Z</time>
      </trkpt>
      <trkpt lat="46.26245" lon="-0.18057">
        <ele>124</ele>
        <time>2012-03-20T14:50:51Z</time>
      </trkpt>
      <trkpt lat="46.26245" lon="-0.18055">
        <ele>124</ele>
        <time>2012-03-20T14:50:51Z</time>
      </trkpt>
      <trkpt lat="46.26245" lon="-0.18046">
        <ele>124</ele>
        <time>2012-03-20T14:50:59Z</time>
      </trkpt>
      <trkpt lat="46.26241" lon="-0.18026">
        <ele>127</ele>
        <time>2012-03-20T14:51:11Z</time>
      </trkpt>
      <trkpt lat="46.26242" lon="-0.18026">
        <ele>127</ele>
        <time>2012-03-20T14:51:11Z</time>
      </trkpt>
      <trkpt lat="46.26238" lon="-0.1802">
        <ele>127</ele>
        <time>2012-03-20T14:51:19Z</time>
      </trkpt>
      <trkpt lat="46.26238" lon="-0.18018">
        <ele>127</ele>
        <time>2012-03-20T14:51:19Z</time>
      </trkpt>
      <trkpt lat="46.26235" lon="-0.18003">
        <ele>127</ele>
        <time>2012-03-20T14:51:31Z</time>
      </trkpt>
      <trkpt lat="46.26233" lon="-0.17998">
        <ele>127</ele>
        <time>2012-03-20T14:51:38Z</time>
      </trkpt>
      <trkpt lat="46.2623" lon="-0.17983">
        <ele>127</ele>
        <time>2012-03-20T15:00:16Z</time>
      </trkpt>
      <trkpt lat="46.26224" lon="-0.17965">
        <ele>127</ele>
        <time>2012-03-20T15:00:24Z</time>
      </trkpt>
      <trkpt lat="46.26224" lon="-0.17964">
        <ele>127</ele>
        <time>2012-03-20T15:00:24Z</time>
      </trkpt>
      <trkpt lat="46.2622" lon="-0.17952">
        <ele>130</ele>
        <time>2012-03-20T15:00:36Z</time>
      </trkpt>
      <trkpt lat="46.26219" lon="-0.17951">
        <ele>130</ele>
        <time>2012-03-20T15:00:36Z</time>
      </trkpt>
      <trkpt lat="46.26217" lon="-0.17945">
        <ele>130</ele>
        <time>2012-03-20T15:00:40Z</time>
      </trkpt>
      <trkpt lat="46.26216" lon="-0.17937">
        <ele>130</ele>
        <time>2012-03-20T15:00:48Z</time>
      </trkpt>
      <trkpt lat="46.26215" lon="-0.17936">
        <ele>130</ele>
        <time>2012-03-20T15:00:50Z</time>
      </trkpt>
      <trkpt lat="46.2621" lon="-0.17929">
        <ele>130</ele>
        <time>2012-03-20T15:00:59Z</time>
      </trkpt>
      <trkpt lat="46.2621" lon="-0.17927">
        <ele>130</ele>
        <time>2012-03-20T15:00:59Z</time>
      </trkpt>
      <trkpt lat="46.26209" lon="-0.17919">
        <ele>130</ele>
        <time>2012-03-20T15:01:10Z</time>
      </trkpt>
      <trkpt lat="46.26206" lon="-0.17907">
        <ele>138</ele>
        <time>2012-03-20T15:01:19Z</time>
      </trkpt>
      <trkpt lat="46.26205" lon="-0.17906">
        <ele>138</ele>
        <time>2012-03-20T15:01:19Z</time>
      </trkpt>
      <trkpt lat="46.262" lon="-0.17896">
        <ele>138</ele>
        <time>2012-03-20T15:01:32Z</time>
      </trkpt>
      <trkpt lat="46.262" lon="-0.17896">
        <ele>138</ele>
        <time>2012-03-20T15:01:32Z</time>
      </trkpt>
      <trkpt lat="46.26199" lon="-0.17893">
        <ele>138</ele>
        <time>2012-03-20T15:01:36Z</time>
      </trkpt>
      <trkpt lat="46.26195" lon="-0.17886">
        <ele>138</ele>
        <time>2012-03-20T15:01:42Z</time>
      </trkpt>
      <trkpt lat="46.26194" lon="-0.17885">
        <ele>138</ele>
        <time>2012-03-20T15:01:45Z</time>
      </trkpt>
      <trkpt lat="46.26187" lon="-0.17876">
        <ele>138</ele>
        <time>2012-03-20T15:01:54Z</time>
      </trkpt>
      <trkpt lat="46.26187" lon="-0.17875">
        <ele>144</ele>
        <time>2012-03-20T15:01:54Z</time>
      </trkpt>
      <trkpt lat="46.26182" lon="-0.17869">
        <ele>144</ele>
        <time>2012-03-20T15:02:04Z</time>
      </trkpt>
      <trkpt lat="46.26181" lon="-0.17869">
        <ele>144</ele>
        <time>2012-03-20T15:02:04Z</time>
      </trkpt>
      <trkpt lat="46.26175" lon="-0.17863">
        <ele>144</ele>
        <time>2012-03-20T15:02:14Z</time>
      </trkpt>
      <trkpt lat="46.26175" lon="-0.17863">
        <ele>144</ele>
        <time>2012-03-20T15:02:14Z</time>
      </trkpt>
      <trkpt lat="46.26171" lon="-0.17857">
        <ele>144</ele>
        <time>2012-03-20T15:02:26Z</time>
      </trkpt>
      <trkpt lat="46.26171" lon="-0.17855">
        <ele>144</ele>
        <time>2012-03-20T15:02:26Z</time>
      </trkpt>
      <trkpt lat="46.26169" lon="-0.17851">
        <ele>144</ele>
        <time>2012-03-20T15:02:35Z</time>
      </trkpt>
      <trkpt lat="46.26168" lon="-0.17851">
        <ele>144</ele>
        <time>2012-03-20T15:02:35Z</time>
      </trkpt>
      <trkpt lat="46.26166" lon="-0.17849">
        <ele>144</ele>
        <time>2012-03-20T15:02:43Z</time>
      </trkpt>
      <trkpt lat="46.26166" lon="-0.17848">
        <ele>144</ele>
        <time>2012-03-20T15:02:44Z</time>
      </trkpt>
      <trkpt lat="46.26162" lon="-0.1784">
        <ele>144</ele>
        <time>2012-03-20T15:02:56Z</time>
      </trkpt>
      <trkpt lat="46.26159" lon="-0.17836">
        <ele>144</ele>
        <time>2012-03-20T15:03:04Z</time>
      </trkpt>
      <trkpt lat="46.26158" lon="-0.17834">
        <ele>144</ele>
        <time>2012-03-20T15:03:04Z</time>
      </trkpt>
      <trkpt lat="46.26144" lon="-0.17817">
        <ele>144</ele>
        <time>2012-03-20T15:03:16Z</time>
      </trkpt>
      <trkpt lat="46.2614" lon="-0.17813">
        <ele>144</ele>
        <time>2012-03-20T15:03:23Z</time>
      </trkpt>
      <trkpt lat="46.26139" lon="-0.17813">
        <ele>144</ele>
        <time>2012-03-20T15:03:24Z</time>
      </trkpt>
      <trkpt lat="46.26128" lon="-0.17799">
        <ele>144</ele>
        <time>2012-03-20T15:03:36Z</time>
      </trkpt>
      <trkpt lat="46.26121" lon="-0.17798">
        <ele>148</ele>
        <time>2012-03-20T15:03:45Z</time>
      </trkpt>
      <trkpt lat="46.2612" lon="-0.17798">
        <ele>148</ele>
        <time>2012-03-20T15:03:46Z</time>
      </trkpt>
      <trkpt lat="46.26114" lon="-0.17791">
        <ele>147</ele>
        <time>2012-03-20T15:03:53Z</time>
      </trkpt>
      <trkpt lat="46.26113" lon="-0.1779">
        <ele>147</ele>
        <time>2012-03-20T15:03:54Z</time>
      </trkpt>
      <trkpt lat="46.2611" lon="-0.17788">
        <ele>147</ele>
        <time>2012-03-20T15:04:04Z</time>
      </trkpt>
      <trkpt lat="46.26108" lon="-0.17787">
        <ele>147</ele>
        <time>2012-03-20T15:04:04Z</time>
      </trkpt>
      <trkpt lat="46.26096" lon="-0.17782">
        <ele>147</ele>
        <time>2012-03-20T15:04:16Z</time>
      </trkpt>
      <trkpt lat="46.26095" lon="-0.17781">
        <ele>147</ele>
        <time>2012-03-20T15:04:16Z</time>
      </trkpt>
      <trkpt lat="46.26092" lon="-0.17776">
        <ele>147</ele>
        <time>2012-03-20T15:04:24Z</time>
      </trkpt>
      <trkpt lat="46.26092" lon="-0.17776">
        <ele>147</ele>
        <time>2012-03-20T15:04:24Z</time>
      </trkpt>
      <trkpt lat="46.26086" lon="-0.17773">
        <ele>147</ele>
        <time>2012-03-20T15:04:36Z</time>
      </trkpt>
      <trkpt lat="46.26085" lon="-0.17774">
        <ele>147</ele>
        <time>2012-03-20T15:04:37Z</time>
      </trkpt>
      <trkpt lat="46.2608" lon="-0.17771">
        <ele>147</ele>
        <time>2012-03-20T15:04:43Z</time>
      </trkpt>
      <trkpt lat="46.26067" lon="-0.17767">
        <ele>147</ele>
        <time>2012-03-20T15:04:56Z</time>
      </trkpt>
      <trkpt lat="46.26062" lon="-0.17762">
        <ele>147</ele>
        <time>2012-03-20T15:05:03Z</time>
      </trkpt>
      <trkpt lat="46.26061" lon="-0.17762">
        <ele>147</ele>
        <time>2012-03-20T15:05:04Z</time>
      </trkpt>
      <trkpt lat="46.2605" lon="-0.17757">
        <ele>147</ele>
        <time>2012-03-20T15:05:16Z</time>
      </trkpt>
      <trkpt lat="46.26049" lon="-0.17756">
        <ele>147</ele>
        <time>2012-03-20T15:05:17Z</time>
      </trkpt>
      <trkpt lat="46.26046" lon="-0.17751">
        <ele>147</ele>
        <time>2012-03-20T15:05:21Z</time>
      </trkpt>
      <trkpt lat="46.26041" lon="-0.17744">
        <ele>152</ele>
        <time>2012-03-20T15:05:29Z</time>
      </trkpt>
      <trkpt lat="46.2604" lon="-0.17742">
        <ele>152</ele>
        <time>2012-03-20T15:05:29Z</time>
      </trkpt>
      <trkpt lat="46.26031" lon="-0.17733">
        <ele>152</ele>
        <time>2012-03-20T15:05:40Z</time>
      </trkpt>
      <trkpt lat="46.2603" lon="-0.17734">
        <ele>152</ele>
        <time>2012-03-20T15:05:40Z</time>
      </trkpt>
      <trkpt lat="46.2603" lon="-0.17731">
        <ele>152</ele>
        <time>2012-03-20T15:05:49Z</time>
      </trkpt>
      <trkpt lat="46.26032" lon="-0.17731">
        <ele>152</ele>
        <time>2012-03-20T15:06:00Z</time>
      </trkpt>
      <trkpt lat="46.26038" lon="-0.17726">
        <ele>152</ele>
        <time>2012-03-20T15:06:09Z</time>
      </trkpt>
      <trkpt lat="46.26037" lon="-0.17724">
        <ele>152</ele>
        <time>2012-03-20T15:06:09Z</time>
      </trkpt>
      <trkpt lat="46.26037" lon="-0.17723">
        <ele>152</ele>
        <time>2012-03-20T15:06:20Z</time>
      </trkpt>
      <trkpt lat="46.26038" lon="-0.17722">
        <ele>152</ele>
        <time>2012-03-20T15:06:20Z</time>
      </trkpt>
      <trkpt lat="46.26038" lon="-0.17722">
        <ele>152</ele>
        <time>2012-03-20T15:06:29Z</time>
      </trkpt>
      <trkpt lat="46.26043" lon="-0.17714">
        <ele>147</ele>
        <time>2012-03-20T15:06:40Z</time>
      </trkpt>
      <trkpt lat="46.26043" lon="-0.17712">
        <ele>147</ele>
        <time>2012-03-20T15:06:41Z</time>
      </trkpt>
      <trkpt lat="46.26044" lon="-0.17711">
        <ele>147</ele>
        <time>2012-03-20T15:06:48Z</time>
      </trkpt>
      <trkpt lat="46.26044" lon="-0.1771">
        <ele>147</ele>
        <time>2012-03-20T15:06:49Z</time>
      </trkpt>
      <trkpt lat="46.26046" lon="-0.17705">
        <ele>148</ele>
        <time>2012-03-20T15:06:59Z</time>
      </trkpt>
      <trkpt lat="46.26046" lon="-0.17705">
        <ele>148</ele>
        <time>2012-03-20T15:07:00Z</time>
      </trkpt>
      <trkpt lat="46.26048" lon="-0.17703">
        <ele>148</ele>
        <time>2012-03-20T15:07:10Z</time>
      </trkpt>
      <trkpt lat="46.26048" lon="-0.17703">
        <ele>148</ele>
        <time>2012-03-20T15:07:11Z</time>
      </trkpt>
      <trkpt lat="46.26055" lon="-0.17694">
        <ele>148</ele>
        <time>2012-03-20T15:07:17Z</time>
      </trkpt>
      <trkpt lat="46.26057" lon="-0.17691">
        <ele>148</ele>
        <time>2012-03-20T15:07:20Z</time>
      </trkpt>
      <trkpt lat="46.26064" lon="-0.17678">
        <ele>148</ele>
        <time>2012-03-20T15:07:30Z</time>
      </trkpt>
      <trkpt lat="46.26064" lon="-0.17677">
        <ele>148</ele>
        <time>2012-03-20T15:07:31Z</time>
      </trkpt>
      <trkpt lat="46.26066" lon="-0.17673">
        <ele>148</ele>
        <time>2012-03-20T15:07:39Z</time>
      </trkpt>
      <trkpt lat="46.26066" lon="-0.17673">
        <ele>148</ele>
        <time>2012-03-20T15:07:39Z</time>
      </trkpt>
      <trkpt lat="46.26073" lon="-0.17659">
        <ele>148</ele>
        <time>2012-03-20T15:07:51Z</time>
      </trkpt>
      <trkpt lat="46.26074" lon="-0.17658">
        <ele>148</ele>
        <time>2012-03-20T15:07:52Z</time>
      </trkpt>
      <trkpt lat="46.26079" lon="-0.17649">
        <ele>148</ele>
        <time>2012-03-20T15:07:58Z</time>
      </trkpt>
      <trkpt lat="46.26079" lon="-0.17649">
        <ele>148</ele>
        <time>2012-03-20T15:07:59Z</time>
      </trkpt>
      <trkpt lat="46.26086" lon="-0.17641">
        <ele>148</ele>
        <time>2012-03-20T15:08:11Z</time>
      </trkpt>
      <trkpt lat="46.26092" lon="-0.17634">
        <ele>148</ele>
        <time>2012-03-20T15:08:19Z</time>
      </trkpt>
      <trkpt lat="46.26094" lon="-0.17634">
        <ele>148</ele>
        <time>2012-03-20T15:08:20Z</time>
      </trkpt>
      <trkpt lat="46.26101" lon="-0.17625">
        <ele>148</ele>
        <time>2012-03-20T15:08:30Z</time>
      </trkpt>
      <trkpt lat="46.26103" lon="-0.17625">
        <ele>151</ele>
        <time>2012-03-20T15:08:30Z</time>
      </trkpt>
      <trkpt lat="46.26109" lon="-0.17619">
        <ele>151</ele>
        <time>2012-03-20T15:08:39Z</time>
      </trkpt>
      <trkpt lat="46.2611" lon="-0.17619">
        <ele>151</ele>
        <time>2012-03-20T15:08:39Z</time>
      </trkpt>
      <trkpt lat="46.26116" lon="-0.17607">
        <ele>151</ele>
        <time>2012-03-20T15:08:51Z</time>
      </trkpt>
      <trkpt lat="46.2612" lon="-0.17602">
        <ele>151</ele>
        <time>2012-03-20T15:08:57Z</time>
      </trkpt>
      <trkpt lat="46.26122" lon="-0.17601">
        <ele>151</ele>
        <time>2012-03-20T15:08:59Z</time>
      </trkpt>
      <trkpt lat="46.26132" lon="-0.17597">
        <ele>139</ele>
        <time>2012-03-20T15:09:10Z</time>
      </trkpt>
      <trkpt lat="46.26137" lon="-0.17588">
        <ele>139</ele>
        <time>2012-03-20T15:09:19Z</time>
      </trkpt>
      <trkpt lat="46.26138" lon="-0.17587">
        <ele>139</ele>
        <time>2012-03-20T15:09:20Z</time>
      </trkpt>
      <trkpt lat="46.26143" lon="-0.17575">
        <ele>139</ele>
        <time>2012-03-20T15:09:30Z</time>
      </trkpt>
      <trkpt lat="46.26145" lon="-0.17572">
        <ele>139</ele>
        <time>2012-03-20T15:09:31Z</time>
      </trkpt>
      <trkpt lat="46.26151" lon="-0.17567">
        <ele>139</ele>
        <time>2012-03-20T15:09:39Z</time>
      </trkpt>
      <trkpt lat="46.26151" lon="-0.17566">
        <ele>139</ele>
        <time>2012-03-20T15:09:40Z</time>
      </trkpt>
      <trkpt lat="46.26155" lon="-0.17561">
        <ele>139</ele>
        <time>2012-03-20T15:09:46Z</time>
      </trkpt>
      <trkpt lat="46.26156" lon="-0.17558">
        <ele>139</ele>
        <time>2012-03-20T15:09:49Z</time>
      </trkpt>
      <trkpt lat="46.26155" lon="-0.17552">
        <ele>139</ele>
        <time>2012-03-20T15:10:00Z</time>
      </trkpt>
      <trkpt lat="46.26156" lon="-0.17552">
        <ele>139</ele>
        <time>2012-03-20T15:10:10Z</time>
      </trkpt>
      <trkpt lat="46.2616" lon="-0.17547">
        <ele>139</ele>
        <time>2012-03-20T15:10:21Z</time>
      </trkpt>
      <trkpt lat="46.26162" lon="-0.17546">
        <ele>139</ele>
        <time>2012-03-20T15:10:21Z</time>
      </trkpt>
      <trkpt lat="46.26166" lon="-0.17541">
        <ele>143</ele>
        <time>2012-03-20T15:10:26Z</time>
      </trkpt>
      <trkpt lat="46.26169" lon="-0.17538">
        <ele>143</ele>
        <time>2012-03-20T15:10:34Z</time>
      </trkpt>
      <trkpt lat="46.2617" lon="-0.17537">
        <ele>143</ele>
        <time>2012-03-20T15:10:34Z</time>
      </trkpt>
      <trkpt lat="46.26172" lon="-0.17533">
        <ele>143</ele>
        <time>2012-03-20T15:10:43Z</time>
      </trkpt>
      <trkpt lat="46.26172" lon="-0.17532">
        <ele>143</ele>
        <time>2012-03-20T15:10:44Z</time>
      </trkpt>
      <trkpt lat="46.26175" lon="-0.17527">
        <ele>143</ele>
        <time>2012-03-20T15:10:51Z</time>
      </trkpt>
      <trkpt lat="46.26181" lon="-0.1752">
        <ele>143</ele>
        <time>2012-03-20T15:10:57Z</time>
      </trkpt>
      <trkpt lat="46.26181" lon="-0.1752">
        <ele>143</ele>
        <time>2012-03-20T15:10:59Z</time>
      </trkpt>
      <trkpt lat="46.26186" lon="-0.17515">
        <ele>143</ele>
        <time>2012-03-20T15:11:10Z</time>
      </trkpt>
      <trkpt lat="46.26186" lon="-0.17515">
        <ele>143</ele>
        <time>2012-03-20T15:11:11Z</time>
      </trkpt>
      <trkpt lat="46.2619" lon="-0.17512">
        <ele>143</ele>
        <time>2012-03-20T15:11:18Z</time>
      </trkpt>
      <trkpt lat="46.26191" lon="-0.17511">
        <ele>143</ele>
        <time>2012-03-20T15:11:19Z</time>
      </trkpt>
      <trkpt lat="46.26207" lon="-0.17501">
        <ele>143</ele>
        <time>2012-03-20T15:11:31Z</time>
      </trkpt>
      <trkpt lat="46.26207" lon="-0.17502">
        <ele>143</ele>
        <time>2012-03-20T15:11:31Z</time>
      </trkpt>
      <trkpt lat="46.26217" lon="-0.17495">
        <ele>136</ele>
        <time>2012-03-20T15:11:38Z</time>
      </trkpt>
      <trkpt lat="46.26219" lon="-0.17494">
        <ele>136</ele>
        <time>2012-03-20T15:11:40Z</time>
      </trkpt>
      <trkpt lat="46.26226" lon="-0.17486">
        <ele>136</ele>
        <time>2012-03-20T15:11:49Z</time>
      </trkpt>
      <trkpt lat="46.26229" lon="-0.17484">
        <ele>136</ele>
        <time>2012-03-20T15:11:59Z</time>
      </trkpt>
      <trkpt lat="46.2623" lon="-0.17484">
        <ele>136</ele>
        <time>2012-03-20T15:11:59Z</time>
      </trkpt>
      <trkpt lat="46.26232" lon="-0.17481">
        <ele>136</ele>
        <time>2012-03-20T15:12:09Z</time>
      </trkpt>
      <trkpt lat="46.26233" lon="-0.17481">
        <ele>136</ele>
        <time>2012-03-20T15:12:09Z</time>
      </trkpt>
      <trkpt lat="46.26246" lon="-0.17463">
        <ele>136</ele>
        <time>2012-03-20T15:12:21Z</time>
      </trkpt>
      <trkpt lat="46.26247" lon="-0.17454">
        <ele>138</ele>
        <time>2012-03-20T15:12:29Z</time>
      </trkpt>
      <trkpt lat="46.26248" lon="-0.17453">
        <ele>138</ele>
        <time>2012-03-20T15:12:29Z</time>
      </trkpt>
      <trkpt lat="46.26246" lon="-0.17444">
        <ele>138</ele>
        <time>2012-03-20T15:12:38Z</time>
      </trkpt>
      <trkpt lat="46.26246" lon="-0.17444">
        <ele>138</ele>
        <time>2012-03-20T15:12:41Z</time>
      </trkpt>
      <trkpt lat="46.26246" lon="-0.17444">
        <ele>138</ele>
        <time>2012-03-20T15:12:46Z</time>
      </trkpt>
      <trkpt lat="46.26247" lon="-0.17438">
        <ele>138</ele>
        <time>2012-03-20T15:12:53Z</time>
      </trkpt>
      <trkpt lat="46.26248" lon="-0.17436">
        <ele>138</ele>
        <time>2012-03-20T15:12:55Z</time>
      </trkpt>
      <trkpt lat="46.26247" lon="-0.17438">
        <ele>138</ele>
        <time>2012-03-20T15:13:01Z</time>
      </trkpt>
      <trkpt lat="46.26247" lon="-0.17427">
        <ele>138</ele>
        <time>2012-03-20T15:13:09Z</time>
      </trkpt>
      <trkpt lat="46.26247" lon="-0.17425">
        <ele>138</ele>
        <time>2012-03-20T15:13:09Z</time>
      </trkpt>
      <trkpt lat="46.26253" lon="-0.17404">
        <ele>138</ele>
        <time>2012-03-20T15:13:22Z</time>
      </trkpt>
      <trkpt lat="46.26253" lon="-0.17403">
        <ele>138</ele>
        <time>2012-03-20T15:13:23Z</time>
      </trkpt>
      <trkpt lat="46.26254" lon="-0.17401">
        <ele>138</ele>
        <time>2012-03-20T15:13:26Z</time>
      </trkpt>
      <trkpt lat="46.26259" lon="-0.17395">
        <ele>138</ele>
        <time>2012-03-20T15:13:32Z</time>
      </trkpt>
      <trkpt lat="46.2626" lon="-0.17398">
        <ele>138</ele>
        <time>2012-03-20T15:13:35Z</time>
      </trkpt>
      <trkpt lat="46.26263" lon="-0.17399">
        <ele>138</ele>
        <time>2012-03-20T15:13:43Z</time>
      </trkpt>
      <trkpt lat="46.26263" lon="-0.17399">
        <ele>138</ele>
        <time>2012-03-20T15:13:49Z</time>
      </trkpt>
      <trkpt lat="46.26263" lon="-0.174">
        <ele>138</ele>
        <time>2012-03-20T15:13:54Z</time>
      </trkpt>
      <trkpt lat="46.26263" lon="-0.174">
        <ele>138</ele>
        <time>2012-03-20T15:13:59Z</time>
      </trkpt>
      <trkpt lat="46.26262" lon="-0.174">
        <ele>138</ele>
        <time>2012-03-20T15:14:04Z</time>
      </trkpt>
      <trkpt lat="46.26264" lon="-0.17401">
        <ele>138</ele>
        <time>2012-03-20T15:14:09Z</time>
      </trkpt>
      <trkpt lat="46.26266" lon="-0.17403">
        <ele>138</ele>
        <time>2012-03-20T15:14:14Z</time>
      </trkpt>
      <trkpt lat="46.26269" lon="-0.174">
        <ele>138</ele>
        <time>2012-03-20T15:14:19Z</time>
      </trkpt>
      <trkpt lat="46.26273" lon="-0.174">
        <ele>138</ele>
        <time>2012-03-20T15:14:24Z</time>
      </trkpt>
      <trkpt lat="46.26276" lon="-0.17395">
        <ele>138</ele>
        <time>2012-03-20T15:14:29Z</time>
      </trkpt>
      <trkpt lat="46.26282" lon="-0.17388">
        <ele>138</ele>
        <time>2012-03-20T15:14:38Z</time>
      </trkpt>
      <trkpt lat="46.26282" lon="-0.17387">
        <ele>138</ele>
        <time>2012-03-20T15:14:39Z</time>
      </trkpt>
      <trkpt lat="46.26292" lon="-0.17377">
        <ele>138</ele>
        <time>2012-03-20T15:14:50Z</time>
      </trkpt>
      <trkpt lat="46.26293" lon="-0.17377">
        <ele>140</ele>
        <time>2012-03-20T15:14:51Z</time>
      </trkpt>
      <trkpt lat="46.26294" lon="-0.17376">
        <ele>140</ele>
        <time>2012-03-20T15:14:58Z</time>
      </trkpt>
      <trkpt lat="46.26294" lon="-0.17376">
        <ele>140</ele>
        <time>2012-03-20T15:14:59Z</time>
      </trkpt>
      <trkpt lat="46.26298" lon="-0.17372">
        <ele>142</ele>
        <time>2012-03-20T15:15:10Z</time>
      </trkpt>
      <trkpt lat="46.26298" lon="-0.17371">
        <ele>142</ele>
        <time>2012-03-20T15:15:11Z</time>
      </trkpt>
      <trkpt lat="46.26298" lon="-0.17366">
        <ele>142</ele>
        <time>2012-03-20T15:15:18Z</time>
      </trkpt>
      <trkpt lat="46.26299" lon="-0.17363">
        <ele>142</ele>
        <time>2012-03-20T15:15:19Z</time>
      </trkpt>
      <trkpt lat="46.26305" lon="-0.17352">
        <ele>142</ele>
        <time>2012-03-20T15:15:31Z</time>
      </trkpt>
      <trkpt lat="46.26305" lon="-0.17351">
        <ele>142</ele>
        <time>2012-03-20T15:15:32Z</time>
      </trkpt>
      <trkpt lat="46.26307" lon="-0.17345">
        <ele>142</ele>
        <time>2012-03-20T15:15:35Z</time>
      </trkpt>
      <trkpt lat="46.26306" lon="-0.17337">
        <ele>142</ele>
        <time>2012-03-20T15:15:39Z</time>
      </trkpt>
      <trkpt lat="46.26309" lon="-0.17327">
        <ele>142</ele>
        <time>2012-03-20T15:15:46Z</time>
      </trkpt>
      <trkpt lat="46.26312" lon="-0.17317">
        <ele>142</ele>
        <time>2012-03-20T15:15:53Z</time>
      </trkpt>
      <trkpt lat="46.26313" lon="-0.17313">
        <ele>142</ele>
        <time>2012-03-20T15:15:55Z</time>
      </trkpt>
      <trkpt lat="46.26314" lon="-0.17305">
        <ele>142</ele>
        <time>2012-03-20T15:16:01Z</time>
      </trkpt>
      <trkpt lat="46.26316" lon="-0.173">
        <ele>142</ele>
        <time>2012-03-20T15:16:07Z</time>
      </trkpt>
      <trkpt lat="46.26315" lon="-0.17293">
        <ele>142</ele>
        <time>2012-03-20T15:16:11Z</time>
      </trkpt>
      <trkpt lat="46.26315" lon="-0.17282">
        <ele>147</ele>
        <time>2012-03-20T15:16:17Z</time>
      </trkpt>
      <trkpt lat="46.26316" lon="-0.17279">
        <ele>147</ele>
        <time>2012-03-20T15:16:21Z</time>
      </trkpt>
      <trkpt lat="46.26318" lon="-0.17271">
        <ele>147</ele>
        <time>2012-03-20T15:16:28Z</time>
      </trkpt>
      <trkpt lat="46.26318" lon="-0.17268">
        <ele>147</ele>
        <time>2012-03-20T15:16:29Z</time>
      </trkpt>
      <trkpt lat="46.26325" lon="-0.17255">
        <ele>147</ele>
        <time>2012-03-20T15:16:40Z</time>
      </trkpt>
      <trkpt lat="46.26325" lon="-0.17254">
        <ele>147</ele>
        <time>2012-03-20T15:16:41Z</time>
      </trkpt>
      <trkpt lat="46.26326" lon="-0.17246">
        <ele>147</ele>
        <time>2012-03-20T15:16:49Z</time>
      </trkpt>
      <trkpt lat="46.26325" lon="-0.17237">
        <ele>147</ele>
        <time>2012-03-20T15:16:59Z</time>
      </trkpt>
      <trkpt lat="46.26325" lon="-0.17235">
        <ele>147</ele>
        <time>2012-03-20T15:16:59Z</time>
      </trkpt>
      <trkpt lat="46.26321" lon="-0.17228">
        <ele>147</ele>
        <time>2012-03-20T15:17:11Z</time>
      </trkpt>
      <trkpt lat="46.26321" lon="-0.17224">
        <ele>147</ele>
        <time>2012-03-20T15:17:11Z</time>
      </trkpt>
      <trkpt lat="46.26317" lon="-0.17211">
        <ele>147</ele>
        <time>2012-03-20T15:17:17Z</time>
      </trkpt>
      <trkpt lat="46.26311" lon="-0.17205">
        <ele>155</ele>
        <time>2012-03-20T15:17:21Z</time>
      </trkpt>
      <trkpt lat="46.2631" lon="-0.17197">
        <ele>155</ele>
        <time>2012-03-20T15:17:27Z</time>
      </trkpt>
      <trkpt lat="46.26309" lon="-0.17192">
        <ele>155</ele>
        <time>2012-03-20T15:17:30Z</time>
      </trkpt>
      <trkpt lat="46.26307" lon="-0.17183">
        <ele>155</ele>
        <time>2012-03-20T15:17:39Z</time>
      </trkpt>
      <trkpt lat="46.26307" lon="-0.17181">
        <ele>155</ele>
        <time>2012-03-20T15:17:39Z</time>
      </trkpt>
      <trkpt lat="46.263" lon="-0.17163">
        <ele>155</ele>
        <time>2012-03-20T15:17:51Z</time>
      </trkpt>
      <trkpt lat="46.26298" lon="-0.1716">
        <ele>155</ele>
        <time>2012-03-20T15:17:55Z</time>
      </trkpt>
      <trkpt lat="46.26294" lon="-0.17152">
        <ele>155</ele>
        <time>2012-03-20T15:18:02Z</time>
      </trkpt>
      <trkpt lat="46.26292" lon="-0.17148">
        <ele>155</ele>
        <time>2012-03-20T15:18:07Z</time>
      </trkpt>
      <trkpt lat="46.26289" lon="-0.17145">
        <ele>149</ele>
        <time>2012-03-20T15:18:11Z</time>
      </trkpt>
      <trkpt lat="46.26285" lon="-0.17139">
        <ele>149</ele>
        <time>2012-03-20T15:18:18Z</time>
      </trkpt>
      <trkpt lat="46.26285" lon="-0.17137">
        <ele>149</ele>
        <time>2012-03-20T15:18:20Z</time>
      </trkpt>
      <trkpt lat="46.26279" lon="-0.17124">
        <ele>156</ele>
        <time>2012-03-20T15:18:30Z</time>
      </trkpt>
      <trkpt lat="46.26278" lon="-0.17123">
        <ele>156</ele>
        <time>2012-03-20T15:18:30Z</time>
      </trkpt>
      <trkpt lat="46.26274" lon="-0.17111">
        <ele>156</ele>
        <time>2012-03-20T15:18:39Z</time>
      </trkpt>
      <trkpt lat="46.26273" lon="-0.17111">
        <ele>156</ele>
        <time>2012-03-20T15:18:40Z</time>
      </trkpt>
      <trkpt lat="46.26271" lon="-0.171">
        <ele>156</ele>
        <time>2012-03-20T15:18:50Z</time>
      </trkpt>
      <trkpt lat="46.26271" lon="-0.171">
        <ele>156</ele>
        <time>2012-03-20T15:18:51Z</time>
      </trkpt>
      <trkpt lat="46.2627" lon="-0.171">
        <ele>156</ele>
        <time>2012-03-20T15:18:54Z</time>
      </trkpt>
      <trkpt lat="46.26269" lon="-0.17099">
        <ele>156</ele>
        <time>2012-03-20T15:18:59Z</time>
      </trkpt>
      <trkpt lat="46.26269" lon="-0.17099">
        <ele>156</ele>
        <time>2012-03-20T15:19:04Z</time>
      </trkpt>
      <trkpt lat="46.26268" lon="-0.171">
        <ele>156</ele>
        <time>2012-03-20T15:19:09Z</time>
      </trkpt>
      <trkpt lat="46.26267" lon="-0.17091">
        <ele>156</ele>
        <time>2012-03-20T15:19:14Z</time>
      </trkpt>
      <trkpt lat="46.26268" lon="-0.17085">
        <ele>156</ele>
        <time>2012-03-20T15:19:19Z</time>
      </trkpt>
      <trkpt lat="46.26269" lon="-0.1708">
        <ele>156</ele>
        <time>2012-03-20T15:19:24Z</time>
      </trkpt>
      <trkpt lat="46.26269" lon="-0.17075">
        <ele>156</ele>
        <time>2012-03-20T15:19:32Z</time>
      </trkpt>
      <trkpt lat="46.26268" lon="-0.17074">
        <ele>156</ele>
        <time>2012-03-20T15:19:36Z</time>
      </trkpt>
      <trkpt lat="46.26267" lon="-0.17074">
        <ele>156</ele>
        <time>2012-03-20T15:19:43Z</time>
      </trkpt>
      <trkpt lat="46.26266" lon="-0.1707">
        <ele>156</ele>
        <time>2012-03-20T15:19:45Z</time>
      </trkpt>
      <trkpt lat="46.26264" lon="-0.17067">
        <ele>156</ele>
        <time>2012-03-20T15:19:52Z</time>
      </trkpt>
      <trkpt lat="46.26264" lon="-0.17067">
        <ele>156</ele>
        <time>2012-03-20T15:19:54Z</time>
      </trkpt>
      <trkpt lat="46.26261" lon="-0.17061">
        <ele>156</ele>
        <time>2012-03-20T15:20:03Z</time>
      </trkpt>
      <trkpt lat="46.2626" lon="-0.17063">
        <ele>156</ele>
        <time>2012-03-20T15:20:04Z</time>
      </trkpt>
      <trkpt lat="46.2626" lon="-0.17063">
        <ele>156</ele>
        <time>2012-03-20T15:20:14Z</time>
      </trkpt>
      <trkpt lat="46.26259" lon="-0.17063">
        <ele>156</ele>
        <time>2012-03-20T15:20:14Z</time>
      </trkpt>
      <trkpt lat="46.26254" lon="-0.1706">
        <ele>156</ele>
        <time>2012-03-20T15:20:19Z</time>
      </trkpt>
      <trkpt lat="46.26246" lon="-0.17058">
        <ele>156</ele>
        <time>2012-03-20T15:20:28Z</time>
      </trkpt>
      <trkpt lat="46.26245" lon="-0.17058">
        <ele>156</ele>
        <time>2012-03-20T15:20:29Z</time>
      </trkpt>
      <trkpt lat="46.26236" lon="-0.17058">
        <ele>156</ele>
        <time>2012-03-20T15:20:40Z</time>
      </trkpt>
      <trkpt lat="46.26235" lon="-0.17059">
        <ele>156</ele>
        <time>2012-03-20T15:20:41Z</time>
      </trkpt>
      <trkpt lat="46.26232" lon="-0.17061">
        <ele>156</ele>
        <time>2012-03-20T15:20:47Z</time>
      </trkpt>
      <trkpt lat="46.26229" lon="-0.17063">
        <ele>156</ele>
        <time>2012-03-20T15:20:50Z</time>
      </trkpt>
      <trkpt lat="46.26221" lon="-0.17067">
        <ele>156</ele>
        <time>2012-03-20T15:20:59Z</time>
      </trkpt>
      <trkpt lat="46.2622" lon="-0.17069">
        <ele>156</ele>
        <time>2012-03-20T15:20:59Z</time>
      </trkpt>
      <trkpt lat="46.26212" lon="-0.17074">
        <ele>156</ele>
        <time>2012-03-20T15:21:10Z</time>
      </trkpt>
      <trkpt lat="46.26206" lon="-0.17079">
        <ele>150</ele>
        <time>2012-03-20T15:21:19Z</time>
      </trkpt>
      <trkpt lat="46.26205" lon="-0.17079">
        <ele>150</ele>
        <time>2012-03-20T15:21:19Z</time>
      </trkpt>
      <trkpt lat="46.26198" lon="-0.1708">
        <ele>150</ele>
        <time>2012-03-20T15:21:30Z</time>
      </trkpt>
      <trkpt lat="46.26196" lon="-0.1708">
        <ele>150</ele>
        <time>2012-03-20T15:21:30Z</time>
      </trkpt>
      <trkpt lat="46.26195" lon="-0.17077">
        <ele>150</ele>
        <time>2012-03-20T15:21:37Z</time>
      </trkpt>
      <trkpt lat="46.26193" lon="-0.17065">
        <ele>150</ele>
        <time>2012-03-20T15:21:42Z</time>
      </trkpt>
      <trkpt lat="46.26193" lon="-0.17063">
        <ele>150</ele>
        <time>2012-03-20T15:21:44Z</time>
      </trkpt>
      <trkpt lat="46.26188" lon="-0.17047">
        <ele>150</ele>
        <time>2012-03-20T15:21:53Z</time>
      </trkpt>
      <trkpt lat="46.26185" lon="-0.17035">
        <ele>156</ele>
        <time>2012-03-20T15:22:04Z</time>
      </trkpt>
      <trkpt lat="46.26184" lon="-0.1703">
        <ele>156</ele>
        <time>2012-03-20T15:22:04Z</time>
      </trkpt>
      <trkpt lat="46.26177" lon="-0.17014">
        <ele>156</ele>
        <time>2012-03-20T15:22:16Z</time>
      </trkpt>
      <trkpt lat="46.26175" lon="-0.17013">
        <ele>156</ele>
        <time>2012-03-20T15:22:16Z</time>
      </trkpt>
      <trkpt lat="46.2617" lon="-0.17008">
        <ele>156</ele>
        <time>2012-03-20T15:22:24Z</time>
      </trkpt>
      <trkpt lat="46.26169" lon="-0.17008">
        <ele>156</ele>
        <time>2012-03-20T15:22:24Z</time>
      </trkpt>
      <trkpt lat="46.2616" lon="-0.16996">
        <ele>156</ele>
        <time>2012-03-20T15:22:36Z</time>
      </trkpt>
      <trkpt lat="46.26159" lon="-0.16995">
        <ele>156</ele>
        <time>2012-03-20T15:22:37Z</time>
      </trkpt>
      <trkpt lat="46.26156" lon="-0.16988">
        <ele>156</ele>
        <time>2012-03-20T15:22:44Z</time>
      </trkpt>
      <trkpt lat="46.26156" lon="-0.16986">
        <ele>156</ele>
        <time>2012-03-20T15:22:44Z</time>
      </trkpt>
      <trkpt lat="46.26147" lon="-0.16979">
        <ele>156</ele>
        <time>2012-03-20T15:22:56Z</time>
      </trkpt>
      <trkpt lat="46.26147" lon="-0.16978">
        <ele>156</ele>
        <time>2012-03-20T15:22:56Z</time>
      </trkpt>
      <trkpt lat="46.26144" lon="-0.16976">
        <ele>156</ele>
        <time>2012-03-20T15:22:59Z</time>
      </trkpt>
      <trkpt lat="46.26139" lon="-0.16966">
        <ele>156</ele>
        <time>2012-03-20T15:23:08Z</time>
      </trkpt>
      <trkpt lat="46.26138" lon="-0.16965">
        <ele>156</ele>
        <time>2012-03-20T15:23:09Z</time>
      </trkpt>
      <trkpt lat="46.26132" lon="-0.16951">
        <ele>163</ele>
        <time>2012-03-20T15:23:21Z</time>
      </trkpt>
      <trkpt lat="46.26131" lon="-0.1695">
        <ele>163</ele>
        <time>2012-03-20T15:23:21Z</time>
      </trkpt>
      <trkpt lat="46.26125" lon="-0.16943">
        <ele>163</ele>
        <time>2012-03-20T15:23:28Z</time>
      </trkpt>
      <trkpt lat="46.26123" lon="-0.16942">
        <ele>155</ele>
        <time>2012-03-20T15:23:30Z</time>
      </trkpt>
      <trkpt lat="46.26115" lon="-0.1694">
        <ele>155</ele>
        <time>2012-03-20T15:23:39Z</time>
      </trkpt>
      <trkpt lat="46.26113" lon="-0.16939">
        <ele>155</ele>
        <time>2012-03-20T15:23:40Z</time>
      </trkpt>
      <trkpt lat="46.26105" lon="-0.16936">
        <ele>155</ele>
        <time>2012-03-20T15:23:48Z</time>
      </trkpt>
      <trkpt lat="46.26104" lon="-0.16935">
        <ele>155</ele>
        <time>2012-03-20T15:23:50Z</time>
      </trkpt>
      <trkpt lat="46.26095" lon="-0.16926">
        <ele>155</ele>
        <time>2012-03-20T15:23:58Z</time>
      </trkpt>
      <trkpt lat="46.26094" lon="-0.16926">
        <ele>155</ele>
        <time>2012-03-20T15:23:59Z</time>
      </trkpt>
      <trkpt lat="46.26085" lon="-0.16922">
        <ele>155</ele>
        <time>2012-03-20T15:24:09Z</time>
      </trkpt>
      <trkpt lat="46.26083" lon="-0.1692">
        <ele>155</ele>
        <time>2012-03-20T15:24:10Z</time>
      </trkpt>
      <trkpt lat="46.26073" lon="-0.16912">
        <ele>155</ele>
        <time>2012-03-20T15:24:20Z</time>
      </trkpt>
      <trkpt lat="46.26066" lon="-0.16899">
        <ele>155</ele>
        <time>2012-03-20T15:24:28Z</time>
      </trkpt>
      <trkpt lat="46.26063" lon="-0.16896">
        <ele>155</ele>
        <time>2012-03-20T15:24:30Z</time>
      </trkpt>
      <trkpt lat="46.26055" lon="-0.16892">
        <ele>155</ele>
        <time>2012-03-20T15:24:38Z</time>
      </trkpt>
      <trkpt lat="46.26046" lon="-0.16885">
        <ele>155</ele>
        <time>2012-03-20T15:24:48Z</time>
      </trkpt>
      <trkpt lat="46.26043" lon="-0.1688">
        <ele>155</ele>
        <time>2012-03-20T15:24:50Z</time>
      </trkpt>
      <trkpt lat="46.26034" lon="-0.16877">
        <ele>148</ele>
        <time>2012-03-20T15:24:59Z</time>
      </trkpt>
      <trkpt lat="46.26029" lon="-0.16875">
        <ele>148</ele>
        <time>2012-03-20T15:25:08Z</time>
      </trkpt>
      <trkpt lat="46.26018" lon="-0.16869">
        <ele>151</ele>
        <time>2012-03-20T15:25:18Z</time>
      </trkpt>
      <trkpt lat="46.26017" lon="-0.16869">
        <ele>151</ele>
        <time>2012-03-20T15:25:19Z</time>
      </trkpt>
      <trkpt lat="46.26006" lon="-0.16866">
        <ele>151</ele>
        <time>2012-03-20T15:25:31Z</time>
      </trkpt>
      <trkpt lat="46.26005" lon="-0.16865">
        <ele>151</ele>
        <time>2012-03-20T15:25:32Z</time>
      </trkpt>
      <trkpt lat="46.26002" lon="-0.16864">
        <ele>151</ele>
        <time>2012-03-20T15:25:37Z</time>
      </trkpt>
      <trkpt lat="46.25998" lon="-0.16861">
        <ele>151</ele>
        <time>2012-03-20T15:25:40Z</time>
      </trkpt>
      <trkpt lat="46.25992" lon="-0.16859">
        <ele>151</ele>
        <time>2012-03-20T15:25:47Z</time>
      </trkpt>
      <trkpt lat="46.25989" lon="-0.16855">
        <ele>151</ele>
        <time>2012-03-20T15:25:51Z</time>
      </trkpt>
      <trkpt lat="46.25984" lon="-0.1685">
        <ele>151</ele>
        <time>2012-03-20T15:25:57Z</time>
      </trkpt>
      <trkpt lat="46.25982" lon="-0.16847">
        <ele>151</ele>
        <time>2012-03-20T15:26:00Z</time>
      </trkpt>
      <trkpt lat="46.25977" lon="-0.16841">
        <ele>151</ele>
        <time>2012-03-20T15:26:07Z</time>
      </trkpt>
      <trkpt lat="46.25975" lon="-0.16838">
        <ele>151</ele>
        <time>2012-03-20T15:26:10Z</time>
      </trkpt>
      <trkpt lat="46.25968" lon="-0.16824">
        <ele>151</ele>
        <time>2012-03-20T15:26:19Z</time>
      </trkpt>
      <trkpt lat="46.25968" lon="-0.16823">
        <ele>151</ele>
        <time>2012-03-20T15:26:20Z</time>
      </trkpt>
      <trkpt lat="46.25964" lon="-0.16818">
        <ele>151</ele>
        <time>2012-03-20T15:26:30Z</time>
      </trkpt>
      <trkpt lat="46.25963" lon="-0.16818">
        <ele>151</ele>
        <time>2012-03-20T15:26:30Z</time>
      </trkpt>
      <trkpt lat="46.25959" lon="-0.16806">
        <ele>151</ele>
        <time>2012-03-20T15:26:37Z</time>
      </trkpt>
      <trkpt lat="46.25958" lon="-0.16801">
        <ele>144</ele>
        <time>2012-03-20T15:26:40Z</time>
      </trkpt>
      <trkpt lat="46.25956" lon="-0.16793">
        <ele>144</ele>
        <time>2012-03-20T15:26:47Z</time>
      </trkpt>
      <trkpt lat="46.25955" lon="-0.1679">
        <ele>144</ele>
        <time>2012-03-20T15:26:51Z</time>
      </trkpt>
      <trkpt lat="46.25951" lon="-0.1678">
        <ele>144</ele>
        <time>2012-03-20T15:26:57Z</time>
      </trkpt>
      <trkpt lat="46.25951" lon="-0.16777">
        <ele>144</ele>
        <time>2012-03-20T15:27:00Z</time>
      </trkpt>
      <trkpt lat="46.25947" lon="-0.16764">
        <ele>144</ele>
        <time>2012-03-20T15:27:08Z</time>
      </trkpt>
      <trkpt lat="46.25947" lon="-0.16764">
        <ele>144</ele>
        <time>2012-03-20T15:27:09Z</time>
      </trkpt>
      <trkpt lat="46.2594" lon="-0.16745">
        <ele>144</ele>
        <time>2012-03-20T15:27:20Z</time>
      </trkpt>
      <trkpt lat="46.25935" lon="-0.16735">
        <ele>144</ele>
        <time>2012-03-20T15:27:27Z</time>
      </trkpt>
      <trkpt lat="46.25932" lon="-0.16726">
        <ele>144</ele>
        <time>2012-03-20T15:27:32Z</time>
      </trkpt>
      <trkpt lat="46.2593" lon="-0.16719">
        <ele>144</ele>
        <time>2012-03-20T15:27:34Z</time>
      </trkpt>
      <trkpt lat="46.25925" lon="-0.16708">
        <ele>147</ele>
        <time>2012-03-20T15:27:45Z</time>
      </trkpt>
      <trkpt lat="46.25923" lon="-0.16702">
        <ele>147</ele>
        <time>2012-03-20T15:27:51Z</time>
      </trkpt>
      <trkpt lat="46.25917" lon="-0.16695">
        <ele>147</ele>
        <time>2012-03-20T15:27:58Z</time>
      </trkpt>
      <trkpt lat="46.25916" lon="-0.16691">
        <ele>147</ele>
        <time>2012-03-20T15:27:59Z</time>
      </trkpt>
      <trkpt lat="46.25915" lon="-0.16689">
        <ele>147</ele>
        <time>2012-03-20T15:28:07Z</time>
      </trkpt>
      <trkpt lat="46.25915" lon="-0.1669">
        <ele>147</ele>
        <time>2012-03-20T15:28:10Z</time>
      </trkpt>
      <trkpt lat="46.25915" lon="-0.16691">
        <ele>147</ele>
        <time>2012-03-20T15:28:16Z</time>
      </trkpt>
      <trkpt lat="46.25915" lon="-0.16691">
        <ele>147</ele>
        <time>2012-03-20T15:28:24Z</time>
      </trkpt>
      <trkpt lat="46.25915" lon="-0.16691">
        <ele>147</ele>
        <time>2012-03-20T15:28:35Z</time>
      </trkpt>
      <trkpt lat="46.25915" lon="-0.16691">
        <ele>147</ele>
        <time>2012-03-20T15:28:44Z</time>
      </trkpt>
      <trkpt lat="46.25915" lon="-0.16691">
        <ele>147</ele>
        <time>2012-03-20T15:28:44Z</time>
      </trkpt>
      <trkpt lat="46.2591" lon="-0.16691">
        <ele>147</ele>
        <time>2012-03-20T15:28:51Z</time>
      </trkpt>
      <trkpt lat="46.25908" lon="-0.1669">
        <ele>147</ele>
        <time>2012-03-20T15:28:54Z</time>
      </trkpt>
      <trkpt lat="46.25906" lon="-0.16692">
        <ele>147</ele>
        <time>2012-03-20T15:28:59Z</time>
      </trkpt>
      <trkpt lat="46.25906" lon="-0.16698">
        <ele>147</ele>
        <time>2012-03-20T15:29:04Z</time>
      </trkpt>
      <trkpt lat="46.25904" lon="-0.16703">
        <ele>147</ele>
        <time>2012-03-20T15:29:09Z</time>
      </trkpt>
      <trkpt lat="46.25902" lon="-0.16708">
        <ele>147</ele>
        <time>2012-03-20T15:29:14Z</time>
      </trkpt>
      <trkpt lat="46.25901" lon="-0.1671">
        <ele>144</ele>
        <time>2012-03-20T15:29:19Z</time>
      </trkpt>
      <trkpt lat="46.25899" lon="-0.16714">
        <ele>144</ele>
        <time>2012-03-20T15:29:24Z</time>
      </trkpt>
      <trkpt lat="46.25898" lon="-0.16719">
        <ele>144</ele>
        <time>2012-03-20T15:29:29Z</time>
      </trkpt>
      <trkpt lat="46.25897" lon="-0.16721">
        <ele>144</ele>
        <time>2012-03-20T15:29:34Z</time>
      </trkpt>
      <trkpt lat="46.25898" lon="-0.16722">
        <ele>144</ele>
        <time>2012-03-20T15:29:39Z</time>
      </trkpt>
      <trkpt lat="46.25897" lon="-0.16725">
        <ele>144</ele>
        <time>2012-03-20T15:29:44Z</time>
      </trkpt>
      <trkpt lat="46.25895" lon="-0.1673">
        <ele>144</ele>
        <time>2012-03-20T15:29:51Z</time>
      </trkpt>
      <trkpt lat="46.25891" lon="-0.16734">
        <ele>144</ele>
        <time>2012-03-20T15:29:55Z</time>
      </trkpt>
      <trkpt lat="46.25889" lon="-0.16733">
        <ele>144</ele>
        <time>2012-03-20T15:29:59Z</time>
      </trkpt>
      <trkpt lat="46.25885" lon="-0.16739">
        <ele>144</ele>
        <time>2012-03-20T15:30:04Z</time>
      </trkpt>
      <trkpt lat="46.25884" lon="-0.16743">
        <ele>144</ele>
        <time>2012-03-20T15:30:09Z</time>
      </trkpt>
      <trkpt lat="46.25878" lon="-0.16754">
        <ele>144</ele>
        <time>2012-03-20T15:30:18Z</time>
      </trkpt>
      <trkpt lat="46.25877" lon="-0.16756">
        <ele>144</ele>
        <time>2012-03-20T15:30:19Z</time>
      </trkpt>
      <trkpt lat="46.25871" lon="-0.16768">
        <ele>143</ele>
        <time>2012-03-20T15:30:30Z</time>
      </trkpt>
      <trkpt lat="46.2587" lon="-0.16769">
        <ele>143</ele>
        <time>2012-03-20T15:30:31Z</time>
      </trkpt>
      <trkpt lat="46.25869" lon="-0.16772">
        <ele>143</ele>
        <time>2012-03-20T15:30:34Z</time>
      </trkpt>
      <trkpt lat="46.25866" lon="-0.16779">
        <ele>143</ele>
        <time>2012-03-20T15:30:39Z</time>
      </trkpt>
      <trkpt lat="46.25864" lon="-0.16785">
        <ele>143</ele>
        <time>2012-03-20T15:30:44Z</time>
      </trkpt>
      <trkpt lat="46.25863" lon="-0.16791">
        <ele>143</ele>
        <time>2012-03-20T15:30:49Z</time>
      </trkpt>
      <trkpt lat="46.2586" lon="-0.16797">
        <ele>141</ele>
        <time>2012-03-20T15:30:54Z</time>
      </trkpt>
      <trkpt lat="46.25858" lon="-0.16803">
        <ele>141</ele>
        <time>2012-03-20T15:30:59Z</time>
      </trkpt>
      <trkpt lat="46.25854" lon="-0.1681">
        <ele>141</ele>
        <time>2012-03-20T15:31:04Z</time>
      </trkpt>
      <trkpt lat="46.25851" lon="-0.16819">
        <ele>141</ele>
        <time>2012-03-20T15:31:12Z</time>
      </trkpt>
      <trkpt lat="46.25853" lon="-0.16823">
        <ele>141</ele>
        <time>2012-03-20T15:31:16Z</time>
      </trkpt>
      <trkpt lat="46.25851" lon="-0.16829">
        <ele>141</ele>
        <time>2012-03-20T15:31:21Z</time>
      </trkpt>
      <trkpt lat="46.25851" lon="-0.16832">
        <ele>141</ele>
        <time>2012-03-20T15:31:25Z</time>
      </trkpt>
      <trkpt lat="46.25846" lon="-0.16844">
        <ele>141</ele>
        <time>2012-03-20T15:31:32Z</time>
      </trkpt>
      <trkpt lat="46.25844" lon="-0.1685">
        <ele>141</ele>
        <time>2012-03-20T15:31:35Z</time>
      </trkpt>
      <trkpt lat="46.25846" lon="-0.16857">
        <ele>141</ele>
        <time>2012-03-20T15:31:42Z</time>
      </trkpt>
      <trkpt lat="46.25846" lon="-0.16864">
        <ele>141</ele>
        <time>2012-03-20T15:31:46Z</time>
      </trkpt>
      <trkpt lat="46.25843" lon="-0.16872">
        <ele>141</ele>
        <time>2012-03-20T15:31:50Z</time>
      </trkpt>
      <trkpt lat="46.25842" lon="-0.16886">
        <ele>140</ele>
        <time>2012-03-20T15:31:57Z</time>
      </trkpt>
      <trkpt lat="46.25842" lon="-0.1689">
        <ele>140</ele>
        <time>2012-03-20T15:32:00Z</time>
      </trkpt>
      <trkpt lat="46.25838" lon="-0.16901">
        <ele>140</ele>
        <time>2012-03-20T15:32:04Z</time>
      </trkpt>
      <trkpt lat="46.25836" lon="-0.16917">
        <ele>140</ele>
        <time>2012-03-20T15:32:14Z</time>
      </trkpt>
      <trkpt lat="46.25837" lon="-0.16921">
        <ele>140</ele>
        <time>2012-03-20T15:32:14Z</time>
      </trkpt>
      <trkpt lat="46.25837" lon="-0.16922">
        <ele>140</ele>
        <time>2012-03-20T15:32:22Z</time>
      </trkpt>
      <trkpt lat="46.25837" lon="-0.16923">
        <ele>140</ele>
        <time>2012-03-20T15:32:24Z</time>
      </trkpt>
      <trkpt lat="46.25835" lon="-0.16925">
        <ele>140</ele>
        <time>2012-03-20T15:32:29Z</time>
      </trkpt>
      <trkpt lat="46.25836" lon="-0.16926">
        <ele>140</ele>
        <time>2012-03-20T15:32:34Z</time>
      </trkpt>
      <trkpt lat="46.25836" lon="-0.16929">
        <ele>140</ele>
        <time>2012-03-20T15:32:39Z</time>
      </trkpt>
      <trkpt lat="46.25839" lon="-0.16937">
        <ele>140</ele>
        <time>2012-03-20T15:32:44Z</time>
      </trkpt>
      <trkpt lat="46.25838" lon="-0.16945">
        <ele>140</ele>
        <time>2012-03-20T15:32:49Z</time>
      </trkpt>
      <trkpt lat="46.25837" lon="-0.16951">
        <ele>140</ele>
        <time>2012-03-20T15:32:54Z</time>
      </trkpt>
      <trkpt lat="46.25837" lon="-0.16953">
        <ele>140</ele>
        <time>2012-03-20T15:32:59Z</time>
      </trkpt>
      <trkpt lat="46.25837" lon="-0.16954">
        <ele>140</ele>
        <time>2012-03-20T15:33:04Z</time>
      </trkpt>
      <trkpt lat="46.25837" lon="-0.16961">
        <ele>147</ele>
        <time>2012-03-20T15:33:09Z</time>
      </trkpt>
      <trkpt lat="46.25836" lon="-0.1697">
        <ele>147</ele>
        <time>2012-03-20T15:33:20Z</time>
      </trkpt>
      <trkpt lat="46.25834" lon="-0.16979">
        <ele>147</ele>
        <time>2012-03-20T15:33:28Z</time>
      </trkpt>
      <trkpt lat="46.25833" lon="-0.16979">
        <ele>147</ele>
        <time>2012-03-20T15:33:29Z</time>
      </trkpt>
      <trkpt lat="46.25836" lon="-0.16998">
        <ele>147</ele>
        <time>2012-03-20T15:33:41Z</time>
      </trkpt>
      <trkpt lat="46.25836" lon="-0.16998">
        <ele>147</ele>
        <time>2012-03-20T15:33:42Z</time>
      </trkpt>
      <trkpt lat="46.25836" lon="-0.17">
        <ele>147</ele>
        <time>2012-03-20T15:33:44Z</time>
      </trkpt>
      <trkpt lat="46.25834" lon="-0.17005">
        <ele>147</ele>
        <time>2012-03-20T15:33:51Z</time>
      </trkpt>
      <trkpt lat="46.25834" lon="-0.17006">
        <ele>147</ele>
        <time>2012-03-20T15:33:57Z</time>
      </trkpt>
      <trkpt lat="46.25834" lon="-0.17006">
        <ele>147</ele>
        <time>2012-03-20T15:34:00Z</time>
      </trkpt>
      <trkpt lat="46.25835" lon="-0.17006">
        <ele>147</ele>
        <time>2012-03-20T15:34:09Z</time>
      </trkpt>
      <trkpt lat="46.25834" lon="-0.17022">
        <ele>147</ele>
        <time>2012-03-20T15:34:21Z</time>
      </trkpt>
      <trkpt lat="46.25834" lon="-0.17023">
        <ele>147</ele>
        <time>2012-03-20T15:34:21Z</time>
      </trkpt>
      <trkpt lat="46.25835" lon="-0.17024">
        <ele>147</ele>
        <time>2012-03-20T15:34:28Z</time>
      </trkpt>
      <trkpt lat="46.25836" lon="-0.17055">
        <ele>157</ele>
        <time>2012-03-20T15:34:43Z</time>
      </trkpt>
      <trkpt lat="46.25836" lon="-0.17056">
        <ele>157</ele>
        <time>2012-03-20T15:34:43Z</time>
      </trkpt>
      <trkpt lat="46.25837" lon="-0.17065">
        <ele>157</ele>
        <time>2012-03-20T15:34:51Z</time>
      </trkpt>
      <trkpt lat="46.25836" lon="-0.17067">
        <ele>157</ele>
        <time>2012-03-20T15:34:54Z</time>
      </trkpt>
      <trkpt lat="46.2584" lon="-0.17082">
        <ele>157</ele>
        <time>2012-03-20T15:35:06Z</time>
      </trkpt>
      <trkpt lat="46.2584" lon="-0.17084">
        <ele>157</ele>
        <time>2012-03-20T15:35:06Z</time>
      </trkpt>
      <trkpt lat="46.25842" lon="-0.17091">
        <ele>157</ele>
        <time>2012-03-20T15:35:14Z</time>
      </trkpt>
      <trkpt lat="46.25843" lon="-0.17093">
        <ele>157</ele>
        <time>2012-03-20T15:35:14Z</time>
      </trkpt>
      <trkpt lat="46.25846" lon="-0.17105">
        <ele>157</ele>
        <time>2012-03-20T15:35:25Z</time>
      </trkpt>
      <trkpt lat="46.25847" lon="-0.17106">
        <ele>157</ele>
        <time>2012-03-20T15:35:25Z</time>
      </trkpt>
      <trkpt lat="46.25845" lon="-0.1712">
        <ele>157</ele>
        <time>2012-03-20T15:35:34Z</time>
      </trkpt>
      <trkpt lat="46.25847" lon="-0.17133">
        <ele>164</ele>
        <time>2012-03-20T15:35:45Z</time>
      </trkpt>
      <trkpt lat="46.25849" lon="-0.17141">
        <ele>164</ele>
        <time>2012-03-20T15:35:53Z</time>
      </trkpt>
      <trkpt lat="46.25849" lon="-0.17145">
        <ele>164</ele>
        <time>2012-03-20T15:35:56Z</time>
      </trkpt>
      <trkpt lat="46.25852" lon="-0.17156">
        <ele>164</ele>
        <time>2012-03-20T15:36:02Z</time>
      </trkpt>
      <trkpt lat="46.25853" lon="-0.17159">
        <ele>164</ele>
        <time>2012-03-20T15:36:05Z</time>
      </trkpt>
      <trkpt lat="46.25855" lon="-0.17168">
        <ele>164</ele>
        <time>2012-03-20T15:36:13Z</time>
      </trkpt>
      <trkpt lat="46.25856" lon="-0.17171">
        <ele>164</ele>
        <time>2012-03-20T15:36:15Z</time>
      </trkpt>
      <trkpt lat="46.25859" lon="-0.17183">
        <ele>164</ele>
        <time>2012-03-20T15:36:23Z</time>
      </trkpt>
      <trkpt lat="46.25858" lon="-0.17186">
        <ele>164</ele>
        <time>2012-03-20T15:36:24Z</time>
      </trkpt>
      <trkpt lat="46.25857" lon="-0.17199">
        <ele>164</ele>
        <time>2012-03-20T15:36:36Z</time>
      </trkpt>
      <trkpt lat="46.25858" lon="-0.172">
        <ele>164</ele>
        <time>2012-03-20T15:36:36Z</time>
      </trkpt>
      <trkpt lat="46.25861" lon="-0.17208">
        <ele>164</ele>
        <time>2012-03-20T15:36:43Z</time>
      </trkpt>
      <trkpt lat="46.25865" lon="-0.1721">
        <ele>162</ele>
        <time>2012-03-20T15:36:46Z</time>
      </trkpt>
      <trkpt lat="46.25863" lon="-0.17216">
        <ele>162</ele>
        <time>2012-03-20T15:36:51Z</time>
      </trkpt>
      <trkpt lat="46.25861" lon="-0.17228">
        <ele>162</ele>
        <time>2012-03-20T15:36:56Z</time>
      </trkpt>
      <trkpt lat="46.25859" lon="-0.17236">
        <ele>162</ele>
        <time>2012-03-20T15:37:02Z</time>
      </trkpt>
      <trkpt lat="46.2586" lon="-0.17241">
        <ele>162</ele>
        <time>2012-03-20T15:37:06Z</time>
      </trkpt>
      <trkpt lat="46.25859" lon="-0.17247">
        <ele>162</ele>
        <time>2012-03-20T15:37:09Z</time>
      </trkpt>
      <trkpt lat="46.2586" lon="-0.1726">
        <ele>162</ele>
        <time>2012-03-20T15:37:18Z</time>
      </trkpt>
      <trkpt lat="46.25861" lon="-0.17261">
        <ele>162</ele>
        <time>2012-03-20T15:37:19Z</time>
      </trkpt>
      <trkpt lat="46.25864" lon="-0.17276">
        <ele>162</ele>
        <time>2012-03-20T15:37:30Z</time>
      </trkpt>
      <trkpt lat="46.25863" lon="-0.17278">
        <ele>162</ele>
        <time>2012-03-20T15:37:30Z</time>
      </trkpt>
      <trkpt lat="46.25865" lon="-0.17292">
        <ele>159</ele>
        <time>2012-03-20T15:37:39Z</time>
      </trkpt>
      <trkpt lat="46.25865" lon="-0.17295">
        <ele>159</ele>
        <time>2012-03-20T15:37:40Z</time>
      </trkpt>
      <trkpt lat="46.25866" lon="-0.17303">
        <ele>159</ele>
        <time>2012-03-20T15:37:48Z</time>
      </trkpt>
      <trkpt lat="46.25866" lon="-0.17304">
        <ele>159</ele>
        <time>2012-03-20T15:37:50Z</time>
      </trkpt>
      <trkpt lat="46.25867" lon="-0.17311">
        <ele>159</ele>
        <time>2012-03-20T15:37:59Z</time>
      </trkpt>
      <trkpt lat="46.25868" lon="-0.17311">
        <ele>159</ele>
        <time>2012-03-20T15:37:59Z</time>
      </trkpt>
      <trkpt lat="46.25868" lon="-0.1731">
        <ele>159</ele>
        <time>2012-03-20T15:38:06Z</time>
      </trkpt>
      <trkpt lat="46.25869" lon="-0.17311">
        <ele>159</ele>
        <time>2012-03-20T15:38:09Z</time>
      </trkpt>
      <trkpt lat="46.25869" lon="-0.17314">
        <ele>159</ele>
        <time>2012-03-20T15:38:14Z</time>
      </trkpt>
      <trkpt lat="46.25868" lon="-0.17316">
        <ele>159</ele>
        <time>2012-03-20T15:38:19Z</time>
      </trkpt>
      <trkpt lat="46.25867" lon="-0.17323">
        <ele>159</ele>
        <time>2012-03-20T15:38:24Z</time>
      </trkpt>
      <trkpt lat="46.25869" lon="-0.17326">
        <ele>159</ele>
        <time>2012-03-20T15:38:29Z</time>
      </trkpt>
      <trkpt lat="46.25871" lon="-0.1733">
        <ele>159</ele>
        <time>2012-03-20T15:38:34Z</time>
      </trkpt>
      <trkpt lat="46.25873" lon="-0.17334">
        <ele>159</ele>
        <time>2012-03-20T15:38:39Z</time>
      </trkpt>
      <trkpt lat="46.25873" lon="-0.17335">
        <ele>159</ele>
        <time>2012-03-20T15:38:44Z</time>
      </trkpt>
      <trkpt lat="46.25873" lon="-0.17335">
        <ele>159</ele>
        <time>2012-03-20T15:38:49Z</time>
      </trkpt>
      <trkpt lat="46.25873" lon="-0.17335">
        <ele>159</ele>
        <time>2012-03-20T15:38:54Z</time>
      </trkpt>
      <trkpt lat="46.25873" lon="-0.17335">
        <ele>159</ele>
        <time>2012-03-20T15:38:59Z</time>
      </trkpt>
      <trkpt lat="46.25873" lon="-0.17335">
        <ele>159</ele>
        <time>2012-03-20T15:39:04Z</time>
      </trkpt>
      <trkpt lat="46.25873" lon="-0.17335">
        <ele>159</ele>
        <time>2012-03-20T15:39:09Z</time>
      </trkpt>
      <trkpt lat="46.25873" lon="-0.17335">
        <ele>159</ele>
        <time>2012-03-20T15:39:14Z</time>
      </trkpt>
      <trkpt lat="46.25873" lon="-0.17335">
        <ele>159</ele>
        <time>2012-03-20T15:39:19Z</time>
      </trkpt>
      <trkpt lat="46.25873" lon="-0.17335">
        <ele>159</ele>
        <time>2012-03-20T15:39:24Z</time>
      </trkpt>
      <trkpt lat="46.25871" lon="-0.17327">
        <ele>159</ele>
        <time>2012-03-20T15:39:29Z</time>
      </trkpt>
      <trkpt lat="46.2587" lon="-0.17318">
        <ele>159</ele>
        <time>2012-03-20T15:39:34Z</time>
      </trkpt>
      <trkpt lat="46.25869" lon="-0.17317">
        <ele>159</ele>
        <time>2012-03-20T15:39:39Z</time>
      </trkpt>
      <trkpt lat="46.25869" lon="-0.17317">
        <ele>159</ele>
        <time>2012-03-20T15:39:44Z</time>
      </trkpt>
      <trkpt lat="46.25868" lon="-0.17317">
        <ele>159</ele>
        <time>2012-03-20T15:39:49Z</time>
      </trkpt>
      <trkpt lat="46.25868" lon="-0.17317">
        <ele>159</ele>
        <time>2012-03-20T15:39:54Z</time>
      </trkpt>
      <trkpt lat="46.25869" lon="-0.17323">
        <ele>159</ele>
        <time>2012-03-20T15:39:59Z</time>
      </trkpt>
      <trkpt lat="46.25872" lon="-0.17329">
        <ele>159</ele>
        <time>2012-03-20T15:40:04Z</time>
      </trkpt>
      <trkpt lat="46.25872" lon="-0.17335">
        <ele>159</ele>
        <time>2012-03-20T15:40:10Z</time>
      </trkpt>
      <trkpt lat="46.25874" lon="-0.17344">
        <ele>159</ele>
        <time>2012-03-20T15:40:17Z</time>
      </trkpt>
      <trkpt lat="46.25875" lon="-0.17346">
        <ele>160</ele>
        <time>2012-03-20T15:40:20Z</time>
      </trkpt>
      <trkpt lat="46.25874" lon="-0.17349">
        <ele>159</ele>
        <time>2012-03-20T15:40:25Z</time>
      </trkpt>
      <trkpt lat="46.25877" lon="-0.17363">
        <ele>160</ele>
        <time>2012-03-20T15:40:33Z</time>
      </trkpt>
      <trkpt lat="46.25877" lon="-0.17366">
        <ele>160</ele>
        <time>2012-03-20T15:40:34Z</time>
      </trkpt>
      <trkpt lat="46.25877" lon="-0.17378">
        <ele>162</ele>
        <time>2012-03-20T15:40:44Z</time>
      </trkpt>
      <trkpt lat="46.25878" lon="-0.1738">
        <ele>162</ele>
        <time>2012-03-20T15:40:44Z</time>
      </trkpt>
      <trkpt lat="46.2588" lon="-0.17384">
        <ele>162</ele>
        <time>2012-03-20T15:40:50Z</time>
      </trkpt>
      <trkpt lat="46.25881" lon="-0.17392">
        <ele>162</ele>
        <time>2012-03-20T15:40:57Z</time>
      </trkpt>
      <trkpt lat="46.25881" lon="-0.17394">
        <ele>162</ele>
        <time>2012-03-20T15:40:59Z</time>
      </trkpt>
      <trkpt lat="46.25882" lon="-0.174">
        <ele>162</ele>
        <time>2012-03-20T15:41:05Z</time>
      </trkpt>
      <trkpt lat="46.25883" lon="-0.17415">
        <ele>162</ele>
        <time>2012-03-20T15:41:14Z</time>
      </trkpt>
      <trkpt lat="46.25883" lon="-0.17435">
        <ele>162</ele>
        <time>2012-03-20T15:41:25Z</time>
      </trkpt>
      <trkpt lat="46.25882" lon="-0.17444">
        <ele>162</ele>
        <time>2012-03-20T15:41:33Z</time>
      </trkpt>
      <trkpt lat="46.25882" lon="-0.17446">
        <ele>162</ele>
        <time>2012-03-20T15:41:34Z</time>
      </trkpt>
      <trkpt lat="46.25882" lon="-0.17458">
        <ele>162</ele>
        <time>2012-03-20T15:41:42Z</time>
      </trkpt>
      <trkpt lat="46.25882" lon="-0.17462">
        <ele>161</ele>
        <time>2012-03-20T15:41:45Z</time>
      </trkpt>
      <trkpt lat="46.2588" lon="-0.17471">
        <ele>161</ele>
        <time>2012-03-20T15:41:54Z</time>
      </trkpt>
      <trkpt lat="46.2588" lon="-0.17472">
        <ele>161</ele>
        <time>2012-03-20T15:41:54Z</time>
      </trkpt>
      <trkpt lat="46.25876" lon="-0.17484">
        <ele>161</ele>
        <time>2012-03-20T15:42:05Z</time>
      </trkpt>
      <trkpt lat="46.25875" lon="-0.17487">
        <ele>161</ele>
        <time>2012-03-20T15:42:06Z</time>
      </trkpt>
      <trkpt lat="46.25875" lon="-0.17491">
        <ele>158</ele>
        <time>2012-03-20T15:42:13Z</time>
      </trkpt>
      <trkpt lat="46.25875" lon="-0.17492">
        <ele>158</ele>
        <time>2012-03-20T15:42:14Z</time>
      </trkpt>
      <trkpt lat="46.2587" lon="-0.17508">
        <ele>158</ele>
        <time>2012-03-20T15:42:25Z</time>
      </trkpt>
      <trkpt lat="46.2587" lon="-0.17509">
        <ele>158</ele>
        <time>2012-03-20T15:42:26Z</time>
      </trkpt>
      <trkpt lat="46.25867" lon="-0.17518">
        <ele>158</ele>
        <time>2012-03-20T15:42:33Z</time>
      </trkpt>
      <trkpt lat="46.25866" lon="-0.17519">
        <ele>158</ele>
        <time>2012-03-20T15:42:34Z</time>
      </trkpt>
      <trkpt lat="46.25854" lon="-0.17543">
        <ele>158</ele>
        <time>2012-03-20T15:42:46Z</time>
      </trkpt>
      <trkpt lat="46.25852" lon="-0.17548">
        <ele>158</ele>
        <time>2012-03-20T15:42:50Z</time>
      </trkpt>
      <trkpt lat="46.25852" lon="-0.17562">
        <ele>158</ele>
        <time>2012-03-20T15:43:00Z</time>
      </trkpt>
      <trkpt lat="46.25852" lon="-0.17564">
        <ele>158</ele>
        <time>2012-03-20T15:43:01Z</time>
      </trkpt>
      <trkpt lat="46.25853" lon="-0.17571">
        <ele>158</ele>
        <time>2012-03-20T15:43:08Z</time>
      </trkpt>
      <trkpt lat="46.25853" lon="-0.17572">
        <ele>158</ele>
        <time>2012-03-20T15:43:09Z</time>
      </trkpt>
      <trkpt lat="46.25851" lon="-0.17586">
        <ele>158</ele>
        <time>2012-03-20T15:43:21Z</time>
      </trkpt>
      <trkpt lat="46.25842" lon="-0.17586">
        <ele>158</ele>
        <time>2012-03-20T15:43:27Z</time>
      </trkpt>
      <trkpt lat="46.25841" lon="-0.17586">
        <ele>158</ele>
        <time>2012-03-20T15:43:31Z</time>
      </trkpt>
      <trkpt lat="46.25839" lon="-0.17585">
        <ele>158</ele>
        <time>2012-03-20T15:43:34Z</time>
      </trkpt>
      <trkpt lat="46.2583" lon="-0.17578">
        <ele>158</ele>
        <time>2012-03-20T15:43:46Z</time>
      </trkpt>
      <trkpt lat="46.2583" lon="-0.17577">
        <ele>158</ele>
        <time>2012-03-20T15:43:46Z</time>
      </trkpt>
      <trkpt lat="46.25825" lon="-0.17574">
        <ele>158</ele>
        <time>2012-03-20T15:43:52Z</time>
      </trkpt>
      <trkpt lat="46.25822" lon="-0.17574">
        <ele>158</ele>
        <time>2012-03-20T15:43:56Z</time>
      </trkpt>
      <trkpt lat="46.25812" lon="-0.17574">
        <ele>158</ele>
        <time>2012-03-20T15:44:03Z</time>
      </trkpt>
      <trkpt lat="46.25804" lon="-0.17575">
        <ele>158</ele>
        <time>2012-03-20T15:44:10Z</time>
      </trkpt>
      <trkpt lat="46.25793" lon="-0.1757">
        <ele>158</ele>
        <time>2012-03-20T15:44:19Z</time>
      </trkpt>
      <trkpt lat="46.25791" lon="-0.1757">
        <ele>156</ele>
        <time>2012-03-20T15:44:19Z</time>
      </trkpt>
      <trkpt lat="46.25784" lon="-0.17565">
        <ele>156</ele>
        <time>2012-03-20T15:44:31Z</time>
      </trkpt>
      <trkpt lat="46.25784" lon="-0.17566">
        <ele>156</ele>
        <time>2012-03-20T15:44:31Z</time>
      </trkpt>
      <trkpt lat="46.25781" lon="-0.17567">
        <ele>156</ele>
        <time>2012-03-20T15:44:35Z</time>
      </trkpt>
      <trkpt lat="46.2577" lon="-0.17564">
        <ele>156</ele>
        <time>2012-03-20T15:44:45Z</time>
      </trkpt>
      <trkpt lat="46.25768" lon="-0.17565">
        <ele>156</ele>
        <time>2012-03-20T15:44:45Z</time>
      </trkpt>
      <trkpt lat="46.25762" lon="-0.17561">
        <ele>156</ele>
        <time>2012-03-20T15:44:54Z</time>
      </trkpt>
      <trkpt lat="46.2576" lon="-0.1756">
        <ele>156</ele>
        <time>2012-03-20T15:44:54Z</time>
      </trkpt>
      <trkpt lat="46.25752" lon="-0.17557">
        <ele>156</ele>
        <time>2012-03-20T15:45:03Z</time>
      </trkpt>
      <trkpt lat="46.25751" lon="-0.17557">
        <ele>156</ele>
        <time>2012-03-20T15:45:04Z</time>
      </trkpt>
      <trkpt lat="46.25738" lon="-0.17548">
        <ele>156</ele>
        <time>2012-03-20T15:45:17Z</time>
      </trkpt>
      <trkpt lat="46.25737" lon="-0.17548">
        <ele>156</ele>
        <time>2012-03-20T15:45:17Z</time>
      </trkpt>
      <trkpt lat="46.25734" lon="-0.17547">
        <ele>156</ele>
        <time>2012-03-20T15:45:20Z</time>
      </trkpt>
      <trkpt lat="46.25727" lon="-0.17545">
        <ele>156</ele>
        <time>2012-03-20T15:45:28Z</time>
      </trkpt>
      <trkpt lat="46.25725" lon="-0.17545">
        <ele>156</ele>
        <time>2012-03-20T15:45:29Z</time>
      </trkpt>
      <trkpt lat="46.25718" lon="-0.17543">
        <ele>156</ele>
        <time>2012-03-20T15:45:37Z</time>
      </trkpt>
      <trkpt lat="46.25714" lon="-0.17542">
        <ele>156</ele>
        <time>2012-03-20T15:45:40Z</time>
      </trkpt>
      <trkpt lat="46.25706" lon="-0.17546">
        <ele>154</ele>
        <time>2012-03-20T15:45:49Z</time>
      </trkpt>
      <trkpt lat="46.25706" lon="-0.17545">
        <ele>154</ele>
        <time>2012-03-20T15:45:50Z</time>
      </trkpt>
      <trkpt lat="46.25695" lon="-0.17535">
        <ele>156</ele>
        <time>2012-03-20T15:46:00Z</time>
      </trkpt>
      <trkpt lat="46.25685" lon="-0.17525">
        <ele>156</ele>
        <time>2012-03-20T15:46:10Z</time>
      </trkpt>
      <trkpt lat="46.25684" lon="-0.17527">
        <ele>156</ele>
        <time>2012-03-20T15:46:10Z</time>
      </trkpt>
      <trkpt lat="46.25674" lon="-0.17525">
        <ele>156</ele>
        <time>2012-03-20T15:46:17Z</time>
      </trkpt>
      <trkpt lat="46.2567" lon="-0.17524">
        <ele>156</ele>
        <time>2012-03-20T15:46:22Z</time>
      </trkpt>
      <trkpt lat="46.25666" lon="-0.17525">
        <ele>156</ele>
        <time>2012-03-20T15:46:27Z</time>
      </trkpt>
      <trkpt lat="46.25663" lon="-0.17521">
        <ele>156</ele>
        <time>2012-03-20T15:46:31Z</time>
      </trkpt>
      <trkpt lat="46.2566" lon="-0.17521">
        <ele>156</ele>
        <time>2012-03-20T15:46:35Z</time>
      </trkpt>
      <trkpt lat="46.25653" lon="-0.17518">
        <ele>156</ele>
        <time>2012-03-20T15:46:43Z</time>
      </trkpt>
      <trkpt lat="46.25648" lon="-0.17517">
        <ele>156</ele>
        <time>2012-03-20T15:46:46Z</time>
      </trkpt>
      <trkpt lat="46.2564" lon="-0.17517">
        <ele>156</ele>
        <time>2012-03-20T15:46:55Z</time>
      </trkpt>
      <trkpt lat="46.25639" lon="-0.17517">
        <ele>156</ele>
        <time>2012-03-20T15:46:56Z</time>
      </trkpt>
      <trkpt lat="46.25633" lon="-0.17515">
        <ele>156</ele>
        <time>2012-03-20T15:47:02Z</time>
      </trkpt>
      <trkpt lat="46.25632" lon="-0.17515">
        <ele>156</ele>
        <time>2012-03-20T15:47:06Z</time>
      </trkpt>
      <trkpt lat="46.25625" lon="-0.17514">
        <ele>156</ele>
        <time>2012-03-20T15:47:11Z</time>
      </trkpt>
      <trkpt lat="46.2562" lon="-0.17512">
        <ele>155</ele>
        <time>2012-03-20T15:47:18Z</time>
      </trkpt>
      <trkpt lat="46.25618" lon="-0.17511">
        <ele>155</ele>
        <time>2012-03-20T15:47:21Z</time>
      </trkpt>
      <trkpt lat="46.25613" lon="-0.17511">
        <ele>155</ele>
        <time>2012-03-20T15:47:26Z</time>
      </trkpt>
      <trkpt lat="46.25607" lon="-0.17508">
        <ele>155</ele>
        <time>2012-03-20T15:47:33Z</time>
      </trkpt>
      <trkpt lat="46.25604" lon="-0.17508">
        <ele>155</ele>
        <time>2012-03-20T15:47:34Z</time>
      </trkpt>
      <trkpt lat="46.25596" lon="-0.17505">
        <ele>155</ele>
        <time>2012-03-20T15:47:44Z</time>
      </trkpt>
      <trkpt lat="46.25596" lon="-0.17504">
        <ele>155</ele>
        <time>2012-03-20T15:47:44Z</time>
      </trkpt>
      <trkpt lat="46.2559" lon="-0.175">
        <ele>155</ele>
        <time>2012-03-20T15:47:54Z</time>
      </trkpt>
      <trkpt lat="46.25589" lon="-0.17499">
        <ele>155</ele>
        <time>2012-03-20T15:47:54Z</time>
      </trkpt>
      <trkpt lat="46.25575" lon="-0.17496">
        <ele>155</ele>
        <time>2012-03-20T15:48:05Z</time>
      </trkpt>
      <trkpt lat="46.25574" lon="-0.17495">
        <ele>155</ele>
        <time>2012-03-20T15:48:10Z</time>
      </trkpt>
      <trkpt lat="46.25568" lon="-0.17489">
        <ele>155</ele>
        <time>2012-03-20T15:48:18Z</time>
      </trkpt>
      <trkpt lat="46.25565" lon="-0.1749">
        <ele>155</ele>
        <time>2012-03-20T15:48:31Z</time>
      </trkpt>
      <trkpt lat="46.25565" lon="-0.17492">
        <ele>155</ele>
        <time>2012-03-20T15:48:31Z</time>
      </trkpt>
      <trkpt lat="46.25563" lon="-0.17495">
        <ele>155</ele>
        <time>2012-03-20T15:48:35Z</time>
      </trkpt>
      <trkpt lat="46.25568" lon="-0.1751">
        <ele>155</ele>
        <time>2012-03-20T15:48:45Z</time>
      </trkpt>
      <trkpt lat="46.25568" lon="-0.1751">
        <ele>155</ele>
        <time>2012-03-20T15:48:45Z</time>
      </trkpt>
      <trkpt lat="46.2557" lon="-0.17519">
        <ele>155</ele>
        <time>2012-03-20T15:48:53Z</time>
      </trkpt>
      <trkpt lat="46.2557" lon="-0.17526">
        <ele>155</ele>
        <time>2012-03-20T15:48:59Z</time>
      </trkpt>
      <trkpt lat="46.25571" lon="-0.17535">
        <ele>155</ele>
        <time>2012-03-20T15:49:04Z</time>
      </trkpt>
      <trkpt lat="46.25571" lon="-0.17542">
        <ele>156</ele>
        <time>2012-03-20T15:49:09Z</time>
      </trkpt>
      <trkpt lat="46.25573" lon="-0.17547">
        <ele>156</ele>
        <time>2012-03-20T15:49:14Z</time>
      </trkpt>
      <trkpt lat="46.25574" lon="-0.17554">
        <ele>156</ele>
        <time>2012-03-20T15:49:19Z</time>
      </trkpt>
      <trkpt lat="46.25575" lon="-0.17562">
        <ele>156</ele>
        <time>2012-03-20T15:49:24Z</time>
      </trkpt>
      <trkpt lat="46.25576" lon="-0.17566">
        <ele>156</ele>
        <time>2012-03-20T15:49:29Z</time>
      </trkpt>
      <trkpt lat="46.25577" lon="-0.17567">
        <ele>156</ele>
        <time>2012-03-20T15:49:34Z</time>
      </trkpt>
      <trkpt lat="46.25578" lon="-0.17573">
        <ele>156</ele>
        <time>2012-03-20T15:49:39Z</time>
      </trkpt>
      <trkpt lat="46.2558" lon="-0.17578">
        <ele>156</ele>
        <time>2012-03-20T15:49:44Z</time>
      </trkpt>
      <trkpt lat="46.25585" lon="-0.17587">
        <ele>156</ele>
        <time>2012-03-20T15:49:51Z</time>
      </trkpt>
      <trkpt lat="46.25587" lon="-0.17593">
        <ele>156</ele>
        <time>2012-03-20T15:49:56Z</time>
      </trkpt>
      <trkpt lat="46.25588" lon="-0.17603">
        <ele>156</ele>
        <time>2012-03-20T15:50:01Z</time>
      </trkpt>
      <trkpt lat="46.25589" lon="-0.17614">
        <ele>156</ele>
        <time>2012-03-20T15:50:05Z</time>
      </trkpt>
      <trkpt lat="46.25592" lon="-0.17621">
        <ele>156</ele>
        <time>2012-03-20T15:50:13Z</time>
      </trkpt>
      <trkpt lat="46.25592" lon="-0.17622">
        <ele>156</ele>
        <time>2012-03-20T15:50:14Z</time>
      </trkpt>
      <trkpt lat="46.25599" lon="-0.17641">
        <ele>159</ele>
        <time>2012-03-20T15:50:26Z</time>
      </trkpt>
      <trkpt lat="46.25599" lon="-0.17644">
        <ele>159</ele>
        <time>2012-03-20T15:50:26Z</time>
      </trkpt>
      <trkpt lat="46.25602" lon="-0.17652">
        <ele>159</ele>
        <time>2012-03-20T15:50:32Z</time>
      </trkpt>
      <trkpt lat="46.25603" lon="-0.17655">
        <ele>159</ele>
        <time>2012-03-20T15:50:35Z</time>
      </trkpt>
      <trkpt lat="46.25603" lon="-0.17667">
        <ele>159</ele>
        <time>2012-03-20T15:50:40Z</time>
      </trkpt>
      <trkpt lat="46.25604" lon="-0.17671">
        <ele>159</ele>
        <time>2012-03-20T15:50:44Z</time>
      </trkpt>
      <trkpt lat="46.25605" lon="-0.17675">
        <ele>159</ele>
        <time>2012-03-20T15:50:49Z</time>
      </trkpt>
      <trkpt lat="46.25609" lon="-0.17685">
        <ele>159</ele>
        <time>2012-03-20T15:50:59Z</time>
      </trkpt>
      <trkpt lat="46.2561" lon="-0.17685">
        <ele>159</ele>
        <time>2012-03-20T15:50:59Z</time>
      </trkpt>
      <trkpt lat="46.25615" lon="-0.17703">
        <ele>159</ele>
        <time>2012-03-20T15:51:09Z</time>
      </trkpt>
      <trkpt lat="46.25616" lon="-0.17716">
        <ele>159</ele>
        <time>2012-03-20T15:51:20Z</time>
      </trkpt>
      <trkpt lat="46.25616" lon="-0.17728">
        <ele>159</ele>
        <time>2012-03-20T15:51:29Z</time>
      </trkpt>
      <trkpt lat="46.25615" lon="-0.17729">
        <ele>159</ele>
        <time>2012-03-20T15:51:29Z</time>
      </trkpt>
      <trkpt lat="46.25616" lon="-0.1774">
        <ele>159</ele>
        <time>2012-03-20T15:51:40Z</time>
      </trkpt>
      <trkpt lat="46.25615" lon="-0.17741">
        <ele>159</ele>
        <time>2012-03-20T15:51:40Z</time>
      </trkpt>
      <trkpt lat="46.25613" lon="-0.17751">
        <ele>159</ele>
        <time>2012-03-20T15:51:48Z</time>
      </trkpt>
      <trkpt lat="46.25613" lon="-0.17752">
        <ele>159</ele>
        <time>2012-03-20T15:51:51Z</time>
      </trkpt>
      <trkpt lat="46.25611" lon="-0.17761">
        <ele>159</ele>
        <time>2012-03-20T15:51:57Z</time>
      </trkpt>
      <trkpt lat="46.2561" lon="-0.17766">
        <ele>159</ele>
        <time>2012-03-20T15:52:01Z</time>
      </trkpt>
      <trkpt lat="46.2561" lon="-0.17774">
        <ele>159</ele>
        <time>2012-03-20T15:52:10Z</time>
      </trkpt>
      <trkpt lat="46.2561" lon="-0.17776">
        <ele>159</ele>
        <time>2012-03-20T15:52:10Z</time>
      </trkpt>
      <trkpt lat="46.2561" lon="-0.17789">
        <ele>159</ele>
        <time>2012-03-20T15:52:19Z</time>
      </trkpt>
      <trkpt lat="46.2561" lon="-0.17789">
        <ele>159</ele>
        <time>2012-03-20T15:52:19Z</time>
      </trkpt>
      <trkpt lat="46.25608" lon="-0.17799">
        <ele>156</ele>
        <time>2012-03-20T15:52:31Z</time>
      </trkpt>
      <trkpt lat="46.25608" lon="-0.17811">
        <ele>156</ele>
        <time>2012-03-20T15:52:38Z</time>
      </trkpt>
      <trkpt lat="46.25608" lon="-0.17812">
        <ele>156</ele>
        <time>2012-03-20T15:52:39Z</time>
      </trkpt>
      <trkpt lat="46.25606" lon="-0.17828">
        <ele>156</ele>
        <time>2012-03-20T15:52:51Z</time>
      </trkpt>
      <trkpt lat="46.25605" lon="-0.17836">
        <ele>156</ele>
        <time>2012-03-20T15:52:56Z</time>
      </trkpt>
      <trkpt lat="46.25604" lon="-0.17844">
        <ele>156</ele>
        <time>2012-03-20T15:53:03Z</time>
      </trkpt>
      <trkpt lat="46.25604" lon="-0.17847">
        <ele>156</ele>
        <time>2012-03-20T15:53:04Z</time>
      </trkpt>
      <trkpt lat="46.25604" lon="-0.17855">
        <ele>156</ele>
        <time>2012-03-20T15:53:11Z</time>
      </trkpt>
      <trkpt lat="46.25602" lon="-0.17859">
        <ele>156</ele>
        <time>2012-03-20T15:53:16Z</time>
      </trkpt>
      <trkpt lat="46.256" lon="-0.17864">
        <ele>156</ele>
        <time>2012-03-20T15:53:23Z</time>
      </trkpt>
      <trkpt lat="46.25599" lon="-0.17867">
        <ele>156</ele>
        <time>2012-03-20T15:53:26Z</time>
      </trkpt>
      <trkpt lat="46.25599" lon="-0.17872">
        <ele>156</ele>
        <time>2012-03-20T15:53:31Z</time>
      </trkpt>
      <trkpt lat="46.25598" lon="-0.17878">
        <ele>153</ele>
        <time>2012-03-20T15:53:38Z</time>
      </trkpt>
      <trkpt lat="46.25598" lon="-0.17881">
        <ele>153</ele>
        <time>2012-03-20T15:53:39Z</time>
      </trkpt>
      <trkpt lat="46.25598" lon="-0.17892">
        <ele>153</ele>
        <time>2012-03-20T15:53:50Z</time>
      </trkpt>
      <trkpt lat="46.25597" lon="-0.17894">
        <ele>153</ele>
        <time>2012-03-20T15:53:51Z</time>
      </trkpt>
      <trkpt lat="46.25597" lon="-0.17902">
        <ele>153</ele>
        <time>2012-03-20T15:53:59Z</time>
      </trkpt>
      <trkpt lat="46.25596" lon="-0.17919">
        <ele>153</ele>
        <time>2012-03-20T15:54:09Z</time>
      </trkpt>
      <trkpt lat="46.25596" lon="-0.17936">
        <ele>153</ele>
        <time>2012-03-20T15:54:20Z</time>
      </trkpt>
      <trkpt lat="46.25596" lon="-0.17937">
        <ele>153</ele>
        <time>2012-03-20T15:54:21Z</time>
      </trkpt>
      <trkpt lat="46.25595" lon="-0.17943">
        <ele>153</ele>
        <time>2012-03-20T15:54:29Z</time>
      </trkpt>
      <trkpt lat="46.25595" lon="-0.17944">
        <ele>153</ele>
        <time>2012-03-20T15:54:29Z</time>
      </trkpt>
      <trkpt lat="46.25595" lon="-0.17958">
        <ele>153</ele>
        <time>2012-03-20T15:54:40Z</time>
      </trkpt>
      <trkpt lat="46.25594" lon="-0.17961">
        <ele>151</ele>
        <time>2012-03-20T15:54:45Z</time>
      </trkpt>
      <trkpt lat="46.25592" lon="-0.17979">
        <ele>151</ele>
        <time>2012-03-20T15:54:54Z</time>
      </trkpt>
      <trkpt lat="46.25592" lon="-0.17981">
        <ele>151</ele>
        <time>2012-03-20T15:55:02Z</time>
      </trkpt>
      <trkpt lat="46.25591" lon="-0.17987">
        <ele>151</ele>
        <time>2012-03-20T15:55:07Z</time>
      </trkpt>
      <trkpt lat="46.25589" lon="-0.17991">
        <ele>151</ele>
        <time>2012-03-20T15:55:09Z</time>
      </trkpt>
      <trkpt lat="46.25585" lon="-0.18">
        <ele>151</ele>
        <time>2012-03-20T15:55:19Z</time>
      </trkpt>
      <trkpt lat="46.25584" lon="-0.18002">
        <ele>151</ele>
        <time>2012-03-20T15:55:20Z</time>
      </trkpt>
      <trkpt lat="46.2558" lon="-0.18019">
        <ele>151</ele>
        <time>2012-03-20T15:55:30Z</time>
      </trkpt>
      <trkpt lat="46.25579" lon="-0.18021">
        <ele>151</ele>
        <time>2012-03-20T15:55:30Z</time>
      </trkpt>
      <trkpt lat="46.25578" lon="-0.18032">
        <ele>151</ele>
        <time>2012-03-20T15:55:39Z</time>
      </trkpt>
      <trkpt lat="46.25578" lon="-0.18033">
        <ele>151</ele>
        <time>2012-03-20T15:55:39Z</time>
      </trkpt>
      <trkpt lat="46.25578" lon="-0.18044">
        <ele>151</ele>
        <time>2012-03-20T15:55:50Z</time>
      </trkpt>
      <trkpt lat="46.25578" lon="-0.18045">
        <ele>151</ele>
        <time>2012-03-20T15:55:50Z</time>
      </trkpt>
      <trkpt lat="46.25576" lon="-0.18052">
        <ele>151</ele>
        <time>2012-03-20T15:56:01Z</time>
      </trkpt>
      <trkpt lat="46.25576" lon="-0.18054">
        <ele>151</ele>
        <time>2012-03-20T15:56:02Z</time>
      </trkpt>
      <trkpt lat="46.25574" lon="-0.18064">
        <ele>151</ele>
        <time>2012-03-20T15:56:08Z</time>
      </trkpt>
      <trkpt lat="46.25574" lon="-0.18065">
        <ele>151</ele>
        <time>2012-03-20T15:56:09Z</time>
      </trkpt>
      <trkpt lat="46.25573" lon="-0.18075">
        <ele>151</ele>
        <time>2012-03-20T15:56:19Z</time>
      </trkpt>
      <trkpt lat="46.25573" lon="-0.18078">
        <ele>151</ele>
        <time>2012-03-20T15:56:19Z</time>
      </trkpt>
      <trkpt lat="46.25571" lon="-0.18104">
        <ele>151</ele>
        <time>2012-03-20T15:56:33Z</time>
      </trkpt>
      <trkpt lat="46.2557" lon="-0.18108">
        <ele>151</ele>
        <time>2012-03-20T15:56:36Z</time>
      </trkpt>
      <trkpt lat="46.25571" lon="-0.18115">
        <ele>151</ele>
        <time>2012-03-20T15:56:41Z</time>
      </trkpt>
      <trkpt lat="46.25569" lon="-0.18123">
        <ele>151</ele>
        <time>2012-03-20T15:56:49Z</time>
      </trkpt>
      <trkpt lat="46.25569" lon="-0.18124">
        <ele>151</ele>
        <time>2012-03-20T15:56:49Z</time>
      </trkpt>
      <trkpt lat="46.25568" lon="-0.18135">
        <ele>152</ele>
        <time>2012-03-20T15:57:01Z</time>
      </trkpt>
      <trkpt lat="46.25567" lon="-0.18137">
        <ele>152</ele>
        <time>2012-03-20T15:57:01Z</time>
      </trkpt>
      <trkpt lat="46.25566" lon="-0.18149">
        <ele>152</ele>
        <time>2012-03-20T15:57:09Z</time>
      </trkpt>
      <trkpt lat="46.25562" lon="-0.18161">
        <ele>152</ele>
        <time>2012-03-20T15:57:18Z</time>
      </trkpt>
      <trkpt lat="46.2556" lon="-0.18178">
        <ele>152</ele>
        <time>2012-03-20T15:57:33Z</time>
      </trkpt>
      <trkpt lat="46.25559" lon="-0.18181">
        <ele>152</ele>
        <time>2012-03-20T15:57:34Z</time>
      </trkpt>
      <trkpt lat="46.25555" lon="-0.18196">
        <ele>152</ele>
        <time>2012-03-20T15:57:44Z</time>
      </trkpt>
      <trkpt lat="46.25555" lon="-0.18196">
        <ele>152</ele>
        <time>2012-03-20T15:57:45Z</time>
      </trkpt>
      <trkpt lat="46.25551" lon="-0.18206">
        <ele>152</ele>
        <time>2012-03-20T15:57:57Z</time>
      </trkpt>
      <trkpt lat="46.25551" lon="-0.18208">
        <ele>152</ele>
        <time>2012-03-20T15:57:57Z</time>
      </trkpt>
      <trkpt lat="46.2555" lon="-0.18212">
        <ele>151</ele>
        <time>2012-03-20T15:58:01Z</time>
      </trkpt>
      <trkpt lat="46.25547" lon="-0.18219">
        <ele>151</ele>
        <time>2012-03-20T15:58:07Z</time>
      </trkpt>
      <trkpt lat="46.25545" lon="-0.18222">
        <ele>151</ele>
        <time>2012-03-20T15:58:09Z</time>
      </trkpt>
      <trkpt lat="46.25542" lon="-0.18242">
        <ele>151</ele>
        <time>2012-03-20T15:58:19Z</time>
      </trkpt>
      <trkpt lat="46.25542" lon="-0.18243">
        <ele>151</ele>
        <time>2012-03-20T15:58:20Z</time>
      </trkpt>
      <trkpt lat="46.25542" lon="-0.18247">
        <ele>151</ele>
        <time>2012-03-20T15:58:30Z</time>
      </trkpt>
      <trkpt lat="46.25542" lon="-0.18247">
        <ele>151</ele>
        <time>2012-03-20T15:58:31Z</time>
      </trkpt>
      <trkpt lat="46.25541" lon="-0.18248">
        <ele>153</ele>
        <time>2012-03-20T15:58:38Z</time>
      </trkpt>
      <trkpt lat="46.25541" lon="-0.18248">
        <ele>153</ele>
        <time>2012-03-20T15:58:39Z</time>
      </trkpt>
      <trkpt lat="46.2555" lon="-0.18245">
        <ele>151</ele>
        <time>2012-03-20T15:58:51Z</time>
      </trkpt>
      <trkpt lat="46.25551" lon="-0.18245">
        <ele>151</ele>
        <time>2012-03-20T15:58:51Z</time>
      </trkpt>
      <trkpt lat="46.25558" lon="-0.18243">
        <ele>151</ele>
        <time>2012-03-20T15:58:58Z</time>
      </trkpt>
      <trkpt lat="46.2556" lon="-0.18242">
        <ele>151</ele>
        <time>2012-03-20T15:58:59Z</time>
      </trkpt>
      <trkpt lat="46.25568" lon="-0.18238">
        <ele>151</ele>
        <time>2012-03-20T15:59:09Z</time>
      </trkpt>
      <trkpt lat="46.25579" lon="-0.18235">
        <ele>151</ele>
        <time>2012-03-20T15:59:20Z</time>
      </trkpt>
      <trkpt lat="46.2558" lon="-0.18234">
        <ele>151</ele>
        <time>2012-03-20T15:59:20Z</time>
      </trkpt>
      <trkpt lat="46.25781" lon="-0.18324">
        <ele>145</ele>
        <time>2012-03-20T16:02:48Z</time>
      </trkpt>
      <trkpt lat="46.25779" lon="-0.18319">
        <ele>145</ele>
        <time>2012-03-20T16:02:53Z</time>
      </trkpt>
      <trkpt lat="46.25779" lon="-0.18319">
        <ele>145</ele>
        <time>2012-03-20T16:02:58Z</time>
      </trkpt>
      <trkpt lat="46.2578" lon="-0.18319">
        <ele>145</ele>
        <time>2012-03-20T16:03:03Z</time>
      </trkpt>
      <trkpt lat="46.25782" lon="-0.18322">
        <ele>145</ele>
        <time>2012-03-20T16:03:08Z</time>
      </trkpt>
      <trkpt lat="46.25782" lon="-0.18323">
        <ele>145</ele>
        <time>2012-03-20T16:03:13Z</time>
      </trkpt>
      <trkpt lat="46.25783" lon="-0.18322">
        <ele>145</ele>
        <time>2012-03-20T16:03:18Z</time>
      </trkpt>
      <trkpt lat="46.25783" lon="-0.18322">
        <ele>145</ele>
        <time>2012-03-20T16:03:23Z</time>
      </trkpt>
      <trkpt lat="46.25783" lon="-0.18322">
        <ele>145</ele>
        <time>2012-03-20T16:03:28Z</time>
      </trkpt>
      <trkpt lat="46.25783" lon="-0.18322">
        <ele>145</ele>
        <time>2012-03-20T16:03:33Z</time>
      </trkpt>
      <trkpt lat="46.25783" lon="-0.18322">
        <ele>145</ele>
        <time>2012-03-20T16:03:38Z</time>
      </trkpt>
      <trkpt lat="46.25783" lon="-0.18322">
        <ele>145</ele>
        <time>2012-03-20T16:03:43Z</time>
      </trkpt>
      <trkpt lat="46.25783" lon="-0.18322">
        <ele>145</ele>
        <time>2012-03-20T16:03:48Z</time>
      </trkpt>
      <trkpt lat="46.25783" lon="-0.18322">
        <ele>145</ele>
        <time>2012-03-20T16:03:53Z</time>
      </trkpt>
      <trkpt lat="46.25783" lon="-0.18322">
        <ele>145</ele>
        <time>2012-03-20T16:03:58Z</time>
      </trkpt>
      <trkpt lat="46.25783" lon="-0.18322">
        <ele>145</ele>
        <time>2012-03-20T16:04:05Z</time>
      </trkpt>
      <trkpt lat="46.25788" lon="-0.18331">
        <ele>145</ele>
        <time>2012-03-20T16:04:10Z</time>
      </trkpt>
      <trkpt lat="46.25788" lon="-0.18331">
        <ele>145</ele>
        <time>2012-03-20T16:04:13Z</time>
      </trkpt>
      <trkpt lat="46.25788" lon="-0.18329">
        <ele>145</ele>
        <time>2012-03-20T16:04:18Z</time>
      </trkpt>
      <trkpt lat="46.25788" lon="-0.18329">
        <ele>145</ele>
        <time>2012-03-20T16:04:23Z</time>
      </trkpt>
      <trkpt lat="46.25788" lon="-0.18329">
        <ele>145</ele>
        <time>2012-03-20T16:04:28Z</time>
      </trkpt>
      <trkpt lat="46.25788" lon="-0.1833">
        <ele>145</ele>
        <time>2012-03-20T16:04:33Z</time>
      </trkpt>
      <trkpt lat="46.25788" lon="-0.1833">
        <ele>145</ele>
        <time>2012-03-20T16:04:38Z</time>
      </trkpt>
      <trkpt lat="46.25788" lon="-0.18332">
        <ele>145</ele>
        <time>2012-03-20T16:04:43Z</time>
      </trkpt>
      <trkpt lat="46.25789" lon="-0.18334">
        <ele>145</ele>
        <time>2012-03-20T16:04:48Z</time>
      </trkpt>
      <trkpt lat="46.25789" lon="-0.18334">
        <ele>145</ele>
        <time>2012-03-20T16:04:53Z</time>
      </trkpt>
      <trkpt lat="46.25789" lon="-0.18334">
        <ele>145</ele>
        <time>2012-03-20T16:04:58Z</time>
      </trkpt>
      <trkpt lat="46.2579" lon="-0.18335">
        <ele>145</ele>
        <time>2012-03-20T16:05:03Z</time>
      </trkpt>
      <trkpt lat="46.25792" lon="-0.18338">
        <ele>143</ele>
        <time>2012-03-20T16:05:08Z</time>
      </trkpt>
      <trkpt lat="46.25793" lon="-0.18342">
        <ele>143</ele>
        <time>2012-03-20T16:05:13Z</time>
      </trkpt>
      <trkpt lat="46.25793" lon="-0.18342">
        <ele>143</ele>
        <time>2012-03-20T16:05:18Z</time>
      </trkpt>
      <trkpt lat="46.25793" lon="-0.18341">
        <ele>143</ele>
        <time>2012-03-20T16:05:23Z</time>
      </trkpt>
      <trkpt lat="46.25793" lon="-0.18341">
        <ele>143</ele>
        <time>2012-03-20T16:05:28Z</time>
      </trkpt>
      <trkpt lat="46.25794" lon="-0.18343">
        <ele>143</ele>
        <time>2012-03-20T16:05:33Z</time>
      </trkpt>
      <trkpt lat="46.25797" lon="-0.18349">
        <ele>143</ele>
        <time>2012-03-20T16:05:38Z</time>
      </trkpt>
      <trkpt lat="46.25798" lon="-0.18354">
        <ele>143</ele>
        <time>2012-03-20T16:05:43Z</time>
      </trkpt>
      <trkpt lat="46.25797" lon="-0.18362">
        <ele>143</ele>
        <time>2012-03-20T16:05:48Z</time>
      </trkpt>
      <trkpt lat="46.25796" lon="-0.18368">
        <ele>143</ele>
        <time>2012-03-20T16:05:53Z</time>
      </trkpt>
      <trkpt lat="46.25796" lon="-0.1837">
        <ele>143</ele>
        <time>2012-03-20T16:05:58Z</time>
      </trkpt>
      <trkpt lat="46.25795" lon="-0.18371">
        <ele>143</ele>
        <time>2012-03-20T16:06:03Z</time>
      </trkpt>
      <trkpt lat="46.25795" lon="-0.18374">
        <ele>143</ele>
        <time>2012-03-20T16:06:08Z</time>
      </trkpt>
      <trkpt lat="46.25796" lon="-0.18381">
        <ele>147</ele>
        <time>2012-03-20T16:06:13Z</time>
      </trkpt>
      <trkpt lat="46.25797" lon="-0.18386">
        <ele>147</ele>
        <time>2012-03-20T16:06:18Z</time>
      </trkpt>
      <trkpt lat="46.25797" lon="-0.18393">
        <ele>147</ele>
        <time>2012-03-20T16:06:23Z</time>
      </trkpt>
      <trkpt lat="46.25799" lon="-0.18397">
        <ele>147</ele>
        <time>2012-03-20T16:06:28Z</time>
      </trkpt>
      <trkpt lat="46.25801" lon="-0.18403">
        <ele>147</ele>
        <time>2012-03-20T16:06:33Z</time>
      </trkpt>
      <trkpt lat="46.25802" lon="-0.18407">
        <ele>147</ele>
        <time>2012-03-20T16:06:38Z</time>
      </trkpt>
      <trkpt lat="46.25804" lon="-0.18411">
        <ele>147</ele>
        <time>2012-03-20T16:06:43Z</time>
      </trkpt>
      <trkpt lat="46.25806" lon="-0.18412">
        <ele>147</ele>
        <time>2012-03-20T16:06:48Z</time>
      </trkpt>
      <trkpt lat="46.25806" lon="-0.18415">
        <ele>147</ele>
        <time>2012-03-20T16:06:53Z</time>
      </trkpt>
      <trkpt lat="46.25807" lon="-0.1842">
        <ele>147</ele>
        <time>2012-03-20T16:06:58Z</time>
      </trkpt>
      <trkpt lat="46.25808" lon="-0.18428">
        <ele>147</ele>
        <time>2012-03-20T16:07:03Z</time>
      </trkpt>
      <trkpt lat="46.25811" lon="-0.18434">
        <ele>147</ele>
        <time>2012-03-20T16:07:08Z</time>
      </trkpt>
      <trkpt lat="46.25812" lon="-0.18439">
        <ele>147</ele>
        <time>2012-03-20T16:07:15Z</time>
      </trkpt>
      <trkpt lat="46.25814" lon="-0.18447">
        <ele>147</ele>
        <time>2012-03-20T16:07:21Z</time>
      </trkpt>
      <trkpt lat="46.25816" lon="-0.1845">
        <ele>147</ele>
        <time>2012-03-20T16:07:24Z</time>
      </trkpt>
      <trkpt lat="46.25819" lon="-0.18464">
        <ele>147</ele>
        <time>2012-03-20T16:07:32Z</time>
      </trkpt>
      <trkpt lat="46.25819" lon="-0.18466">
        <ele>147</ele>
        <time>2012-03-20T16:07:33Z</time>
      </trkpt>
      <trkpt lat="46.25821" lon="-0.1848">
        <ele>147</ele>
        <time>2012-03-20T16:07:40Z</time>
      </trkpt>
      <trkpt lat="46.25823" lon="-0.18487">
        <ele>147</ele>
        <time>2012-03-20T16:07:46Z</time>
      </trkpt>
      <trkpt lat="46.25824" lon="-0.18494">
        <ele>147</ele>
        <time>2012-03-20T16:07:50Z</time>
      </trkpt>
      <trkpt lat="46.25825" lon="-0.18501">
        <ele>147</ele>
        <time>2012-03-20T16:07:56Z</time>
      </trkpt>
      <trkpt lat="46.25825" lon="-0.18505">
        <ele>147</ele>
        <time>2012-03-20T16:08:00Z</time>
      </trkpt>
      <trkpt lat="46.25827" lon="-0.18514">
        <ele>147</ele>
        <time>2012-03-20T16:08:06Z</time>
      </trkpt>
      <trkpt lat="46.25828" lon="-0.18519">
        <ele>147</ele>
        <time>2012-03-20T16:08:10Z</time>
      </trkpt>
      <trkpt lat="46.2583" lon="-0.18534">
        <ele>147</ele>
        <time>2012-03-20T16:08:16Z</time>
      </trkpt>
      <trkpt lat="46.2583" lon="-0.18535">
        <ele>147</ele>
        <time>2012-03-20T16:08:19Z</time>
      </trkpt>
      <trkpt lat="46.25832" lon="-0.18548">
        <ele>146</ele>
        <time>2012-03-20T16:08:27Z</time>
      </trkpt>
      <trkpt lat="46.25832" lon="-0.18552">
        <ele>146</ele>
        <time>2012-03-20T16:08:28Z</time>
      </trkpt>
      <trkpt lat="46.25833" lon="-0.1856">
        <ele>146</ele>
        <time>2012-03-20T16:08:33Z</time>
      </trkpt>
      <trkpt lat="46.25835" lon="-0.1857">
        <ele>146</ele>
        <time>2012-03-20T16:08:40Z</time>
      </trkpt>
      <trkpt lat="46.25835" lon="-0.18571">
        <ele>146</ele>
        <time>2012-03-20T16:08:43Z</time>
      </trkpt>
      <trkpt lat="46.25839" lon="-0.1859">
        <ele>146</ele>
        <time>2012-03-20T16:08:55Z</time>
      </trkpt>
      <trkpt lat="46.25839" lon="-0.18589">
        <ele>146</ele>
        <time>2012-03-20T16:08:56Z</time>
      </trkpt>
      <trkpt lat="46.25839" lon="-0.18594">
        <ele>146</ele>
        <time>2012-03-20T16:09:00Z</time>
      </trkpt>
      <trkpt lat="46.25839" lon="-0.18605">
        <ele>146</ele>
        <time>2012-03-20T16:09:06Z</time>
      </trkpt>
      <trkpt lat="46.25841" lon="-0.18613">
        <ele>146</ele>
        <time>2012-03-20T16:09:10Z</time>
      </trkpt>
      <trkpt lat="46.25841" lon="-0.18624">
        <ele>146</ele>
        <time>2012-03-20T16:09:17Z</time>
      </trkpt>
      <trkpt lat="46.25842" lon="-0.18628">
        <ele>144</ele>
        <time>2012-03-20T16:09:19Z</time>
      </trkpt>
      <trkpt lat="46.25844" lon="-0.18642">
        <ele>144</ele>
        <time>2012-03-20T16:09:28Z</time>
      </trkpt>
      <trkpt lat="46.25842" lon="-0.18658">
        <ele>144</ele>
        <time>2012-03-20T16:09:39Z</time>
      </trkpt>
      <trkpt lat="46.25842" lon="-0.18669">
        <ele>144</ele>
        <time>2012-03-20T16:09:47Z</time>
      </trkpt>
      <trkpt lat="46.25842" lon="-0.18676">
        <ele>144</ele>
        <time>2012-03-20T16:09:49Z</time>
      </trkpt>
      <trkpt lat="46.25842" lon="-0.18688">
        <ele>144</ele>
        <time>2012-03-20T16:09:57Z</time>
      </trkpt>
      <trkpt lat="46.25841" lon="-0.18693">
        <ele>144</ele>
        <time>2012-03-20T16:09:59Z</time>
      </trkpt>
      <trkpt lat="46.25841" lon="-0.18704">
        <ele>144</ele>
        <time>2012-03-20T16:10:07Z</time>
      </trkpt>
      <trkpt lat="46.25841" lon="-0.18708">
        <ele>144</ele>
        <time>2012-03-20T16:10:08Z</time>
      </trkpt>
      <trkpt lat="46.25842" lon="-0.1872">
        <ele>145</ele>
        <time>2012-03-20T16:10:18Z</time>
      </trkpt>
      <trkpt lat="46.25842" lon="-0.18722">
        <ele>145</ele>
        <time>2012-03-20T16:10:18Z</time>
      </trkpt>
      <trkpt lat="46.25839" lon="-0.18736">
        <ele>145</ele>
        <time>2012-03-20T16:10:27Z</time>
      </trkpt>
      <trkpt lat="46.2584" lon="-0.18741">
        <ele>145</ele>
        <time>2012-03-20T16:10:28Z</time>
      </trkpt>
      <trkpt lat="46.25839" lon="-0.18751">
        <ele>145</ele>
        <time>2012-03-20T16:10:39Z</time>
      </trkpt>
      <trkpt lat="46.25837" lon="-0.18756">
        <ele>145</ele>
        <time>2012-03-20T16:10:45Z</time>
      </trkpt>
      <trkpt lat="46.25834" lon="-0.18762">
        <ele>145</ele>
        <time>2012-03-20T16:10:51Z</time>
      </trkpt>
      <trkpt lat="46.25834" lon="-0.18765">
        <ele>145</ele>
        <time>2012-03-20T16:10:54Z</time>
      </trkpt>
      <trkpt lat="46.25828" lon="-0.18774">
        <ele>145</ele>
        <time>2012-03-20T16:11:01Z</time>
      </trkpt>
      <trkpt lat="46.25826" lon="-0.18779">
        <ele>145</ele>
        <time>2012-03-20T16:11:05Z</time>
      </trkpt>
      <trkpt lat="46.25823" lon="-0.18789">
        <ele>145</ele>
        <time>2012-03-20T16:11:11Z</time>
      </trkpt>
      <trkpt lat="46.25822" lon="-0.18793">
        <ele>149</ele>
        <time>2012-03-20T16:11:14Z</time>
      </trkpt>
      <trkpt lat="46.25813" lon="-0.18804">
        <ele>149</ele>
        <time>2012-03-20T16:11:23Z</time>
      </trkpt>
      <trkpt lat="46.25813" lon="-0.18805">
        <ele>149</ele>
        <time>2012-03-20T16:11:23Z</time>
      </trkpt>
      <trkpt lat="46.25807" lon="-0.18818">
        <ele>149</ele>
        <time>2012-03-20T16:11:35Z</time>
      </trkpt>
      <trkpt lat="46.25807" lon="-0.18818">
        <ele>149</ele>
        <time>2012-03-20T16:11:35Z</time>
      </trkpt>
      <trkpt lat="46.25805" lon="-0.18827">
        <ele>149</ele>
        <time>2012-03-20T16:11:40Z</time>
      </trkpt>
      <trkpt lat="46.25805" lon="-0.18835">
        <ele>149</ele>
        <time>2012-03-20T16:11:46Z</time>
      </trkpt>
      <trkpt lat="46.25801" lon="-0.18841">
        <ele>149</ele>
        <time>2012-03-20T16:11:50Z</time>
      </trkpt>
      <trkpt lat="46.25796" lon="-0.18853">
        <ele>149</ele>
        <time>2012-03-20T16:11:57Z</time>
      </trkpt>
      <trkpt lat="46.25794" lon="-0.18856">
        <ele>149</ele>
        <time>2012-03-20T16:11:58Z</time>
      </trkpt>
      <trkpt lat="46.25794" lon="-0.18866">
        <ele>149</ele>
        <time>2012-03-20T16:12:07Z</time>
      </trkpt>
      <trkpt lat="46.25793" lon="-0.18868">
        <ele>149</ele>
        <time>2012-03-20T16:12:09Z</time>
      </trkpt>
      <trkpt lat="46.25789" lon="-0.18881">
        <ele>145</ele>
        <time>2012-03-20T16:12:19Z</time>
      </trkpt>
      <trkpt lat="46.25787" lon="-0.18884">
        <ele>145</ele>
        <time>2012-03-20T16:12:19Z</time>
      </trkpt>
      <trkpt lat="46.25783" lon="-0.1889">
        <ele>145</ele>
        <time>2012-03-20T16:12:28Z</time>
      </trkpt>
      <trkpt lat="46.25782" lon="-0.18892">
        <ele>145</ele>
        <time>2012-03-20T16:12:29Z</time>
      </trkpt>
      <trkpt lat="46.25771" lon="-0.18902">
        <ele>145</ele>
        <time>2012-03-20T16:12:38Z</time>
      </trkpt>
      <trkpt lat="46.25771" lon="-0.18902">
        <ele>145</ele>
        <time>2012-03-20T16:12:38Z</time>
      </trkpt>
      <trkpt lat="46.25766" lon="-0.18908">
        <ele>145</ele>
        <time>2012-03-20T16:12:44Z</time>
      </trkpt>
      <trkpt lat="46.25765" lon="-0.1891">
        <ele>145</ele>
        <time>2012-03-20T16:12:48Z</time>
      </trkpt>
      <trkpt lat="46.2576" lon="-0.18917">
        <ele>145</ele>
        <time>2012-03-20T16:12:53Z</time>
      </trkpt>
      <trkpt lat="46.2575" lon="-0.18924">
        <ele>145</ele>
        <time>2012-03-20T16:13:04Z</time>
      </trkpt>
      <trkpt lat="46.2575" lon="-0.18925">
        <ele>145</ele>
        <time>2012-03-20T16:13:05Z</time>
      </trkpt>
      <trkpt lat="46.25743" lon="-0.1893">
        <ele>145</ele>
        <time>2012-03-20T16:13:13Z</time>
      </trkpt>
      <trkpt lat="46.25743" lon="-0.18932">
        <ele>145</ele>
        <time>2012-03-20T16:13:13Z</time>
      </trkpt>
      <trkpt lat="46.25735" lon="-0.1894">
        <ele>145</ele>
        <time>2012-03-20T16:13:25Z</time>
      </trkpt>
      <trkpt lat="46.25734" lon="-0.18941">
        <ele>145</ele>
        <time>2012-03-20T16:13:25Z</time>
      </trkpt>
      <trkpt lat="46.25731" lon="-0.18948">
        <ele>145</ele>
        <time>2012-03-20T16:13:32Z</time>
      </trkpt>
      <trkpt lat="46.25729" lon="-0.18949">
        <ele>145</ele>
        <time>2012-03-20T16:13:34Z</time>
      </trkpt>
      <trkpt lat="46.25722" lon="-0.18957">
        <ele>145</ele>
        <time>2012-03-20T16:13:40Z</time>
      </trkpt>
      <trkpt lat="46.25715" lon="-0.18965">
        <ele>144</ele>
        <time>2012-03-20T16:13:48Z</time>
      </trkpt>
      <trkpt lat="46.25714" lon="-0.18966">
        <ele>144</ele>
        <time>2012-03-20T16:13:48Z</time>
      </trkpt>
      <trkpt lat="46.25706" lon="-0.18975">
        <ele>142</ele>
        <time>2012-03-20T16:13:59Z</time>
      </trkpt>
      <trkpt lat="46.25703" lon="-0.18976">
        <ele>142</ele>
        <time>2012-03-20T16:13:59Z</time>
      </trkpt>
      <trkpt lat="46.25698" lon="-0.18985">
        <ele>142</ele>
        <time>2012-03-20T16:14:07Z</time>
      </trkpt>
      <trkpt lat="46.25699" lon="-0.18985">
        <ele>142</ele>
        <time>2012-03-20T16:14:08Z</time>
      </trkpt>
      <trkpt lat="46.25689" lon="-0.19">
        <ele>142</ele>
        <time>2012-03-20T16:14:19Z</time>
      </trkpt>
      <trkpt lat="46.25687" lon="-0.19008">
        <ele>142</ele>
        <time>2012-03-20T16:14:28Z</time>
      </trkpt>
      <trkpt lat="46.25684" lon="-0.19011">
        <ele>142</ele>
        <time>2012-03-20T16:14:28Z</time>
      </trkpt>
      <trkpt lat="46.25677" lon="-0.19022">
        <ele>142</ele>
        <time>2012-03-20T16:14:38Z</time>
      </trkpt>
      <trkpt lat="46.2567" lon="-0.19032">
        <ele>142</ele>
        <time>2012-03-20T16:14:47Z</time>
      </trkpt>
      <trkpt lat="46.2567" lon="-0.19036">
        <ele>142</ele>
        <time>2012-03-20T16:14:48Z</time>
      </trkpt>
      <trkpt lat="46.25663" lon="-0.1904">
        <ele>142</ele>
        <time>2012-03-20T16:14:53Z</time>
      </trkpt>
      <trkpt lat="46.25653" lon="-0.19049">
        <ele>142</ele>
        <time>2012-03-20T16:15:02Z</time>
      </trkpt>
      <trkpt lat="46.25654" lon="-0.19052">
        <ele>142</ele>
        <time>2012-03-20T16:15:03Z</time>
      </trkpt>
      <trkpt lat="46.25646" lon="-0.1906">
        <ele>142</ele>
        <time>2012-03-20T16:15:15Z</time>
      </trkpt>
      <trkpt lat="46.25645" lon="-0.19061">
        <ele>142</ele>
        <time>2012-03-20T16:15:15Z</time>
      </trkpt>
      <trkpt lat="46.25639" lon="-0.19066">
        <ele>142</ele>
        <time>2012-03-20T16:15:22Z</time>
      </trkpt>
      <trkpt lat="46.25638" lon="-0.19066">
        <ele>142</ele>
        <time>2012-03-20T16:15:24Z</time>
      </trkpt>
      <trkpt lat="46.25634" lon="-0.19072">
        <ele>142</ele>
        <time>2012-03-20T16:15:33Z</time>
      </trkpt>
      <trkpt lat="46.25634" lon="-0.19072">
        <ele>142</ele>
        <time>2012-03-20T16:15:34Z</time>
      </trkpt>
      <trkpt lat="46.25634" lon="-0.1908">
        <ele>142</ele>
        <time>2012-03-20T16:15:39Z</time>
      </trkpt>
      <trkpt lat="46.25631" lon="-0.19095">
        <ele>142</ele>
        <time>2012-03-20T16:15:49Z</time>
      </trkpt>
      <trkpt lat="46.25631" lon="-0.19095">
        <ele>142</ele>
        <time>2012-03-20T16:15:50Z</time>
      </trkpt>
      <trkpt lat="46.25632" lon="-0.19104">
        <ele>142</ele>
        <time>2012-03-20T16:15:57Z</time>
      </trkpt>
      <trkpt lat="46.25631" lon="-0.19105">
        <ele>142</ele>
        <time>2012-03-20T16:15:58Z</time>
      </trkpt>
      <trkpt lat="46.2563" lon="-0.19106">
        <ele>142</ele>
        <time>2012-03-20T16:16:03Z</time>
      </trkpt>
      <trkpt lat="46.2563" lon="-0.19106">
        <ele>142</ele>
        <time>2012-03-20T16:16:08Z</time>
      </trkpt>
      <trkpt lat="46.2563" lon="-0.19106">
        <ele>142</ele>
        <time>2012-03-20T16:16:13Z</time>
      </trkpt>
      <trkpt lat="46.2563" lon="-0.19106">
        <ele>142</ele>
        <time>2012-03-20T16:16:18Z</time>
      </trkpt>
      <trkpt lat="46.25631" lon="-0.19106">
        <ele>142</ele>
        <time>2012-03-20T16:16:23Z</time>
      </trkpt>
      <trkpt lat="46.25631" lon="-0.19106">
        <ele>142</ele>
        <time>2012-03-20T16:16:28Z</time>
      </trkpt>
      <trkpt lat="46.25632" lon="-0.19109">
        <ele>142</ele>
        <time>2012-03-20T16:16:33Z</time>
      </trkpt>
      <trkpt lat="46.25631" lon="-0.19113">
        <ele>142</ele>
        <time>2012-03-20T16:16:38Z</time>
      </trkpt>
      <trkpt lat="46.25631" lon="-0.19117">
        <ele>142</ele>
        <time>2012-03-20T16:16:43Z</time>
      </trkpt>
      <trkpt lat="46.2563" lon="-0.19121">
        <ele>142</ele>
        <time>2012-03-20T16:16:48Z</time>
      </trkpt>
      <trkpt lat="46.25629" lon="-0.19124">
        <ele>142</ele>
        <time>2012-03-20T16:16:53Z</time>
      </trkpt>
      <trkpt lat="46.25629" lon="-0.19124">
        <ele>142</ele>
        <time>2012-03-20T16:16:58Z</time>
      </trkpt>
      <trkpt lat="46.25629" lon="-0.19124">
        <ele>142</ele>
        <time>2012-03-20T16:17:03Z</time>
      </trkpt>
      <trkpt lat="46.25627" lon="-0.19126">
        <ele>141</ele>
        <time>2012-03-20T16:17:08Z</time>
      </trkpt>
      <trkpt lat="46.25626" lon="-0.19133">
        <ele>141</ele>
        <time>2012-03-20T16:17:13Z</time>
      </trkpt>
      <trkpt lat="46.25626" lon="-0.19139">
        <ele>141</ele>
        <time>2012-03-20T16:17:18Z</time>
      </trkpt>
      <trkpt lat="46.25619" lon="-0.1915">
        <ele>142</ele>
        <time>2012-03-20T16:17:26Z</time>
      </trkpt>
      <trkpt lat="46.25617" lon="-0.19155">
        <ele>142</ele>
        <time>2012-03-20T16:17:29Z</time>
      </trkpt>
      <trkpt lat="46.25612" lon="-0.1916">
        <ele>142</ele>
        <time>2012-03-20T16:17:37Z</time>
      </trkpt>
      <trkpt lat="46.25612" lon="-0.19161">
        <ele>142</ele>
        <time>2012-03-20T16:17:38Z</time>
      </trkpt>
      <trkpt lat="46.25606" lon="-0.19169">
        <ele>142</ele>
        <time>2012-03-20T16:17:46Z</time>
      </trkpt>
      <trkpt lat="46.25603" lon="-0.19171">
        <ele>142</ele>
        <time>2012-03-20T16:17:49Z</time>
      </trkpt>
      <trkpt lat="46.25596" lon="-0.1918">
        <ele>142</ele>
        <time>2012-03-20T16:17:59Z</time>
      </trkpt>
      <trkpt lat="46.25589" lon="-0.19186">
        <ele>142</ele>
        <time>2012-03-20T16:18:07Z</time>
      </trkpt>
      <trkpt lat="46.25588" lon="-0.19187">
        <ele>142</ele>
        <time>2012-03-20T16:18:08Z</time>
      </trkpt>
      <trkpt lat="46.25583" lon="-0.19192">
        <ele>142</ele>
        <time>2012-03-20T16:18:13Z</time>
      </trkpt>
      <trkpt lat="46.25577" lon="-0.19201">
        <ele>142</ele>
        <time>2012-03-20T16:18:22Z</time>
      </trkpt>
      <trkpt lat="46.25575" lon="-0.19204">
        <ele>142</ele>
        <time>2012-03-20T16:18:23Z</time>
      </trkpt>
      <trkpt lat="46.25568" lon="-0.1921">
        <ele>141</ele>
        <time>2012-03-20T16:18:34Z</time>
      </trkpt>
      <trkpt lat="46.25566" lon="-0.19211">
        <ele>141</ele>
        <time>2012-03-20T16:18:34Z</time>
      </trkpt>
      <trkpt lat="46.25566" lon="-0.19215">
        <ele>141</ele>
        <time>2012-03-20T16:18:40Z</time>
      </trkpt>
      <trkpt lat="46.2556" lon="-0.19226">
        <ele>141</ele>
        <time>2012-03-20T16:18:47Z</time>
      </trkpt>
      <trkpt lat="46.25559" lon="-0.19228">
        <ele>141</ele>
        <time>2012-03-20T16:18:50Z</time>
      </trkpt>
      <trkpt lat="46.25552" lon="-0.19235">
        <ele>141</ele>
        <time>2012-03-20T16:18:57Z</time>
      </trkpt>
      <trkpt lat="46.2555" lon="-0.19236">
        <ele>141</ele>
        <time>2012-03-20T16:18:59Z</time>
      </trkpt>
      <trkpt lat="46.25538" lon="-0.19241">
        <ele>140</ele>
        <time>2012-03-20T16:19:08Z</time>
      </trkpt>
      <trkpt lat="46.25537" lon="-0.19241">
        <ele>140</ele>
        <time>2012-03-20T16:19:08Z</time>
      </trkpt>
      <trkpt lat="46.2553" lon="-0.19236">
        <ele>140</ele>
        <time>2012-03-20T16:19:20Z</time>
      </trkpt>
      <trkpt lat="46.2553" lon="-0.19237">
        <ele>140</ele>
        <time>2012-03-20T16:19:20Z</time>
      </trkpt>
      <trkpt lat="46.25524" lon="-0.19235">
        <ele>140</ele>
        <time>2012-03-20T16:19:26Z</time>
      </trkpt>
      <trkpt lat="46.25522" lon="-0.19237">
        <ele>140</ele>
        <time>2012-03-20T16:19:29Z</time>
      </trkpt>
      <trkpt lat="46.25515" lon="-0.1925">
        <ele>140</ele>
        <time>2012-03-20T16:19:37Z</time>
      </trkpt>
      <trkpt lat="46.25514" lon="-0.1925">
        <ele>140</ele>
        <time>2012-03-20T16:19:38Z</time>
      </trkpt>
      <trkpt lat="46.25506" lon="-0.19257">
        <ele>140</ele>
        <time>2012-03-20T16:19:47Z</time>
      </trkpt>
      <trkpt lat="46.25505" lon="-0.19258">
        <ele>140</ele>
        <time>2012-03-20T16:19:48Z</time>
      </trkpt>
      <trkpt lat="46.25505" lon="-0.19266">
        <ele>140</ele>
        <time>2012-03-20T16:19:59Z</time>
      </trkpt>
      <trkpt lat="46.25506" lon="-0.19267">
        <ele>140</ele>
        <time>2012-03-20T16:20:00Z</time>
      </trkpt>
      <trkpt lat="46.25508" lon="-0.1927">
        <ele>140</ele>
        <time>2012-03-20T16:20:06Z</time>
      </trkpt>
      <trkpt lat="46.25509" lon="-0.19272">
        <ele>140</ele>
        <time>2012-03-20T16:20:08Z</time>
      </trkpt>
      <trkpt lat="46.25513" lon="-0.19275">
        <ele>140</ele>
        <time>2012-03-20T16:20:17Z</time>
      </trkpt>
      <trkpt lat="46.25513" lon="-0.19276">
        <ele>140</ele>
        <time>2012-03-20T16:20:18Z</time>
      </trkpt>
      <trkpt lat="46.2552" lon="-0.19284">
        <ele>140</ele>
        <time>2012-03-20T16:20:30Z</time>
      </trkpt>
      <trkpt lat="46.25521" lon="-0.19285">
        <ele>140</ele>
        <time>2012-03-20T16:20:31Z</time>
      </trkpt>
      <trkpt lat="46.25526" lon="-0.19289">
        <ele>140</ele>
        <time>2012-03-20T16:20:35Z</time>
      </trkpt>
      <trkpt lat="46.25528" lon="-0.19291">
        <ele>140</ele>
        <time>2012-03-20T16:20:39Z</time>
      </trkpt>
      <trkpt lat="46.25534" lon="-0.19298">
        <ele>139</ele>
        <time>2012-03-20T16:20:47Z</time>
      </trkpt>
      <trkpt lat="46.25536" lon="-0.19299">
        <ele>139</ele>
        <time>2012-03-20T16:20:48Z</time>
      </trkpt>
      <trkpt lat="46.25542" lon="-0.19307">
        <ele>140</ele>
        <time>2012-03-20T16:20:59Z</time>
      </trkpt>
      <trkpt lat="46.25543" lon="-0.19308">
        <ele>140</ele>
        <time>2012-03-20T16:20:59Z</time>
      </trkpt>
      <trkpt lat="46.25545" lon="-0.19312">
        <ele>140</ele>
        <time>2012-03-20T16:21:03Z</time>
      </trkpt>
      <trkpt lat="46.25546" lon="-0.19317">
        <ele>140</ele>
        <time>2012-03-20T16:21:08Z</time>
      </trkpt>
      <trkpt lat="46.25539" lon="-0.19335">
        <ele>139</ele>
        <time>2012-03-20T16:21:22Z</time>
      </trkpt>
      <trkpt lat="46.25539" lon="-0.19335">
        <ele>139</ele>
        <time>2012-03-20T16:21:22Z</time>
      </trkpt>
      <trkpt lat="46.25539" lon="-0.19337">
        <ele>139</ele>
        <time>2012-03-20T16:21:24Z</time>
      </trkpt>
      <trkpt lat="46.25536" lon="-0.19343">
        <ele>139</ele>
        <time>2012-03-20T16:21:33Z</time>
      </trkpt>
      <trkpt lat="46.25537" lon="-0.19343">
        <ele>139</ele>
        <time>2012-03-20T16:21:34Z</time>
      </trkpt>
      <trkpt lat="46.25535" lon="-0.1935">
        <ele>139</ele>
        <time>2012-03-20T16:21:41Z</time>
      </trkpt>
      <trkpt lat="46.25535" lon="-0.19354">
        <ele>139</ele>
        <time>2012-03-20T16:21:45Z</time>
      </trkpt>
      <trkpt lat="46.25533" lon="-0.19367">
        <ele>139</ele>
        <time>2012-03-20T16:21:52Z</time>
      </trkpt>
      <trkpt lat="46.25533" lon="-0.19367">
        <ele>139</ele>
        <time>2012-03-20T16:21:53Z</time>
      </trkpt>
      <trkpt lat="46.25533" lon="-0.19379">
        <ele>135</ele>
        <time>2012-03-20T16:22:03Z</time>
      </trkpt>
      <trkpt lat="46.25533" lon="-0.19381">
        <ele>135</ele>
        <time>2012-03-20T16:22:03Z</time>
      </trkpt>
      <trkpt lat="46.25533" lon="-0.19387">
        <ele>135</ele>
        <time>2012-03-20T16:22:08Z</time>
      </trkpt>
      <trkpt lat="46.25535" lon="-0.19399">
        <ele>135</ele>
        <time>2012-03-20T16:22:17Z</time>
      </trkpt>
      <trkpt lat="46.25536" lon="-0.19404">
        <ele>135</ele>
        <time>2012-03-20T16:22:19Z</time>
      </trkpt>
      <trkpt lat="46.25539" lon="-0.19415">
        <ele>135</ele>
        <time>2012-03-20T16:22:28Z</time>
      </trkpt>
      <trkpt lat="46.25539" lon="-0.19417">
        <ele>135</ele>
        <time>2012-03-20T16:22:28Z</time>
      </trkpt>
      <trkpt lat="46.25539" lon="-0.19421">
        <ele>135</ele>
        <time>2012-03-20T16:22:38Z</time>
      </trkpt>
      <trkpt lat="46.25539" lon="-0.19427">
        <ele>135</ele>
        <time>2012-03-20T16:22:45Z</time>
      </trkpt>
      <trkpt lat="46.2554" lon="-0.19437">
        <ele>135</ele>
        <time>2012-03-20T16:22:52Z</time>
      </trkpt>
      <trkpt lat="46.2554" lon="-0.19444">
        <ele>135</ele>
        <time>2012-03-20T16:22:53Z</time>
      </trkpt>
      <trkpt lat="46.25541" lon="-0.19456">
        <ele>135</ele>
        <time>2012-03-20T16:23:03Z</time>
      </trkpt>
      <trkpt lat="46.25544" lon="-0.19458">
        <ele>134</ele>
        <time>2012-03-20T16:23:04Z</time>
      </trkpt>
      <trkpt lat="46.25543" lon="-0.19459">
        <ele>128</ele>
        <time>2012-03-20T16:23:10Z</time>
      </trkpt>
      <trkpt lat="46.25544" lon="-0.19459">
        <ele>128</ele>
        <time>2012-03-20T16:23:13Z</time>
      </trkpt>
      <trkpt lat="46.25544" lon="-0.19459">
        <ele>128</ele>
        <time>2012-03-20T16:23:18Z</time>
      </trkpt>
      <trkpt lat="46.25543" lon="-0.19461">
        <ele>128</ele>
        <time>2012-03-20T16:23:23Z</time>
      </trkpt>
      <trkpt lat="46.25543" lon="-0.19461">
        <ele>128</ele>
        <time>2012-03-20T16:23:28Z</time>
      </trkpt>
      <trkpt lat="46.25544" lon="-0.19462">
        <ele>128</ele>
        <time>2012-03-20T16:23:33Z</time>
      </trkpt>
      <trkpt lat="46.25544" lon="-0.19468">
        <ele>128</ele>
        <time>2012-03-20T16:23:38Z</time>
      </trkpt>
      <trkpt lat="46.25543" lon="-0.19463">
        <ele>128</ele>
        <time>2012-03-20T16:23:43Z</time>
      </trkpt>
      <trkpt lat="46.25547" lon="-0.19478">
        <ele>128</ele>
        <time>2012-03-20T16:23:48Z</time>
      </trkpt>
      <trkpt lat="46.25591" lon="-0.19478">
        <ele>128</ele>
        <time>2012-03-20T16:23:48Z</time>
      </trkpt>
      <trkpt lat="46.25647" lon="-0.19456">
        <ele>129</ele>
        <time>2012-03-20T16:23:48Z</time>
      </trkpt>
      <trkpt lat="46.25667" lon="-0.19472">
        <ele>125</ele>
        <time>2012-03-20T16:23:48Z</time>
      </trkpt>
      <trkpt lat="46.25677" lon="-0.19491">
        <ele>125</ele>
        <time>2012-03-20T16:23:48Z</time>
      </trkpt>
      <trkpt lat="46.25694" lon="-0.19509">
        <ele>125</ele>
        <time>2012-03-20T16:23:48Z</time>
      </trkpt>
      <trkpt lat="46.25714" lon="-0.19552">
        <ele>128</ele>
        <time>2012-03-20T16:23:48Z</time>
      </trkpt>
      <trkpt lat="46.25744" lon="-0.19631">
        <ele>128</ele>
        <time>2012-03-20T16:23:48Z</time>
      </trkpt>
      <trkpt lat="46.25765" lon="-0.19686">
        <ele>128</ele>
        <time>2012-03-20T16:23:48Z</time>
      </trkpt>
      <trkpt lat="46.25809" lon="-0.19748">
        <ele>129</ele>
        <time>2012-03-20T16:23:48Z</time>
      </trkpt>
      <trkpt lat="46.25851" lon="-0.19824">
        <ele>126</ele>
        <time>2012-03-20T16:23:48Z</time>
      </trkpt>
      <trkpt lat="46.25897" lon="-0.19928">
        <ele>132</ele>
        <time>2012-03-20T16:23:53Z</time>
      </trkpt>
      <trkpt lat="46.25983" lon="-0.20154">
        <ele>139</ele>
        <time>2012-03-20T16:23:53Z</time>
      </trkpt>
      <trkpt lat="46.26" lon="-0.20189">
        <ele>139</ele>
        <time>2012-03-20T16:23:53Z</time>
      </trkpt>
      <trkpt lat="46.26006" lon="-0.20226">
        <ele>137</ele>
        <time>2012-03-20T16:23:53Z</time>
      </trkpt>
      <trkpt lat="46.26004" lon="-0.20289">
        <ele>137</ele>
        <time>2012-03-20T16:23:53Z</time>
      </trkpt>
      <trkpt lat="46.26015" lon="-0.20333">
        <ele>135</ele>
        <time>2012-03-20T16:23:53Z</time>
      </trkpt>
      <trkpt lat="46.26035" lon="-0.20383">
        <ele>131</ele>
        <time>2012-03-20T16:23:53Z</time>
      </trkpt>
      <trkpt lat="46.26051" lon="-0.2045">
        <ele>132</ele>
        <time>2012-03-20T16:23:53Z</time>
      </trkpt>
      <trkpt lat="46.26052" lon="-0.20491">
        <ele>129</ele>
        <time>2012-03-20T16:38:12Z</time>
      </trkpt>
      <trkpt lat="46.26051" lon="-0.20504">
        <ele>129</ele>
        <time>2012-03-20T16:38:14Z</time>
      </trkpt>
      <trkpt lat="46.26056" lon="-0.20512">
        <ele>129</ele>
        <time>2012-03-20T16:38:22Z</time>
      </trkpt>
      <trkpt lat="46.26053" lon="-0.20512">
        <ele>129</ele>
        <time>2012-03-20T16:38:22Z</time>
      </trkpt>
      <trkpt lat="46.26056" lon="-0.20513">
        <ele>129</ele>
        <time>2012-03-20T16:38:23Z</time>
      </trkpt>
      <trkpt lat="46.2606" lon="-0.20526">
        <ele>129</ele>
        <time>2012-03-20T16:38:33Z</time>
      </trkpt>
      <trkpt lat="46.26061" lon="-0.20528">
        <ele>129</ele>
        <time>2012-03-20T16:38:33Z</time>
      </trkpt>
      <trkpt lat="46.26066" lon="-0.20536">
        <ele>129</ele>
        <time>2012-03-20T16:38:42Z</time>
      </trkpt>
      <trkpt lat="46.26067" lon="-0.20539">
        <ele>129</ele>
        <time>2012-03-20T16:38:43Z</time>
      </trkpt>
      <trkpt lat="46.26074" lon="-0.20556">
        <ele>126</ele>
        <time>2012-03-20T16:38:55Z</time>
      </trkpt>
      <trkpt lat="46.26075" lon="-0.20557">
        <ele>126</ele>
        <time>2012-03-20T16:38:55Z</time>
      </trkpt>
      <trkpt lat="46.26079" lon="-0.20567">
        <ele>126</ele>
        <time>2012-03-20T16:39:02Z</time>
      </trkpt>
      <trkpt lat="46.2608" lon="-0.20569">
        <ele>126</ele>
        <time>2012-03-20T16:39:03Z</time>
      </trkpt>
      <trkpt lat="46.26086" lon="-0.20583">
        <ele>126</ele>
        <time>2012-03-20T16:39:13Z</time>
      </trkpt>
      <trkpt lat="46.26087" lon="-0.20584">
        <ele>126</ele>
        <time>2012-03-20T16:39:13Z</time>
      </trkpt>
      <trkpt lat="46.26091" lon="-0.20591">
        <ele>126</ele>
        <time>2012-03-20T16:39:22Z</time>
      </trkpt>
      <trkpt lat="46.26091" lon="-0.20586">
        <ele>126</ele>
        <time>2012-03-20T16:39:23Z</time>
      </trkpt>
      <trkpt lat="46.26098" lon="-0.20612">
        <ele>126</ele>
        <time>2012-03-20T16:39:34Z</time>
      </trkpt>
      <trkpt lat="46.26098" lon="-0.20613">
        <ele>126</ele>
        <time>2012-03-20T16:39:35Z</time>
      </trkpt>
      <trkpt lat="46.261" lon="-0.20623">
        <ele>126</ele>
        <time>2012-03-20T16:39:40Z</time>
      </trkpt>
      <trkpt lat="46.26101" lon="-0.2063">
        <ele>120</ele>
        <time>2012-03-20T16:39:45Z</time>
      </trkpt>
      <trkpt lat="46.26102" lon="-0.20633">
        <ele>120</ele>
        <time>2012-03-20T16:39:50Z</time>
      </trkpt>
      <trkpt lat="46.26102" lon="-0.20631">
        <ele>120</ele>
        <time>2012-03-20T16:39:53Z</time>
      </trkpt>
      <trkpt lat="46.26102" lon="-0.20631">
        <ele>120</ele>
        <time>2012-03-20T16:39:58Z</time>
      </trkpt>
      <trkpt lat="46.26102" lon="-0.20631">
        <ele>120</ele>
        <time>2012-03-20T16:40:03Z</time>
      </trkpt>
      <trkpt lat="46.26104" lon="-0.20631">
        <ele>120</ele>
        <time>2012-03-20T16:40:08Z</time>
      </trkpt>
      <trkpt lat="46.26105" lon="-0.20633">
        <ele>120</ele>
        <time>2012-03-20T16:40:13Z</time>
      </trkpt>
      <trkpt lat="46.26105" lon="-0.20642">
        <ele>120</ele>
        <time>2012-03-20T16:40:18Z</time>
      </trkpt>
      <trkpt lat="46.26103" lon="-0.20647">
        <ele>120</ele>
        <time>2012-03-20T16:40:23Z</time>
      </trkpt>
      <trkpt lat="46.26103" lon="-0.20655">
        <ele>120</ele>
        <time>2012-03-20T16:40:28Z</time>
      </trkpt>
      <trkpt lat="46.26103" lon="-0.20662">
        <ele>120</ele>
        <time>2012-03-20T16:40:33Z</time>
      </trkpt>
      <trkpt lat="46.26104" lon="-0.20668">
        <ele>120</ele>
        <time>2012-03-20T16:40:38Z</time>
      </trkpt>
      <trkpt lat="46.26101" lon="-0.20671">
        <ele>120</ele>
        <time>2012-03-20T16:40:43Z</time>
      </trkpt>
      <trkpt lat="46.26101" lon="-0.20674">
        <ele>120</ele>
        <time>2012-03-20T16:40:48Z</time>
      </trkpt>
      <trkpt lat="46.261" lon="-0.20674">
        <ele>120</ele>
        <time>2012-03-20T16:40:53Z</time>
      </trkpt>
      <trkpt lat="46.26099" lon="-0.20676">
        <ele>120</ele>
        <time>2012-03-20T16:40:58Z</time>
      </trkpt>
      <trkpt lat="46.261" lon="-0.20676">
        <ele>120</ele>
        <time>2012-03-20T16:41:03Z</time>
      </trkpt>
      <trkpt lat="46.261" lon="-0.20676">
        <ele>120</ele>
        <time>2012-03-20T16:41:08Z</time>
      </trkpt>
      <trkpt lat="46.261" lon="-0.20676">
        <ele>120</ele>
        <time>2012-03-20T16:41:13Z</time>
      </trkpt>
      <trkpt lat="46.261" lon="-0.20676">
        <ele>120</ele>
        <time>2012-03-20T16:41:18Z</time>
      </trkpt>
      <trkpt lat="46.261" lon="-0.20676">
        <ele>120</ele>
        <time>2012-03-20T16:41:23Z</time>
      </trkpt>
      <trkpt lat="46.26099" lon="-0.20676">
        <ele>120</ele>
        <time>2012-03-20T16:41:28Z</time>
      </trkpt>
      <trkpt lat="46.26099" lon="-0.20676">
        <ele>120</ele>
        <time>2012-03-20T16:41:33Z</time>
      </trkpt>
      <trkpt lat="46.26099" lon="-0.20677">
        <ele>120</ele>
        <time>2012-03-20T16:41:38Z</time>
      </trkpt>
      <trkpt lat="46.26099" lon="-0.20677">
        <ele>120</ele>
        <time>2012-03-20T16:41:43Z</time>
      </trkpt>
      <trkpt lat="46.26099" lon="-0.20677">
        <ele>120</ele>
        <time>2012-03-20T16:41:48Z</time>
      </trkpt>
      <trkpt lat="46.26099" lon="-0.20677">
        <ele>120</ele>
        <time>2012-03-20T16:41:53Z</time>
      </trkpt>
      <trkpt lat="46.26102" lon="-0.20676">
        <ele>120</ele>
        <time>2012-03-20T16:41:58Z</time>
      </trkpt>
      <trkpt lat="46.26106" lon="-0.20676">
        <ele>120</ele>
        <time>2012-03-20T16:42:03Z</time>
      </trkpt>
      <trkpt lat="46.26108" lon="-0.20681">
        <ele>120</ele>
        <time>2012-03-20T16:42:08Z</time>
      </trkpt>
      <trkpt lat="46.26112" lon="-0.20686">
        <ele>120</ele>
        <time>2012-03-20T16:42:13Z</time>
      </trkpt>
      <trkpt lat="46.26113" lon="-0.20692">
        <ele>120</ele>
        <time>2012-03-20T16:42:18Z</time>
      </trkpt>
      <trkpt lat="46.26114" lon="-0.20696">
        <ele>120</ele>
        <time>2012-03-20T16:42:23Z</time>
      </trkpt>
      <trkpt lat="46.26115" lon="-0.20702">
        <ele>120</ele>
        <time>2012-03-20T16:42:28Z</time>
      </trkpt>
      <trkpt lat="46.26117" lon="-0.20709">
        <ele>109</ele>
        <time>2012-03-20T16:42:33Z</time>
      </trkpt>
      <trkpt lat="46.26119" lon="-0.20714">
        <ele>109</ele>
        <time>2012-03-20T16:42:38Z</time>
      </trkpt>
      <trkpt lat="46.2612" lon="-0.20719">
        <ele>109</ele>
        <time>2012-03-20T16:42:43Z</time>
      </trkpt>
      <trkpt lat="46.26123" lon="-0.20727">
        <ele>109</ele>
        <time>2012-03-20T16:42:48Z</time>
      </trkpt>
      <trkpt lat="46.26126" lon="-0.20736">
        <ele>112</ele>
        <time>2012-03-20T16:42:53Z</time>
      </trkpt>
      <trkpt lat="46.26127" lon="-0.20744">
        <ele>112</ele>
        <time>2012-03-20T16:42:58Z</time>
      </trkpt>
      <trkpt lat="46.2613" lon="-0.20752">
        <ele>112</ele>
        <time>2012-03-20T16:43:05Z</time>
      </trkpt>
      <trkpt lat="46.26132" lon="-0.20757">
        <ele>112</ele>
        <time>2012-03-20T16:43:11Z</time>
      </trkpt>
      <trkpt lat="46.26131" lon="-0.20758">
        <ele>112</ele>
        <time>2012-03-20T16:43:13Z</time>
      </trkpt>
      <trkpt lat="46.26131" lon="-0.20757">
        <ele>112</ele>
        <time>2012-03-20T16:43:20Z</time>
      </trkpt>
      <trkpt lat="46.26131" lon="-0.20757">
        <ele>112</ele>
        <time>2012-03-20T16:43:26Z</time>
      </trkpt>
      <trkpt lat="46.26131" lon="-0.20757">
        <ele>112</ele>
        <time>2012-03-20T16:43:29Z</time>
      </trkpt>
      <trkpt lat="46.26132" lon="-0.20765">
        <ele>112</ele>
        <time>2012-03-20T16:43:37Z</time>
      </trkpt>
      <trkpt lat="46.26133" lon="-0.20766">
        <ele>112</ele>
        <time>2012-03-20T16:43:38Z</time>
      </trkpt>
      <trkpt lat="46.26137" lon="-0.20776">
        <ele>112</ele>
        <time>2012-03-20T16:43:49Z</time>
      </trkpt>
      <trkpt lat="46.26137" lon="-0.20777">
        <ele>112</ele>
        <time>2012-03-20T16:43:49Z</time>
      </trkpt>
      <trkpt lat="46.2614" lon="-0.20784">
        <ele>112</ele>
        <time>2012-03-20T16:43:56Z</time>
      </trkpt>
      <trkpt lat="46.2614" lon="-0.20784">
        <ele>112</ele>
        <time>2012-03-20T16:43:59Z</time>
      </trkpt>
      <trkpt lat="46.26143" lon="-0.20788">
        <ele>112</ele>
        <time>2012-03-20T16:44:04Z</time>
      </trkpt>
      <trkpt lat="46.26146" lon="-0.20797">
        <ele>103</ele>
        <time>2012-03-20T16:44:12Z</time>
      </trkpt>
      <trkpt lat="46.26147" lon="-0.208">
        <ele>103</ele>
        <time>2012-03-20T16:44:14Z</time>
      </trkpt>
      <trkpt lat="46.26149" lon="-0.20809">
        <ele>103</ele>
        <time>2012-03-20T16:44:21Z</time>
      </trkpt>
      <trkpt lat="46.26149" lon="-0.20809">
        <ele>103</ele>
        <time>2012-03-20T16:44:24Z</time>
      </trkpt>
      <trkpt lat="46.2615" lon="-0.20809">
        <ele>103</ele>
        <time>2012-03-20T16:44:28Z</time>
      </trkpt>
      <trkpt lat="46.26149" lon="-0.20809">
        <ele>103</ele>
        <time>2012-03-20T16:44:33Z</time>
      </trkpt>
      <trkpt lat="46.26149" lon="-0.20809">
        <ele>103</ele>
        <time>2012-03-20T16:44:38Z</time>
      </trkpt>
      <trkpt lat="46.26149" lon="-0.20809">
        <ele>103</ele>
        <time>2012-03-20T16:44:43Z</time>
      </trkpt>
      <trkpt lat="46.2615" lon="-0.2081">
        <ele>103</ele>
        <time>2012-03-20T16:44:48Z</time>
      </trkpt>
      <trkpt lat="46.26155" lon="-0.20815">
        <ele>103</ele>
        <time>2012-03-20T16:44:53Z</time>
      </trkpt>
      <trkpt lat="46.26157" lon="-0.20818">
        <ele>103</ele>
        <time>2012-03-20T16:44:58Z</time>
      </trkpt>
      <trkpt lat="46.26157" lon="-0.20825">
        <ele>103</ele>
        <time>2012-03-20T16:45:03Z</time>
      </trkpt>
      <trkpt lat="46.2616" lon="-0.20834">
        <ele>103</ele>
        <time>2012-03-20T16:45:08Z</time>
      </trkpt>
      <trkpt lat="46.26163" lon="-0.20841">
        <ele>103</ele>
        <time>2012-03-20T16:45:13Z</time>
      </trkpt>
      <trkpt lat="46.26165" lon="-0.20848">
        <ele>103</ele>
        <time>2012-03-20T16:45:18Z</time>
      </trkpt>
      <trkpt lat="46.26168" lon="-0.20856">
        <ele>103</ele>
        <time>2012-03-20T16:45:23Z</time>
      </trkpt>
      <trkpt lat="46.26167" lon="-0.20861">
        <ele>103</ele>
        <time>2012-03-20T16:45:28Z</time>
      </trkpt>
      <trkpt lat="46.26167" lon="-0.20861">
        <ele>103</ele>
        <time>2012-03-20T16:45:33Z</time>
      </trkpt>
      <trkpt lat="46.26167" lon="-0.20861">
        <ele>103</ele>
        <time>2012-03-20T16:45:38Z</time>
      </trkpt>
      <trkpt lat="46.26167" lon="-0.20861">
        <ele>103</ele>
        <time>2012-03-20T16:45:43Z</time>
      </trkpt>
      <trkpt lat="46.26171" lon="-0.20861">
        <ele>103</ele>
        <time>2012-03-20T16:45:48Z</time>
      </trkpt>
      <trkpt lat="46.26176" lon="-0.20863">
        <ele>103</ele>
        <time>2012-03-20T16:45:53Z</time>
      </trkpt>
      <trkpt lat="46.26182" lon="-0.20862">
        <ele>103</ele>
        <time>2012-03-20T16:45:58Z</time>
      </trkpt>
      <trkpt lat="46.26187" lon="-0.20861">
        <ele>103</ele>
        <time>2012-03-20T16:46:03Z</time>
      </trkpt>
      <trkpt lat="46.26192" lon="-0.20858">
        <ele>103</ele>
        <time>2012-03-20T16:46:08Z</time>
      </trkpt>
      <trkpt lat="46.26195" lon="-0.20856">
        <ele>103</ele>
        <time>2012-03-20T16:46:13Z</time>
      </trkpt>
      <trkpt lat="46.262" lon="-0.20854">
        <ele>103</ele>
        <time>2012-03-20T16:46:18Z</time>
      </trkpt>
      <trkpt lat="46.26207" lon="-0.20853">
        <ele>103</ele>
        <time>2012-03-20T16:46:23Z</time>
      </trkpt>
      <trkpt lat="46.2621" lon="-0.20852">
        <ele>105</ele>
        <time>2012-03-20T16:46:28Z</time>
      </trkpt>
      <trkpt lat="46.26214" lon="-0.20846">
        <ele>105</ele>
        <time>2012-03-20T16:46:33Z</time>
      </trkpt>
      <trkpt lat="46.26217" lon="-0.20846">
        <ele>105</ele>
        <time>2012-03-20T16:46:38Z</time>
      </trkpt>
      <trkpt lat="46.2622" lon="-0.20847">
        <ele>105</ele>
        <time>2012-03-20T16:46:43Z</time>
      </trkpt>
      <trkpt lat="46.2622" lon="-0.20847">
        <ele>105</ele>
        <time>2012-03-20T16:46:48Z</time>
      </trkpt>
      <trkpt lat="46.2622" lon="-0.20847">
        <ele>105</ele>
        <time>2012-03-20T16:46:53Z</time>
      </trkpt>
      <trkpt lat="46.2622" lon="-0.20847">
        <ele>105</ele>
        <time>2012-03-20T16:46:58Z</time>
      </trkpt>
      <trkpt lat="46.2622" lon="-0.20847">
        <ele>105</ele>
        <time>2012-03-20T16:47:03Z</time>
      </trkpt>
      <trkpt lat="46.2622" lon="-0.20847">
        <ele>105</ele>
        <time>2012-03-20T16:47:08Z</time>
      </trkpt>
      <trkpt lat="46.26231" lon="-0.20842">
        <ele>105</ele>
        <time>2012-03-20T16:47:13Z</time>
      </trkpt>
      <trkpt lat="46.26234" lon="-0.2084">
        <ele>105</ele>
        <time>2012-03-20T16:47:18Z</time>
      </trkpt>
      <trkpt lat="46.26239" lon="-0.20837">
        <ele>105</ele>
        <time>2012-03-20T16:47:23Z</time>
      </trkpt>
      <trkpt lat="46.26244" lon="-0.20835">
        <ele>105</ele>
        <time>2012-03-20T16:47:28Z</time>
      </trkpt>
      <trkpt lat="46.2625" lon="-0.20833">
        <ele>105</ele>
        <time>2012-03-20T16:47:33Z</time>
      </trkpt>
      <trkpt lat="46.26254" lon="-0.20833">
        <ele>105</ele>
        <time>2012-03-20T16:47:38Z</time>
      </trkpt>
      <trkpt lat="46.2626" lon="-0.20835">
        <ele>105</ele>
        <time>2012-03-20T16:47:43Z</time>
      </trkpt>
      <trkpt lat="46.26264" lon="-0.20835">
        <ele>105</ele>
        <time>2012-03-20T16:47:48Z</time>
      </trkpt>
      <trkpt lat="46.26266" lon="-0.20833">
        <ele>105</ele>
        <time>2012-03-20T16:47:53Z</time>
      </trkpt>
      <trkpt lat="46.2626" lon="-0.20833">
        <ele>105</ele>
        <time>2012-03-20T16:47:58Z</time>
      </trkpt>
      <trkpt lat="46.26256" lon="-0.20832">
        <ele>105</ele>
        <time>2012-03-20T16:48:03Z</time>
      </trkpt>
      <trkpt lat="46.26251" lon="-0.20832">
        <ele>105</ele>
        <time>2012-03-20T16:48:08Z</time>
      </trkpt>
      <trkpt lat="46.26247" lon="-0.20832">
        <ele>105</ele>
        <time>2012-03-20T16:48:13Z</time>
      </trkpt>
      <trkpt lat="46.26245" lon="-0.20833">
        <ele>105</ele>
        <time>2012-03-20T16:48:18Z</time>
      </trkpt>
      <trkpt lat="46.26245" lon="-0.20832">
        <ele>105</ele>
        <time>2012-03-20T16:48:23Z</time>
      </trkpt>
      <trkpt lat="46.26246" lon="-0.20833">
        <ele>105</ele>
        <time>2012-03-20T16:48:28Z</time>
      </trkpt>
      <trkpt lat="46.26246" lon="-0.20833">
        <ele>105</ele>
        <time>2012-03-20T16:48:33Z</time>
      </trkpt>
      <trkpt lat="46.26246" lon="-0.20833">
        <ele>105</ele>
        <time>2012-03-20T16:48:38Z</time>
      </trkpt>
      <trkpt lat="46.26246" lon="-0.20833">
        <ele>105</ele>
        <time>2012-03-20T16:48:43Z</time>
      </trkpt>
      <trkpt lat="46.26246" lon="-0.20833">
        <ele>105</ele>
        <time>2012-03-20T16:48:48Z</time>
      </trkpt>
      <trkpt lat="46.26246" lon="-0.20833">
        <ele>105</ele>
        <time>2012-03-20T16:48:53Z</time>
      </trkpt>
    </trkseg>
  </trk>
</gpx>